<?xml version="1.0" encoding="UTF-8" standalone="no" ?>
<gpx xmlns="http://www.topografix.com/GPX/1/1" xmlns:xsi="http://www.w3.org/2001/XMLSchema-instance" xsi:schemaLocation="http://www.topografix.com/GPX/1/1 http://www.topografix.com/GPX/1/1/gpx.xsd" version="1.1" creator="VisuGPX - https://www.visugpx.com">
  <metadata>
    <name>La Route Napoléon à Cheval© dans les Alpes de Haute-Provence - Itinéraire principal</name>
    <desc><![CDATA[
C'est un itinéraire de 140 km de Peyroules à Sisteron. L'altitude varie de 425 m à 1 245 m. Le dénivelé maximum est de 20 %.La moyenne montagne représente 60 % du parcours.

Randonner sur la Route Napoléon à Cheval avec un centre équestre
Les Crins de GaÏa, Hameau des Tourettes - 04300 Forcalquier.
Site internet : http://www.lescrinsdegaia.com 
Mail : stevelatruffe@yahoo.fr  Tél : 06 86 10 90 17
]]></desc>
  </metadata>
  <trk>
    <name><![CDATA[4506843-Route Napoléon à Cheval]]></name>
    <trkseg>
      <trkpt lat="43.79616" lon="6.64858">
        <ele>1115</ele>
        <time>2018-05-15T21:20:51Z</time>
      </trkpt>
      <trkpt lat="43.79678" lon="6.64802">
        <ele>1116</ele>
        <time>2018-05-15T21:21:51Z</time>
      </trkpt>
      <trkpt lat="43.79712" lon="6.64738">
        <ele>1113</ele>
        <time>2018-05-15T21:22:51Z</time>
      </trkpt>
      <trkpt lat="43.79746" lon="6.64673">
        <ele>1107</ele>
        <time>2018-05-15T21:23:51Z</time>
      </trkpt>
      <trkpt lat="43.79789" lon="6.64596">
        <ele>1099</ele>
        <time>2018-05-15T21:24:51Z</time>
      </trkpt>
      <trkpt lat="43.79811" lon="6.64489">
        <ele>1098</ele>
        <time>2018-05-15T21:25:51Z</time>
      </trkpt>
      <trkpt lat="43.79857" lon="6.64364">
        <ele>1096</ele>
        <time>2018-05-15T21:26:51Z</time>
      </trkpt>
      <trkpt lat="43.79901" lon="6.64274">
        <ele>1090</ele>
        <time>2018-05-15T21:27:51Z</time>
      </trkpt>
      <trkpt lat="43.79935" lon="6.64029">
        <ele>1077</ele>
        <time>2018-05-15T21:28:51Z</time>
      </trkpt>
      <trkpt lat="43.80037" lon="6.64012">
        <ele>1076</ele>
        <time>2018-05-15T21:29:51Z</time>
      </trkpt>
      <trkpt lat="43.8013" lon="6.63974">
        <ele>1079</ele>
        <time>2018-05-15T21:30:51Z</time>
      </trkpt>
      <trkpt lat="43.80214" lon="6.63948">
        <ele>1088</ele>
        <time>2018-05-15T21:31:51Z</time>
      </trkpt>
      <trkpt lat="43.80297" lon="6.63965">
        <ele>1092</ele>
        <time>2018-05-15T21:32:51Z</time>
      </trkpt>
      <trkpt lat="43.80396" lon="6.63999">
        <ele>1094</ele>
        <time>2018-05-15T21:33:51Z</time>
      </trkpt>
      <trkpt lat="43.8044" lon="6.64077">
        <ele>1094</ele>
        <time>2018-05-15T21:34:51Z</time>
      </trkpt>
      <trkpt lat="43.80483" lon="6.64197">
        <ele>1091</ele>
        <time>2018-05-15T21:35:51Z</time>
      </trkpt>
      <trkpt lat="43.80495" lon="6.64373">
        <ele>1094</ele>
        <time>2018-05-15T21:36:51Z</time>
      </trkpt>
      <trkpt lat="43.80632" lon="6.64424">
        <ele>1094</ele>
        <time>2018-05-15T21:37:51Z</time>
      </trkpt>
      <trkpt lat="43.80756" lon="6.64351">
        <ele>1092</ele>
        <time>2018-05-15T21:38:51Z</time>
      </trkpt>
      <trkpt lat="43.80728" lon="6.64261">
        <ele>1106</ele>
        <time>2018-05-15T21:39:51Z</time>
      </trkpt>
      <trkpt lat="43.80737" lon="6.64124">
        <ele>1121</ele>
        <time>2018-05-15T21:40:51Z</time>
      </trkpt>
      <trkpt lat="43.80675" lon="6.63922">
        <ele>1150</ele>
        <time>2018-05-15T21:41:51Z</time>
      </trkpt>
      <trkpt lat="43.80638" lon="6.63909">
        <ele>1149</ele>
        <time>2018-05-15T21:42:51Z</time>
      </trkpt>
      <trkpt lat="43.80604" lon="6.63802">
        <ele>1160</ele>
        <time>2018-05-15T21:43:51Z</time>
      </trkpt>
      <trkpt lat="43.80706" lon="6.63678">
        <ele>1170</ele>
        <time>2018-05-15T21:44:51Z</time>
      </trkpt>
      <trkpt lat="43.80675" lon="6.63759">
        <ele>1170</ele>
        <time>2018-05-15T21:45:51Z</time>
      </trkpt>
      <trkpt lat="43.80752" lon="6.63536">
        <ele>1173</ele>
        <time>2018-05-15T21:46:51Z</time>
      </trkpt>
      <trkpt lat="43.80817" lon="6.63308">
        <ele>1171</ele>
        <time>2018-05-15T21:47:51Z</time>
      </trkpt>
      <trkpt lat="43.80882" lon="6.63042">
        <ele>1169</ele>
        <time>2018-05-15T21:48:51Z</time>
      </trkpt>
      <trkpt lat="43.80913" lon="6.62922">
        <ele>1168</ele>
        <time>2018-05-15T21:49:51Z</time>
      </trkpt>
      <trkpt lat="43.81003" lon="6.62798">
        <ele>1164</ele>
        <time>2018-05-15T21:50:51Z</time>
      </trkpt>
      <trkpt lat="43.81034" lon="6.62549">
        <ele>1152</ele>
        <time>2018-05-15T21:51:51Z</time>
      </trkpt>
      <trkpt lat="43.81075" lon="6.62626">
        <ele>1158</ele>
        <time>2018-05-15T21:52:51Z</time>
      </trkpt>
      <trkpt lat="43.81112" lon="6.62545">
        <ele>1152</ele>
        <time>2018-05-15T21:53:51Z</time>
      </trkpt>
      <trkpt lat="43.81195" lon="6.62523">
        <ele>1154</ele>
        <time>2018-05-15T21:54:51Z</time>
      </trkpt>
      <trkpt lat="43.81307" lon="6.62656">
        <ele>1165</ele>
        <time>2018-05-15T21:55:51Z</time>
      </trkpt>
      <trkpt lat="43.8135" lon="6.62587">
        <ele>1157</ele>
        <time>2018-05-15T21:56:51Z</time>
      </trkpt>
      <trkpt lat="43.814" lon="6.62686">
        <ele>1162</ele>
        <time>2018-05-15T21:57:51Z</time>
      </trkpt>
      <trkpt lat="43.81431" lon="6.62622">
        <ele>1150</ele>
        <time>2018-05-15T21:58:51Z</time>
      </trkpt>
      <trkpt lat="43.81428" lon="6.62291">
        <ele>1167</ele>
        <time>2018-05-15T21:59:51Z</time>
      </trkpt>
      <trkpt lat="43.81474" lon="6.62278">
        <ele>1152</ele>
        <time>2018-05-15T22:00:51Z</time>
      </trkpt>
      <trkpt lat="43.81485" lon="6.62175">
        <ele>1154</ele>
        <time>2018-05-15T22:01:51Z</time>
      </trkpt>
      <trkpt lat="43.81471" lon="6.6206">
        <ele>1140</ele>
        <time>2018-05-15T22:02:51Z</time>
      </trkpt>
      <trkpt lat="43.8142" lon="6.62062">
        <ele>1156</ele>
        <time>2018-05-15T22:03:51Z</time>
      </trkpt>
      <trkpt lat="43.81392" lon="6.61997">
        <ele>1149</ele>
        <time>2018-05-15T22:04:51Z</time>
      </trkpt>
      <trkpt lat="43.81398" lon="6.61877">
        <ele>1143</ele>
        <time>2018-05-15T22:05:51Z</time>
      </trkpt>
      <trkpt lat="43.81398" lon="6.61862">
        <ele>1144</ele>
        <time>2018-05-15T22:06:51Z</time>
      </trkpt>
      <trkpt lat="43.81417" lon="6.61826">
        <ele>1136</ele>
        <time>2018-05-15T22:07:51Z</time>
      </trkpt>
      <trkpt lat="43.81438" lon="6.61759">
        <ele>1130</ele>
        <time>2018-05-15T22:08:51Z</time>
      </trkpt>
      <trkpt lat="43.81414" lon="6.61723">
        <ele>1130</ele>
        <time>2018-05-15T22:09:51Z</time>
      </trkpt>
      <trkpt lat="43.81378" lon="6.61639">
        <ele>1124</ele>
        <time>2018-05-15T22:10:51Z</time>
      </trkpt>
      <trkpt lat="43.81332" lon="6.61573">
        <ele>1123</ele>
        <time>2018-05-15T22:11:51Z</time>
      </trkpt>
      <trkpt lat="43.81328" lon="6.61502">
        <ele>1111</ele>
        <time>2018-05-15T22:12:51Z</time>
      </trkpt>
      <trkpt lat="43.81307" lon="6.61418">
        <ele>1114</ele>
        <time>2018-05-15T22:13:51Z</time>
      </trkpt>
      <trkpt lat="43.8133" lon="6.61386">
        <ele>1104</ele>
        <time>2018-05-15T22:14:51Z</time>
      </trkpt>
      <trkpt lat="43.81345" lon="6.61311">
        <ele>1106</ele>
        <time>2018-05-15T22:15:51Z</time>
      </trkpt>
      <trkpt lat="43.81392" lon="6.61328">
        <ele>1090</ele>
        <time>2018-05-15T22:16:51Z</time>
      </trkpt>
      <trkpt lat="43.81435" lon="6.61311">
        <ele>1075</ele>
        <time>2018-05-15T22:17:51Z</time>
      </trkpt>
      <trkpt lat="43.81412" lon="6.61178">
        <ele>1078</ele>
        <time>2018-05-15T22:18:51Z</time>
      </trkpt>
      <trkpt lat="43.81389" lon="6.61062">
        <ele>1060</ele>
        <time>2018-05-15T22:19:51Z</time>
      </trkpt>
      <trkpt lat="43.81373" lon="6.61038">
        <ele>1059</ele>
        <time>2018-05-15T22:20:51Z</time>
      </trkpt>
      <trkpt lat="43.81322" lon="6.61017">
        <ele>1067</ele>
        <time>2018-05-15T22:21:51Z</time>
      </trkpt>
      <trkpt lat="43.81293" lon="6.6101">
        <ele>1071</ele>
        <time>2018-05-15T22:22:51Z</time>
      </trkpt>
      <trkpt lat="43.8128" lon="6.60985">
        <ele>1072</ele>
        <time>2018-05-15T22:23:51Z</time>
      </trkpt>
      <trkpt lat="43.81308" lon="6.60955">
        <ele>1065</ele>
        <time>2018-05-15T22:24:51Z</time>
      </trkpt>
      <trkpt lat="43.81307" lon="6.60959">
        <ele>1066</ele>
        <time>2018-05-15T22:25:51Z</time>
      </trkpt>
      <trkpt lat="43.81341" lon="6.60925">
        <ele>1055</ele>
        <time>2018-05-15T22:26:51Z</time>
      </trkpt>
      <trkpt lat="43.81367" lon="6.60892">
        <ele>1045</ele>
        <time>2018-05-15T22:27:51Z</time>
      </trkpt>
      <trkpt lat="43.81386" lon="6.60847">
        <ele>1038</ele>
        <time>2018-05-15T22:28:51Z</time>
      </trkpt>
      <trkpt lat="43.81389" lon="6.60781">
        <ele>1031</ele>
        <time>2018-05-15T22:29:51Z</time>
      </trkpt>
      <trkpt lat="43.8138" lon="6.60716">
        <ele>1026</ele>
        <time>2018-05-15T22:30:51Z</time>
      </trkpt>
      <trkpt lat="43.81367" lon="6.60678">
        <ele>1026</ele>
        <time>2018-05-15T22:31:51Z</time>
      </trkpt>
      <trkpt lat="43.8135" lon="6.60652">
        <ele>1029</ele>
        <time>2018-05-15T22:32:51Z</time>
      </trkpt>
      <trkpt lat="43.81356" lon="6.6062">
        <ele>1022</ele>
        <time>2018-05-15T22:33:51Z</time>
      </trkpt>
      <trkpt lat="43.81356" lon="6.60581">
        <ele>1016</ele>
        <time>2018-05-15T22:34:51Z</time>
      </trkpt>
      <trkpt lat="43.81352" lon="6.60538">
        <ele>1007</ele>
        <time>2018-05-15T22:35:51Z</time>
      </trkpt>
      <trkpt lat="43.8139" lon="6.60573">
        <ele>1001</ele>
        <time>2018-05-15T22:36:51Z</time>
      </trkpt>
      <trkpt lat="43.81383" lon="6.60515">
        <ele>993</ele>
        <time>2018-05-15T22:37:51Z</time>
      </trkpt>
      <trkpt lat="43.81383" lon="6.60491">
        <ele>989</ele>
        <time>2018-05-15T22:38:51Z</time>
      </trkpt>
      <trkpt lat="43.81375" lon="6.6045">
        <ele>983</ele>
        <time>2018-05-15T22:39:51Z</time>
      </trkpt>
      <trkpt lat="43.81417" lon="6.60482">
        <ele>979</ele>
        <time>2018-05-15T22:40:51Z</time>
      </trkpt>
      <trkpt lat="43.81459" lon="6.60506">
        <ele>974</ele>
        <time>2018-05-15T22:41:51Z</time>
      </trkpt>
      <trkpt lat="43.81443" lon="6.60431">
        <ele>970</ele>
        <time>2018-05-15T22:42:51Z</time>
      </trkpt>
      <trkpt lat="43.81434" lon="6.60311">
        <ele>960</ele>
        <time>2018-05-15T22:43:51Z</time>
      </trkpt>
      <trkpt lat="43.81412" lon="6.60251">
        <ele>956</ele>
        <time>2018-05-15T22:44:51Z</time>
      </trkpt>
      <trkpt lat="43.81397" lon="6.60197">
        <ele>960</ele>
        <time>2018-05-15T22:45:51Z</time>
      </trkpt>
      <trkpt lat="43.81366" lon="6.60152">
        <ele>960</ele>
        <time>2018-05-15T22:46:51Z</time>
      </trkpt>
      <trkpt lat="43.81316" lon="6.60126">
        <ele>959</ele>
        <time>2018-05-15T22:47:51Z</time>
      </trkpt>
      <trkpt lat="43.81274" lon="6.60126">
        <ele>955</ele>
        <time>2018-05-15T22:48:51Z</time>
      </trkpt>
      <trkpt lat="43.81249" lon="6.60107">
        <ele>954</ele>
        <time>2018-05-15T22:49:51Z</time>
      </trkpt>
      <trkpt lat="43.81215" lon="6.60053">
        <ele>955</ele>
        <time>2018-05-15T22:50:51Z</time>
      </trkpt>
      <trkpt lat="43.81174" lon="6.60032">
        <ele>951</ele>
        <time>2018-05-15T22:51:51Z</time>
      </trkpt>
      <trkpt lat="43.81153" lon="6.59967">
        <ele>950</ele>
        <time>2018-05-15T22:52:51Z</time>
      </trkpt>
      <trkpt lat="43.81153" lon="6.59895">
        <ele>949</ele>
        <time>2018-05-15T22:53:51Z</time>
      </trkpt>
      <trkpt lat="43.8114" lon="6.59832">
        <ele>948</ele>
        <time>2018-05-15T22:54:51Z</time>
      </trkpt>
      <trkpt lat="43.81116" lon="6.59761">
        <ele>946</ele>
        <time>2018-05-15T22:55:51Z</time>
      </trkpt>
      <trkpt lat="43.81068" lon="6.59613">
        <ele>946</ele>
        <time>2018-05-15T22:56:51Z</time>
      </trkpt>
      <trkpt lat="43.8104" lon="6.59571">
        <ele>947</ele>
        <time>2018-05-15T22:57:51Z</time>
      </trkpt>
      <trkpt lat="43.80924" lon="6.59442">
        <ele>950</ele>
        <time>2018-05-15T22:58:51Z</time>
      </trkpt>
      <trkpt lat="43.80876" lon="6.59373">
        <ele>947</ele>
        <time>2018-05-15T22:59:51Z</time>
      </trkpt>
      <trkpt lat="43.80852" lon="6.59304">
        <ele>944</ele>
        <time>2018-05-15T23:00:51Z</time>
      </trkpt>
      <trkpt lat="43.80797" lon="6.59225">
        <ele>943</ele>
        <time>2018-05-15T23:01:51Z</time>
      </trkpt>
      <trkpt lat="43.80845" lon="6.59186">
        <ele>950</ele>
        <time>2018-05-15T23:02:51Z</time>
      </trkpt>
      <trkpt lat="43.80861" lon="6.5915">
        <ele>954</ele>
        <time>2018-05-15T23:03:51Z</time>
      </trkpt>
      <trkpt lat="43.80839" lon="6.59053">
        <ele>966</ele>
        <time>2018-05-15T23:04:51Z</time>
      </trkpt>
      <trkpt lat="43.80865" lon="6.58948">
        <ele>977</ele>
        <time>2018-05-15T23:05:51Z</time>
      </trkpt>
      <trkpt lat="43.80831" lon="6.58897">
        <ele>982</ele>
        <time>2018-05-15T23:06:51Z</time>
      </trkpt>
      <trkpt lat="43.80813" lon="6.58807">
        <ele>987</ele>
        <time>2018-05-15T23:07:51Z</time>
      </trkpt>
      <trkpt lat="43.80831" lon="6.58568">
        <ele>1033</ele>
        <time>2018-05-15T23:08:51Z</time>
      </trkpt>
      <trkpt lat="43.80804" lon="6.58408">
        <ele>1044</ele>
        <time>2018-05-15T23:09:51Z</time>
      </trkpt>
      <trkpt lat="43.80808" lon="6.58377">
        <ele>1046</ele>
        <time>2018-05-15T23:10:51Z</time>
      </trkpt>
      <trkpt lat="43.80804" lon="6.5835">
        <ele>1045</ele>
        <time>2018-05-15T23:11:51Z</time>
      </trkpt>
      <trkpt lat="43.80816" lon="6.58317">
        <ele>1050</ele>
        <time>2018-05-15T23:12:51Z</time>
      </trkpt>
      <trkpt lat="43.80799" lon="6.58294">
        <ele>1043</ele>
        <time>2018-05-15T23:13:51Z</time>
      </trkpt>
      <trkpt lat="43.80828" lon="6.58193">
        <ele>1058</ele>
        <time>2018-05-15T23:14:51Z</time>
      </trkpt>
      <trkpt lat="43.80824" lon="6.58131">
        <ele>1062</ele>
        <time>2018-05-15T23:15:51Z</time>
      </trkpt>
      <trkpt lat="43.80855" lon="6.58">
        <ele>1083</ele>
        <time>2018-05-15T23:16:51Z</time>
      </trkpt>
      <trkpt lat="43.80811" lon="6.57991">
        <ele>1078</ele>
        <time>2018-05-15T23:17:51Z</time>
      </trkpt>
      <trkpt lat="43.80821" lon="6.57893">
        <ele>1099</ele>
        <time>2018-05-15T23:18:51Z</time>
      </trkpt>
      <trkpt lat="43.80746" lon="6.57839">
        <ele>1098</ele>
        <time>2018-05-15T23:19:51Z</time>
      </trkpt>
      <trkpt lat="43.80745" lon="6.57787">
        <ele>1103</ele>
        <time>2018-05-15T23:20:51Z</time>
      </trkpt>
      <trkpt lat="43.80811" lon="6.5777">
        <ele>1116</ele>
        <time>2018-05-15T23:21:51Z</time>
      </trkpt>
      <trkpt lat="43.80852" lon="6.5771">
        <ele>1123</ele>
        <time>2018-05-15T23:22:51Z</time>
      </trkpt>
      <trkpt lat="43.80934" lon="6.57693">
        <ele>1139</ele>
        <time>2018-05-15T23:23:51Z</time>
      </trkpt>
      <trkpt lat="43.80946" lon="6.57663">
        <ele>1137</ele>
        <time>2018-05-15T23:24:51Z</time>
      </trkpt>
      <trkpt lat="43.81006" lon="6.57639">
        <ele>1144</ele>
        <time>2018-05-15T23:25:51Z</time>
      </trkpt>
      <trkpt lat="43.81057" lon="6.57566">
        <ele>1146</ele>
        <time>2018-05-15T23:26:51Z</time>
      </trkpt>
      <trkpt lat="43.81096" lon="6.575">
        <ele>1150</ele>
        <time>2018-05-15T23:27:51Z</time>
      </trkpt>
      <trkpt lat="43.81112" lon="6.57446">
        <ele>1146</ele>
        <time>2018-05-15T23:28:51Z</time>
      </trkpt>
      <trkpt lat="43.81096" lon="6.57388">
        <ele>1141</ele>
        <time>2018-05-15T23:29:51Z</time>
      </trkpt>
      <trkpt lat="43.81161" lon="6.57335">
        <ele>1147</ele>
        <time>2018-05-15T23:30:51Z</time>
      </trkpt>
      <trkpt lat="43.81284" lon="6.5733">
        <ele>1117</ele>
        <time>2018-05-15T23:31:51Z</time>
      </trkpt>
      <trkpt lat="43.81318" lon="6.57169">
        <ele>1108</ele>
        <time>2018-05-15T23:32:51Z</time>
      </trkpt>
      <trkpt lat="43.81469" lon="6.57118">
        <ele>1063</ele>
        <time>2018-05-15T23:33:51Z</time>
      </trkpt>
      <trkpt lat="43.81516" lon="6.57045">
        <ele>1049</ele>
        <time>2018-05-15T23:34:51Z</time>
      </trkpt>
      <trkpt lat="43.81565" lon="6.57021">
        <ele>1039</ele>
        <time>2018-05-15T23:35:51Z</time>
      </trkpt>
      <trkpt lat="43.8164" lon="6.56933">
        <ele>1023</ele>
        <time>2018-05-15T23:36:51Z</time>
      </trkpt>
      <trkpt lat="43.81681" lon="6.5691">
        <ele>1014</ele>
        <time>2018-05-15T23:37:51Z</time>
      </trkpt>
      <trkpt lat="43.81706" lon="6.56852">
        <ele>1004</ele>
        <time>2018-05-15T23:38:51Z</time>
      </trkpt>
      <trkpt lat="43.81757" lon="6.5682">
        <ele>996</ele>
        <time>2018-05-15T23:39:51Z</time>
      </trkpt>
      <trkpt lat="43.81815" lon="6.56809">
        <ele>979</ele>
        <time>2018-05-15T23:40:51Z</time>
      </trkpt>
      <trkpt lat="43.81852" lon="6.5676">
        <ele>969</ele>
        <time>2018-05-15T23:41:51Z</time>
      </trkpt>
      <trkpt lat="43.81906" lon="6.56723">
        <ele>958</ele>
        <time>2018-05-15T23:42:51Z</time>
      </trkpt>
      <trkpt lat="43.81915" lon="6.56687">
        <ele>954</ele>
        <time>2018-05-15T23:43:51Z</time>
      </trkpt>
      <trkpt lat="43.81926" lon="6.5662">
        <ele>948</ele>
        <time>2018-05-15T23:44:51Z</time>
      </trkpt>
      <trkpt lat="43.81949" lon="6.56584">
        <ele>943</ele>
        <time>2018-05-15T23:45:51Z</time>
      </trkpt>
      <trkpt lat="43.82038" lon="6.56526">
        <ele>929</ele>
        <time>2018-05-15T23:46:51Z</time>
      </trkpt>
      <trkpt lat="43.82076" lon="6.5647">
        <ele>924</ele>
        <time>2018-05-15T23:47:51Z</time>
      </trkpt>
      <trkpt lat="43.82095" lon="6.56549">
        <ele>926</ele>
        <time>2018-05-15T23:48:51Z</time>
      </trkpt>
      <trkpt lat="43.82141" lon="6.56556">
        <ele>931</ele>
        <time>2018-05-15T23:49:51Z</time>
      </trkpt>
      <trkpt lat="43.82149" lon="6.56524">
        <ele>929</ele>
        <time>2018-05-15T23:50:51Z</time>
      </trkpt>
      <trkpt lat="43.82192" lon="6.56457">
        <ele>926</ele>
        <time>2018-05-15T23:51:51Z</time>
      </trkpt>
      <trkpt lat="43.82248" lon="6.56446">
        <ele>934</ele>
        <time>2018-05-15T23:52:51Z</time>
      </trkpt>
      <trkpt lat="43.82281" lon="6.56367">
        <ele>932</ele>
        <time>2018-05-15T23:53:51Z</time>
      </trkpt>
      <trkpt lat="43.82321" lon="6.56208">
        <ele>943</ele>
        <time>2018-05-15T23:54:51Z</time>
      </trkpt>
      <trkpt lat="43.82445" lon="6.56142">
        <ele>924</ele>
        <time>2018-05-15T23:55:51Z</time>
      </trkpt>
      <trkpt lat="43.82442" lon="6.56189">
        <ele>926</ele>
        <time>2018-05-15T23:56:51Z</time>
      </trkpt>
      <trkpt lat="43.82425" lon="6.56288">
        <ele>929</ele>
        <time>2018-05-15T23:57:51Z</time>
      </trkpt>
      <trkpt lat="43.82448" lon="6.56253">
        <ele>929</ele>
        <time>2018-05-15T23:58:51Z</time>
      </trkpt>
      <trkpt lat="43.82482" lon="6.56131">
        <ele>918</ele>
        <time>2018-05-15T23:59:51Z</time>
      </trkpt>
      <trkpt lat="43.82533" lon="6.56082">
        <ele>914</ele>
        <time>2018-05-16T00:00:51Z</time>
      </trkpt>
      <trkpt lat="43.82533" lon="6.56036">
        <ele>914</ele>
        <time>2018-05-16T00:01:51Z</time>
      </trkpt>
      <trkpt lat="43.82559" lon="6.55976">
        <ele>916</ele>
        <time>2018-05-16T00:02:51Z</time>
      </trkpt>
      <trkpt lat="43.82612" lon="6.55878">
        <ele>911</ele>
        <time>2018-05-16T00:03:51Z</time>
      </trkpt>
      <trkpt lat="43.82672" lon="6.55833">
        <ele>909</ele>
        <time>2018-05-16T00:04:51Z</time>
      </trkpt>
      <trkpt lat="43.8275" lon="6.55824">
        <ele>908</ele>
        <time>2018-05-16T00:05:51Z</time>
      </trkpt>
      <trkpt lat="43.82809" lon="6.55734">
        <ele>911</ele>
        <time>2018-05-16T00:06:51Z</time>
      </trkpt>
      <trkpt lat="43.82874" lon="6.55708">
        <ele>917</ele>
        <time>2018-05-16T00:07:51Z</time>
      </trkpt>
      <trkpt lat="43.82908" lon="6.55676">
        <ele>920</ele>
        <time>2018-05-16T00:08:51Z</time>
      </trkpt>
      <trkpt lat="43.8301" lon="6.55755">
        <ele>926</ele>
        <time>2018-05-16T00:09:51Z</time>
      </trkpt>
      <trkpt lat="43.83021" lon="6.55672">
        <ele>924</ele>
        <time>2018-05-16T00:10:51Z</time>
      </trkpt>
      <trkpt lat="43.83048" lon="6.55597">
        <ele>922</ele>
        <time>2018-05-16T00:11:51Z</time>
      </trkpt>
      <trkpt lat="43.83087" lon="6.55468">
        <ele>918</ele>
        <time>2018-05-16T00:12:51Z</time>
      </trkpt>
      <trkpt lat="43.83117" lon="6.55369">
        <ele>918</ele>
        <time>2018-05-16T00:13:51Z</time>
      </trkpt>
      <trkpt lat="43.83157" lon="6.55365">
        <ele>930</ele>
        <time>2018-05-16T00:14:51Z</time>
      </trkpt>
      <trkpt lat="43.8314" lon="6.55182">
        <ele>919</ele>
        <time>2018-05-16T00:15:51Z</time>
      </trkpt>
      <trkpt lat="43.83183" lon="6.55105">
        <ele>910</ele>
        <time>2018-05-16T00:16:51Z</time>
      </trkpt>
      <trkpt lat="43.83182" lon="6.55064">
        <ele>894</ele>
        <time>2018-05-16T00:17:51Z</time>
      </trkpt>
      <trkpt lat="43.8324" lon="6.55004">
        <ele>892</ele>
        <time>2018-05-16T00:18:51Z</time>
      </trkpt>
      <trkpt lat="43.83381" lon="6.54848">
        <ele>879</ele>
        <time>2018-05-16T00:19:51Z</time>
      </trkpt>
      <trkpt lat="43.83423" lon="6.54843">
        <ele>887</ele>
        <time>2018-05-16T00:20:51Z</time>
      </trkpt>
      <trkpt lat="43.8342" lon="6.54811">
        <ele>877</ele>
        <time>2018-05-16T00:21:51Z</time>
      </trkpt>
      <trkpt lat="43.835" lon="6.54685">
        <ele>861</ele>
        <time>2018-05-16T00:22:51Z</time>
      </trkpt>
      <trkpt lat="43.83538" lon="6.54666">
        <ele>858</ele>
        <time>2018-05-16T00:23:51Z</time>
      </trkpt>
      <trkpt lat="43.83576" lon="6.54554">
        <ele>830</ele>
        <time>2018-05-16T00:24:51Z</time>
      </trkpt>
      <trkpt lat="43.83702" lon="6.54509">
        <ele>828</ele>
        <time>2018-05-16T00:25:51Z</time>
      </trkpt>
      <trkpt lat="43.83804" lon="6.54365">
        <ele>792</ele>
        <time>2018-05-16T00:26:51Z</time>
      </trkpt>
      <trkpt lat="43.83822" lon="6.54202">
        <ele>764</ele>
        <time>2018-05-16T00:27:51Z</time>
      </trkpt>
      <trkpt lat="43.8381" lon="6.54127">
        <ele>772</ele>
        <time>2018-05-16T00:28:51Z</time>
      </trkpt>
      <trkpt lat="43.83901" lon="6.53977">
        <ele>764</ele>
        <time>2018-05-16T00:29:51Z</time>
      </trkpt>
      <trkpt lat="43.84019" lon="6.5364">
        <ele>767</ele>
        <time>2018-05-16T00:30:51Z</time>
      </trkpt>
      <trkpt lat="43.8418" lon="6.53286">
        <ele>748</ele>
        <time>2018-05-16T00:31:51Z</time>
      </trkpt>
      <trkpt lat="43.84109" lon="6.53086">
        <ele>751</ele>
        <time>2018-05-16T00:32:51Z</time>
      </trkpt>
      <trkpt lat="43.84121" lon="6.52992">
        <ele>745</ele>
        <time>2018-05-16T00:33:51Z</time>
      </trkpt>
      <trkpt lat="43.84129" lon="6.52796">
        <ele>746</ele>
        <time>2018-05-16T00:34:51Z</time>
      </trkpt>
      <trkpt lat="43.8415" lon="6.52734">
        <ele>742</ele>
        <time>2018-05-16T00:35:51Z</time>
      </trkpt>
      <trkpt lat="43.8416" lon="6.52599">
        <ele>757</ele>
        <time>2018-05-16T00:36:51Z</time>
      </trkpt>
      <trkpt lat="43.84228" lon="6.52599">
        <ele>738</ele>
        <time>2018-05-16T00:37:51Z</time>
      </trkpt>
      <trkpt lat="43.84282" lon="6.52455">
        <ele>747</ele>
        <time>2018-05-16T00:38:51Z</time>
      </trkpt>
      <trkpt lat="43.8435" lon="6.52217">
        <ele>745</ele>
        <time>2018-05-16T00:39:51Z</time>
      </trkpt>
      <trkpt lat="43.8442" lon="6.52073">
        <ele>741</ele>
        <time>2018-05-16T00:40:51Z</time>
      </trkpt>
      <trkpt lat="43.8448" lon="6.51895">
        <ele>741</ele>
        <time>2018-05-16T00:41:51Z</time>
      </trkpt>
      <trkpt lat="43.8453" lon="6.51747">
        <ele>751</ele>
        <time>2018-05-16T00:42:51Z</time>
      </trkpt>
      <trkpt lat="43.84525" lon="6.5165">
        <ele>744</ele>
        <time>2018-05-16T00:43:51Z</time>
      </trkpt>
      <trkpt lat="43.84573" lon="6.51645">
        <ele>727</ele>
        <time>2018-05-16T00:44:51Z</time>
      </trkpt>
      <trkpt lat="43.84609" lon="6.51589">
        <ele>731</ele>
        <time>2018-05-16T00:45:51Z</time>
      </trkpt>
      <trkpt lat="43.8463" lon="6.51497">
        <ele>728</ele>
        <time>2018-05-16T00:46:51Z</time>
      </trkpt>
      <trkpt lat="43.84578" lon="6.51393">
        <ele>724</ele>
        <time>2018-05-16T00:47:51Z</time>
      </trkpt>
      <trkpt lat="43.84542" lon="6.51324">
        <ele>723</ele>
        <time>2018-05-16T00:48:51Z</time>
      </trkpt>
      <trkpt lat="43.84517" lon="6.51251">
        <ele>723</ele>
        <time>2018-05-16T00:49:51Z</time>
      </trkpt>
      <trkpt lat="43.84486" lon="6.51071">
        <ele>724</ele>
        <time>2018-05-16T00:50:51Z</time>
      </trkpt>
      <trkpt lat="43.84462" lon="6.50951">
        <ele>723</ele>
        <time>2018-05-16T00:51:51Z</time>
      </trkpt>
      <trkpt lat="43.84421" lon="6.5082">
        <ele>722</ele>
        <time>2018-05-16T00:52:51Z</time>
      </trkpt>
      <trkpt lat="43.8439" lon="6.50696">
        <ele>721</ele>
        <time>2018-05-16T00:53:51Z</time>
      </trkpt>
      <trkpt lat="43.84352" lon="6.5055">
        <ele>722</ele>
        <time>2018-05-16T00:54:51Z</time>
      </trkpt>
      <trkpt lat="43.84308" lon="6.50395">
        <ele>721</ele>
        <time>2018-05-16T00:55:51Z</time>
      </trkpt>
      <trkpt lat="43.84225" lon="6.50211">
        <ele>717</ele>
        <time>2018-05-16T00:56:51Z</time>
      </trkpt>
      <trkpt lat="43.84194" lon="6.50136">
        <ele>717</ele>
        <time>2018-05-16T00:57:51Z</time>
      </trkpt>
      <trkpt lat="43.84124" lon="6.49977">
        <ele>716</ele>
        <time>2018-05-16T00:58:51Z</time>
      </trkpt>
      <trkpt lat="43.84065" lon="6.49842">
        <ele>715</ele>
        <time>2018-05-16T00:59:51Z</time>
      </trkpt>
      <trkpt lat="43.84007" lon="6.49676">
        <ele>714</ele>
        <time>2018-05-16T01:00:51Z</time>
      </trkpt>
      <trkpt lat="43.84078" lon="6.49631">
        <ele>715</ele>
        <time>2018-05-16T01:01:51Z</time>
      </trkpt>
      <trkpt lat="43.84171" lon="6.49584">
        <ele>725</ele>
        <time>2018-05-16T01:02:51Z</time>
      </trkpt>
      <trkpt lat="43.84073" lon="6.49455">
        <ele>737</ele>
        <time>2018-05-16T01:03:51Z</time>
      </trkpt>
      <trkpt lat="43.83966" lon="6.49312">
        <ele>741</ele>
        <time>2018-05-16T01:04:51Z</time>
      </trkpt>
      <trkpt lat="43.83946" lon="6.49256">
        <ele>751</ele>
        <time>2018-05-16T01:05:51Z</time>
      </trkpt>
      <trkpt lat="43.83846" lon="6.49187">
        <ele>760</ele>
        <time>2018-05-16T01:06:51Z</time>
      </trkpt>
      <trkpt lat="43.83784" lon="6.49112">
        <ele>764</ele>
        <time>2018-05-16T01:07:51Z</time>
      </trkpt>
      <trkpt lat="43.83819" lon="6.4899">
        <ele>762</ele>
        <time>2018-05-16T01:08:51Z</time>
      </trkpt>
      <trkpt lat="43.83869" lon="6.4893">
        <ele>766</ele>
        <time>2018-05-16T01:09:51Z</time>
      </trkpt>
      <trkpt lat="43.83932" lon="6.48917">
        <ele>772</ele>
        <time>2018-05-16T01:10:51Z</time>
      </trkpt>
      <trkpt lat="43.83971" lon="6.48874">
        <ele>783</ele>
        <time>2018-05-16T01:11:51Z</time>
      </trkpt>
      <trkpt lat="43.84061" lon="6.48799">
        <ele>796</ele>
        <time>2018-05-16T01:12:51Z</time>
      </trkpt>
      <trkpt lat="43.84033" lon="6.48767">
        <ele>796</ele>
        <time>2018-05-16T01:13:51Z</time>
      </trkpt>
      <trkpt lat="43.84079" lon="6.48734">
        <ele>799</ele>
        <time>2018-05-16T01:14:51Z</time>
      </trkpt>
      <trkpt lat="43.8409" lon="6.48681">
        <ele>806</ele>
        <time>2018-05-16T01:15:51Z</time>
      </trkpt>
      <trkpt lat="43.84138" lon="6.48627">
        <ele>817</ele>
        <time>2018-05-16T01:16:51Z</time>
      </trkpt>
      <trkpt lat="43.84149" lon="6.48595">
        <ele>821</ele>
        <time>2018-05-16T01:17:51Z</time>
      </trkpt>
      <trkpt lat="43.84152" lon="6.48546">
        <ele>824</ele>
        <time>2018-05-16T01:18:51Z</time>
      </trkpt>
      <trkpt lat="43.84169" lon="6.48492">
        <ele>828</ele>
        <time>2018-05-16T01:19:51Z</time>
      </trkpt>
      <trkpt lat="43.84175" lon="6.48432">
        <ele>834</ele>
        <time>2018-05-16T01:20:51Z</time>
      </trkpt>
      <trkpt lat="43.84217" lon="6.48421">
        <ele>848</ele>
        <time>2018-05-16T01:21:51Z</time>
      </trkpt>
      <trkpt lat="43.8425" lon="6.48571">
        <ele>848</ele>
        <time>2018-05-16T01:22:51Z</time>
      </trkpt>
      <trkpt lat="43.84256" lon="6.48539">
        <ele>853</ele>
        <time>2018-05-16T01:23:51Z</time>
      </trkpt>
      <trkpt lat="43.84299" lon="6.48466">
        <ele>874</ele>
        <time>2018-05-16T01:24:51Z</time>
      </trkpt>
      <trkpt lat="43.84332" lon="6.48428">
        <ele>892</ele>
        <time>2018-05-16T01:25:51Z</time>
      </trkpt>
      <trkpt lat="43.84358" lon="6.48466">
        <ele>888</ele>
        <time>2018-05-16T01:26:51Z</time>
      </trkpt>
      <trkpt lat="43.84392" lon="6.48436">
        <ele>899</ele>
        <time>2018-05-16T01:27:51Z</time>
      </trkpt>
      <trkpt lat="43.8442" lon="6.48374">
        <ele>916</ele>
        <time>2018-05-16T01:28:51Z</time>
      </trkpt>
      <trkpt lat="43.84523" lon="6.48327">
        <ele>932</ele>
        <time>2018-05-16T01:29:51Z</time>
      </trkpt>
      <trkpt lat="43.84582" lon="6.48271">
        <ele>949</ele>
        <time>2018-05-16T01:30:51Z</time>
      </trkpt>
      <trkpt lat="43.84548" lon="6.4832">
        <ele>934</ele>
        <time>2018-05-16T01:31:51Z</time>
      </trkpt>
      <trkpt lat="43.84624" lon="6.48243">
        <ele>950</ele>
        <time>2018-05-16T01:32:51Z</time>
      </trkpt>
      <trkpt lat="43.84657" lon="6.48168">
        <ele>970</ele>
        <time>2018-05-16T01:33:51Z</time>
      </trkpt>
      <trkpt lat="43.84683" lon="6.48136">
        <ele>974</ele>
        <time>2018-05-16T01:34:51Z</time>
      </trkpt>
      <trkpt lat="43.84698" lon="6.48089">
        <ele>981</ele>
        <time>2018-05-16T01:35:51Z</time>
      </trkpt>
      <trkpt lat="43.84711" lon="6.48031">
        <ele>988</ele>
        <time>2018-05-16T01:36:51Z</time>
      </trkpt>
      <trkpt lat="43.84754" lon="6.48018">
        <ele>984</ele>
        <time>2018-05-16T01:37:51Z</time>
      </trkpt>
      <trkpt lat="43.84729" lon="6.47996">
        <ele>991</ele>
        <time>2018-05-16T01:38:51Z</time>
      </trkpt>
      <trkpt lat="43.84756" lon="6.4793">
        <ele>1003</ele>
        <time>2018-05-16T01:39:51Z</time>
      </trkpt>
      <trkpt lat="43.84754" lon="6.47883">
        <ele>1012</ele>
        <time>2018-05-16T01:40:51Z</time>
      </trkpt>
      <trkpt lat="43.84782" lon="6.47848">
        <ele>1015</ele>
        <time>2018-05-16T01:41:51Z</time>
      </trkpt>
      <trkpt lat="43.84816" lon="6.47765">
        <ele>1028</ele>
        <time>2018-05-16T01:42:51Z</time>
      </trkpt>
      <trkpt lat="43.8483" lon="6.47719">
        <ele>1035</ele>
        <time>2018-05-16T01:43:51Z</time>
      </trkpt>
      <trkpt lat="43.84887" lon="6.47548">
        <ele>1059</ele>
        <time>2018-05-16T01:44:51Z</time>
      </trkpt>
      <trkpt lat="43.84892" lon="6.47342">
        <ele>1097</ele>
        <time>2018-05-16T01:45:51Z</time>
      </trkpt>
      <trkpt lat="43.84923" lon="6.47275">
        <ele>1103</ele>
        <time>2018-05-16T01:46:51Z</time>
      </trkpt>
      <trkpt lat="43.84994" lon="6.47213">
        <ele>1113</ele>
        <time>2018-05-16T01:47:51Z</time>
      </trkpt>
      <trkpt lat="43.85033" lon="6.47099">
        <ele>1131</ele>
        <time>2018-05-16T01:48:51Z</time>
      </trkpt>
      <trkpt lat="43.85102" lon="6.47033">
        <ele>1141</ele>
        <time>2018-05-16T01:49:51Z</time>
      </trkpt>
      <trkpt lat="43.85147" lon="6.46895">
        <ele>1176</ele>
        <time>2018-05-16T01:50:51Z</time>
      </trkpt>
      <trkpt lat="43.85147" lon="6.4685">
        <ele>1190</ele>
        <time>2018-05-16T01:51:51Z</time>
      </trkpt>
      <trkpt lat="43.8518" lon="6.4682">
        <ele>1196</ele>
        <time>2018-05-16T01:52:51Z</time>
      </trkpt>
      <trkpt lat="43.85224" lon="6.46786">
        <ele>1201</ele>
        <time>2018-05-16T01:53:51Z</time>
      </trkpt>
      <trkpt lat="43.85243" lon="6.46741">
        <ele>1220</ele>
        <time>2018-05-16T01:54:51Z</time>
      </trkpt>
      <trkpt lat="43.85316" lon="6.46679">
        <ele>1236</ele>
        <time>2018-05-16T01:55:51Z</time>
      </trkpt>
      <trkpt lat="43.85378" lon="6.46623">
        <ele>1243</ele>
        <time>2018-05-16T01:56:51Z</time>
      </trkpt>
      <trkpt lat="43.8544" lon="6.46582">
        <ele>1231</ele>
        <time>2018-05-16T01:57:51Z</time>
      </trkpt>
      <trkpt lat="43.85498" lon="6.46518">
        <ele>1226</ele>
        <time>2018-05-16T01:58:51Z</time>
      </trkpt>
      <trkpt lat="43.85543" lon="6.46511">
        <ele>1218</ele>
        <time>2018-05-16T01:59:51Z</time>
      </trkpt>
      <trkpt lat="43.85616" lon="6.46443">
        <ele>1214</ele>
        <time>2018-05-16T02:00:51Z</time>
      </trkpt>
      <trkpt lat="43.85672" lon="6.46393">
        <ele>1209</ele>
        <time>2018-05-16T02:01:51Z</time>
      </trkpt>
      <trkpt lat="43.85718" lon="6.46357">
        <ele>1202</ele>
        <time>2018-05-16T02:02:51Z</time>
      </trkpt>
      <trkpt lat="43.85746" lon="6.4632">
        <ele>1202</ele>
        <time>2018-05-16T02:03:51Z</time>
      </trkpt>
      <trkpt lat="43.85792" lon="6.46303">
        <ele>1190</ele>
        <time>2018-05-16T02:04:51Z</time>
      </trkpt>
      <trkpt lat="43.85825" lon="6.46235">
        <ele>1186</ele>
        <time>2018-05-16T02:05:51Z</time>
      </trkpt>
      <trkpt lat="43.85871" lon="6.46224">
        <ele>1175</ele>
        <time>2018-05-16T02:06:51Z</time>
      </trkpt>
      <trkpt lat="43.85922" lon="6.46142">
        <ele>1169</ele>
        <time>2018-05-16T02:07:51Z</time>
      </trkpt>
      <trkpt lat="43.85961" lon="6.46099">
        <ele>1167</ele>
        <time>2018-05-16T02:08:51Z</time>
      </trkpt>
      <trkpt lat="43.86066" lon="6.46095">
        <ele>1154</ele>
        <time>2018-05-16T02:09:51Z</time>
      </trkpt>
      <trkpt lat="43.86031" lon="6.4605">
        <ele>1159</ele>
        <time>2018-05-16T02:10:51Z</time>
      </trkpt>
      <trkpt lat="43.85984" lon="6.46009">
        <ele>1169</ele>
        <time>2018-05-16T02:11:51Z</time>
      </trkpt>
      <trkpt lat="43.85961" lon="6.45973">
        <ele>1175</ele>
        <time>2018-05-16T02:12:51Z</time>
      </trkpt>
      <trkpt lat="43.85932" lon="6.45949">
        <ele>1182</ele>
        <time>2018-05-16T02:13:51Z</time>
      </trkpt>
      <trkpt lat="43.85964" lon="6.45842">
        <ele>1179</ele>
        <time>2018-05-16T02:14:51Z</time>
      </trkpt>
      <trkpt lat="43.85963" lon="6.4578">
        <ele>1179</ele>
        <time>2018-05-16T02:15:51Z</time>
      </trkpt>
      <trkpt lat="43.85919" lon="6.45724">
        <ele>1193</ele>
        <time>2018-05-16T02:16:51Z</time>
      </trkpt>
      <trkpt lat="43.85908" lon="6.45698">
        <ele>1196</ele>
        <time>2018-05-16T02:17:51Z</time>
      </trkpt>
      <trkpt lat="43.85902" lon="6.45634">
        <ele>1199</ele>
        <time>2018-05-16T02:18:51Z</time>
      </trkpt>
      <trkpt lat="43.85896" lon="6.45589">
        <ele>1203</ele>
        <time>2018-05-16T02:19:51Z</time>
      </trkpt>
      <trkpt lat="43.8591" lon="6.45541">
        <ele>1197</ele>
        <time>2018-05-16T02:20:51Z</time>
      </trkpt>
      <trkpt lat="43.85887" lon="6.45477">
        <ele>1202</ele>
        <time>2018-05-16T02:21:51Z</time>
      </trkpt>
      <trkpt lat="43.85854" lon="6.45449">
        <ele>1211</ele>
        <time>2018-05-16T02:22:51Z</time>
      </trkpt>
      <trkpt lat="43.8584" lon="6.45428">
        <ele>1214</ele>
        <time>2018-05-16T02:23:51Z</time>
      </trkpt>
      <trkpt lat="43.85839" lon="6.45385">
        <ele>1213</ele>
        <time>2018-05-16T02:24:51Z</time>
      </trkpt>
      <trkpt lat="43.85842" lon="6.45327">
        <ele>1211</ele>
        <time>2018-05-16T02:25:51Z</time>
      </trkpt>
      <trkpt lat="43.85833" lon="6.4522">
        <ele>1215</ele>
        <time>2018-05-16T02:26:51Z</time>
      </trkpt>
      <trkpt lat="43.85871" lon="6.45248">
        <ele>1203</ele>
        <time>2018-05-16T02:27:51Z</time>
      </trkpt>
      <trkpt lat="43.85916" lon="6.45235">
        <ele>1193</ele>
        <time>2018-05-16T02:28:51Z</time>
      </trkpt>
      <trkpt lat="43.85966" lon="6.45194">
        <ele>1177</ele>
        <time>2018-05-16T02:29:51Z</time>
      </trkpt>
      <trkpt lat="43.8601" lon="6.4519">
        <ele>1162</ele>
        <time>2018-05-16T02:30:51Z</time>
      </trkpt>
      <trkpt lat="43.86057" lon="6.45183">
        <ele>1153</ele>
        <time>2018-05-16T02:31:51Z</time>
      </trkpt>
      <trkpt lat="43.86148" lon="6.45033">
        <ele>1134</ele>
        <time>2018-05-16T02:32:51Z</time>
      </trkpt>
      <trkpt lat="43.86159" lon="6.45001">
        <ele>1133</ele>
        <time>2018-05-16T02:33:51Z</time>
      </trkpt>
      <trkpt lat="43.86201" lon="6.44984">
        <ele>1127</ele>
        <time>2018-05-16T02:34:51Z</time>
      </trkpt>
      <trkpt lat="43.86213" lon="6.44936">
        <ele>1128</ele>
        <time>2018-05-16T02:35:51Z</time>
      </trkpt>
      <trkpt lat="43.86236" lon="6.449">
        <ele>1126</ele>
        <time>2018-05-16T02:36:51Z</time>
      </trkpt>
      <trkpt lat="43.86249" lon="6.44808">
        <ele>1127</ele>
        <time>2018-05-16T02:37:51Z</time>
      </trkpt>
      <trkpt lat="43.86295" lon="6.44724">
        <ele>1119</ele>
        <time>2018-05-16T02:38:51Z</time>
      </trkpt>
      <trkpt lat="43.86328" lon="6.44647">
        <ele>1119</ele>
        <time>2018-05-16T02:39:51Z</time>
      </trkpt>
      <trkpt lat="43.86373" lon="6.44645">
        <ele>1113</ele>
        <time>2018-05-16T02:40:51Z</time>
      </trkpt>
      <trkpt lat="43.86441" lon="6.4466">
        <ele>1103</ele>
        <time>2018-05-16T02:41:51Z</time>
      </trkpt>
      <trkpt lat="43.86456" lon="6.44709">
        <ele>1097</ele>
        <time>2018-05-16T02:42:51Z</time>
      </trkpt>
      <trkpt lat="43.86512" lon="6.44752">
        <ele>1090</ele>
        <time>2018-05-16T02:43:51Z</time>
      </trkpt>
      <trkpt lat="43.86588" lon="6.44775">
        <ele>1084</ele>
        <time>2018-05-16T02:44:51Z</time>
      </trkpt>
      <trkpt lat="43.86657" lon="6.44827">
        <ele>1077</ele>
        <time>2018-05-16T02:45:51Z</time>
      </trkpt>
      <trkpt lat="43.86813" lon="6.44902">
        <ele>1065</ele>
        <time>2018-05-16T02:46:51Z</time>
      </trkpt>
      <trkpt lat="43.86892" lon="6.44908">
        <ele>1060</ele>
        <time>2018-05-16T02:47:51Z</time>
      </trkpt>
      <trkpt lat="43.86898" lon="6.44951">
        <ele>1058</ele>
        <time>2018-05-16T02:48:51Z</time>
      </trkpt>
      <trkpt lat="43.86977" lon="6.45031">
        <ele>1057</ele>
        <time>2018-05-16T02:49:51Z</time>
      </trkpt>
      <trkpt lat="43.87107" lon="6.44833">
        <ele>1053</ele>
        <time>2018-05-16T02:50:51Z</time>
      </trkpt>
      <trkpt lat="43.87132" lon="6.44724">
        <ele>1054</ele>
        <time>2018-05-16T02:51:51Z</time>
      </trkpt>
      <trkpt lat="43.87168" lon="6.44692">
        <ele>1054</ele>
        <time>2018-05-16T02:52:51Z</time>
      </trkpt>
      <trkpt lat="43.87234" lon="6.44672">
        <ele>1059</ele>
        <time>2018-05-16T02:53:51Z</time>
      </trkpt>
      <trkpt lat="43.87239" lon="6.44632">
        <ele>1059</ele>
        <time>2018-05-16T02:54:51Z</time>
      </trkpt>
      <trkpt lat="43.87294" lon="6.44507">
        <ele>1057</ele>
        <time>2018-05-16T02:55:51Z</time>
      </trkpt>
      <trkpt lat="43.87346" lon="6.44404">
        <ele>1048</ele>
        <time>2018-05-16T02:56:51Z</time>
      </trkpt>
      <trkpt lat="43.87353" lon="6.44299">
        <ele>1049</ele>
        <time>2018-05-16T02:57:51Z</time>
      </trkpt>
      <trkpt lat="43.87417" lon="6.44239">
        <ele>1058</ele>
        <time>2018-05-16T02:58:51Z</time>
      </trkpt>
      <trkpt lat="43.87386" lon="6.44063">
        <ele>1074</ele>
        <time>2018-05-16T02:59:51Z</time>
      </trkpt>
      <trkpt lat="43.87378" lon="6.44018">
        <ele>1078</ele>
        <time>2018-05-16T03:00:51Z</time>
      </trkpt>
      <trkpt lat="43.87404" lon="6.43984">
        <ele>1088</ele>
        <time>2018-05-16T03:01:51Z</time>
      </trkpt>
      <trkpt lat="43.87443" lon="6.44057">
        <ele>1089</ele>
        <time>2018-05-16T03:02:51Z</time>
      </trkpt>
      <trkpt lat="43.875" lon="6.44093">
        <ele>1100</ele>
        <time>2018-05-16T03:03:51Z</time>
      </trkpt>
      <trkpt lat="43.87508" lon="6.43984">
        <ele>1115</ele>
        <time>2018-05-16T03:04:51Z</time>
      </trkpt>
      <trkpt lat="43.87598" lon="6.44078">
        <ele>1123</ele>
        <time>2018-05-16T03:05:51Z</time>
      </trkpt>
      <trkpt lat="43.877" lon="6.44183">
        <ele>1101</ele>
        <time>2018-05-16T03:06:51Z</time>
      </trkpt>
      <trkpt lat="43.87678" lon="6.44059">
        <ele>1129</ele>
        <time>2018-05-16T03:07:51Z</time>
      </trkpt>
      <trkpt lat="43.87701" lon="6.43894">
        <ele>1132</ele>
        <time>2018-05-16T03:08:51Z</time>
      </trkpt>
      <trkpt lat="43.87718" lon="6.43842">
        <ele>1133</ele>
        <time>2018-05-16T03:09:51Z</time>
      </trkpt>
      <trkpt lat="43.8776" lon="6.43797">
        <ele>1101</ele>
        <time>2018-05-16T03:10:51Z</time>
      </trkpt>
      <trkpt lat="43.87765" lon="6.43722">
        <ele>1124</ele>
        <time>2018-05-16T03:11:51Z</time>
      </trkpt>
      <trkpt lat="43.8781" lon="6.43677">
        <ele>1098</ele>
        <time>2018-05-16T03:12:51Z</time>
      </trkpt>
      <trkpt lat="43.87823" lon="6.43647">
        <ele>1096</ele>
        <time>2018-05-16T03:13:51Z</time>
      </trkpt>
      <trkpt lat="43.8787" lon="6.43597">
        <ele>1078</ele>
        <time>2018-05-16T03:14:51Z</time>
      </trkpt>
      <trkpt lat="43.87879" lon="6.43565">
        <ele>1081</ele>
        <time>2018-05-16T03:15:51Z</time>
      </trkpt>
      <trkpt lat="43.87881" lon="6.43499">
        <ele>1096</ele>
        <time>2018-05-16T03:16:51Z</time>
      </trkpt>
      <trkpt lat="43.87907" lon="6.43445">
        <ele>1095</ele>
        <time>2018-05-16T03:17:51Z</time>
      </trkpt>
      <trkpt lat="43.87918" lon="6.43394">
        <ele>1101</ele>
        <time>2018-05-16T03:18:51Z</time>
      </trkpt>
      <trkpt lat="43.87953" lon="6.43357">
        <ele>1084</ele>
        <time>2018-05-16T03:19:51Z</time>
      </trkpt>
      <trkpt lat="43.87969" lon="6.43293">
        <ele>1090</ele>
        <time>2018-05-16T03:20:51Z</time>
      </trkpt>
      <trkpt lat="43.8808" lon="6.43226">
        <ele>1047</ele>
        <time>2018-05-16T03:21:51Z</time>
      </trkpt>
      <trkpt lat="43.88144" lon="6.43166">
        <ele>1035</ele>
        <time>2018-05-16T03:22:51Z</time>
      </trkpt>
      <trkpt lat="43.8817" lon="6.43089">
        <ele>1029</ele>
        <time>2018-05-16T03:23:51Z</time>
      </trkpt>
      <trkpt lat="43.88173" lon="6.43029">
        <ele>1028</ele>
        <time>2018-05-16T03:24:51Z</time>
      </trkpt>
      <trkpt lat="43.88264" lon="6.42975">
        <ele>1002</ele>
        <time>2018-05-16T03:25:51Z</time>
      </trkpt>
      <trkpt lat="43.88325" lon="6.42975">
        <ele>989</ele>
        <time>2018-05-16T03:26:51Z</time>
      </trkpt>
      <trkpt lat="43.8834" lon="6.4293">
        <ele>986</ele>
        <time>2018-05-16T03:27:51Z</time>
      </trkpt>
      <trkpt lat="43.88444" lon="6.42746">
        <ele>957</ele>
        <time>2018-05-16T03:28:51Z</time>
      </trkpt>
      <trkpt lat="43.88448" lon="6.42638">
        <ele>950</ele>
        <time>2018-05-16T03:29:51Z</time>
      </trkpt>
      <trkpt lat="43.88442" lon="6.42563">
        <ele>947</ele>
        <time>2018-05-16T03:30:51Z</time>
      </trkpt>
      <trkpt lat="43.88422" lon="6.4251">
        <ele>951</ele>
        <time>2018-05-16T03:31:51Z</time>
      </trkpt>
      <trkpt lat="43.8849" lon="6.4246">
        <ele>926</ele>
        <time>2018-05-16T03:32:51Z</time>
      </trkpt>
      <trkpt lat="43.88484" lon="6.42344">
        <ele>920</ele>
        <time>2018-05-16T03:33:51Z</time>
      </trkpt>
      <trkpt lat="43.88523" lon="6.42308">
        <ele>908</ele>
        <time>2018-05-16T03:34:51Z</time>
      </trkpt>
      <trkpt lat="43.88538" lon="6.42269">
        <ele>902</ele>
        <time>2018-05-16T03:35:51Z</time>
      </trkpt>
      <trkpt lat="43.88615" lon="6.42316">
        <ele>886</ele>
        <time>2018-05-16T03:36:51Z</time>
      </trkpt>
      <trkpt lat="43.88657" lon="6.42329">
        <ele>878</ele>
        <time>2018-05-16T03:37:51Z</time>
      </trkpt>
      <trkpt lat="43.88722" lon="6.42327">
        <ele>874</ele>
        <time>2018-05-16T03:38:51Z</time>
      </trkpt>
      <trkpt lat="43.88843" lon="6.42353">
        <ele>862</ele>
        <time>2018-05-16T03:39:51Z</time>
      </trkpt>
      <trkpt lat="43.88906" lon="6.42344">
        <ele>855</ele>
        <time>2018-05-16T03:40:51Z</time>
      </trkpt>
      <trkpt lat="43.88968" lon="6.42325">
        <ele>845</ele>
        <time>2018-05-16T03:41:51Z</time>
      </trkpt>
      <trkpt lat="43.88954" lon="6.42392">
        <ele>846</ele>
        <time>2018-05-16T03:42:51Z</time>
      </trkpt>
      <trkpt lat="43.88994" lon="6.42392">
        <ele>838</ele>
        <time>2018-05-16T03:43:51Z</time>
      </trkpt>
      <trkpt lat="43.89044" lon="6.42336">
        <ele>828</ele>
        <time>2018-05-16T03:44:51Z</time>
      </trkpt>
      <trkpt lat="43.89082" lon="6.42239">
        <ele>816</ele>
        <time>2018-05-16T03:45:51Z</time>
      </trkpt>
      <trkpt lat="43.89072" lon="6.42175">
        <ele>817</ele>
        <time>2018-05-16T03:46:51Z</time>
      </trkpt>
      <trkpt lat="43.88946" lon="6.42016">
        <ele>826</ele>
        <time>2018-05-16T03:47:51Z</time>
      </trkpt>
      <trkpt lat="43.88945" lon="6.41937">
        <ele>821</ele>
        <time>2018-05-16T03:48:51Z</time>
      </trkpt>
      <trkpt lat="43.88891" lon="6.41907">
        <ele>828</ele>
        <time>2018-05-16T03:49:51Z</time>
      </trkpt>
      <trkpt lat="43.88824" lon="6.41814">
        <ele>827</ele>
        <time>2018-05-16T03:50:51Z</time>
      </trkpt>
      <trkpt lat="43.8879" lon="6.41739">
        <ele>823</ele>
        <time>2018-05-16T03:51:51Z</time>
      </trkpt>
      <trkpt lat="43.88739" lon="6.41705">
        <ele>825</ele>
        <time>2018-05-16T03:52:51Z</time>
      </trkpt>
      <trkpt lat="43.88768" lon="6.41621">
        <ele>824</ele>
        <time>2018-05-16T03:53:51Z</time>
      </trkpt>
      <trkpt lat="43.88832" lon="6.41598">
        <ele>825</ele>
        <time>2018-05-16T03:54:51Z</time>
      </trkpt>
      <trkpt lat="43.88945" lon="6.41711">
        <ele>815</ele>
        <time>2018-05-16T03:55:51Z</time>
      </trkpt>
      <trkpt lat="43.89072" lon="6.41846">
        <ele>809</ele>
        <time>2018-05-16T03:56:51Z</time>
      </trkpt>
      <trkpt lat="43.89177" lon="6.41716">
        <ele>822</ele>
        <time>2018-05-16T03:57:51Z</time>
      </trkpt>
      <trkpt lat="43.89331" lon="6.41658">
        <ele>835</ele>
        <time>2018-05-16T03:58:51Z</time>
      </trkpt>
      <trkpt lat="43.89495" lon="6.41576">
        <ele>847</ele>
        <time>2018-05-16T03:59:51Z</time>
      </trkpt>
      <trkpt lat="43.89642" lon="6.41492">
        <ele>851</ele>
        <time>2018-05-16T04:00:51Z</time>
      </trkpt>
      <trkpt lat="43.89636" lon="6.4145">
        <ele>858</ele>
        <time>2018-05-16T04:01:51Z</time>
      </trkpt>
      <trkpt lat="43.89761" lon="6.41293">
        <ele>870</ele>
        <time>2018-05-16T04:02:51Z</time>
      </trkpt>
      <trkpt lat="43.89854" lon="6.41222">
        <ele>869</ele>
        <time>2018-05-16T04:03:51Z</time>
      </trkpt>
      <trkpt lat="43.89907" lon="6.41147">
        <ele>879</ele>
        <time>2018-05-16T04:04:51Z</time>
      </trkpt>
      <trkpt lat="43.89928" lon="6.41068">
        <ele>889</ele>
        <time>2018-05-16T04:05:51Z</time>
      </trkpt>
      <trkpt lat="43.89978" lon="6.40992">
        <ele>899</ele>
        <time>2018-05-16T04:06:51Z</time>
      </trkpt>
      <trkpt lat="43.90044" lon="6.41001">
        <ele>885</ele>
        <time>2018-05-16T04:07:51Z</time>
      </trkpt>
      <trkpt lat="43.90169" lon="6.41016">
        <ele>848</ele>
        <time>2018-05-16T04:08:51Z</time>
      </trkpt>
      <trkpt lat="43.9022" lon="6.40977">
        <ele>837</ele>
        <time>2018-05-16T04:09:51Z</time>
      </trkpt>
      <trkpt lat="43.90208" lon="6.40939">
        <ele>841</ele>
        <time>2018-05-16T04:10:51Z</time>
      </trkpt>
      <trkpt lat="43.9023" lon="6.40881">
        <ele>841</ele>
        <time>2018-05-16T04:11:51Z</time>
      </trkpt>
      <trkpt lat="43.90256" lon="6.40821">
        <ele>845</ele>
        <time>2018-05-16T04:12:51Z</time>
      </trkpt>
      <trkpt lat="43.90307" lon="6.40806">
        <ele>846</ele>
        <time>2018-05-16T04:13:51Z</time>
      </trkpt>
      <trkpt lat="43.90398" lon="6.40904">
        <ele>836</ele>
        <time>2018-05-16T04:14:51Z</time>
      </trkpt>
      <trkpt lat="43.90519" lon="6.40799">
        <ele>835</ele>
        <time>2018-05-16T04:15:51Z</time>
      </trkpt>
      <trkpt lat="43.90548" lon="6.40714">
        <ele>832</ele>
        <time>2018-05-16T04:16:51Z</time>
      </trkpt>
      <trkpt lat="43.90644" lon="6.40703">
        <ele>822</ele>
        <time>2018-05-16T04:17:51Z</time>
      </trkpt>
      <trkpt lat="43.90687" lon="6.40679">
        <ele>817</ele>
        <time>2018-05-16T04:18:51Z</time>
      </trkpt>
      <trkpt lat="43.90748" lon="6.4069">
        <ele>813</ele>
        <time>2018-05-16T04:19:51Z</time>
      </trkpt>
      <trkpt lat="43.90825" lon="6.40602">
        <ele>804</ele>
        <time>2018-05-16T04:20:51Z</time>
      </trkpt>
      <trkpt lat="43.90987" lon="6.40617">
        <ele>797</ele>
        <time>2018-05-16T04:21:51Z</time>
      </trkpt>
      <trkpt lat="43.91116" lon="6.40606">
        <ele>792</ele>
        <time>2018-05-16T04:22:51Z</time>
      </trkpt>
      <trkpt lat="43.91258" lon="6.40585">
        <ele>784</ele>
        <time>2018-05-16T04:23:51Z</time>
      </trkpt>
      <trkpt lat="43.91324" lon="6.40598">
        <ele>785</ele>
        <time>2018-05-16T04:24:51Z</time>
      </trkpt>
      <trkpt lat="43.91403" lon="6.40658">
        <ele>779</ele>
        <time>2018-05-16T04:25:51Z</time>
      </trkpt>
      <trkpt lat="43.91465" lon="6.40475">
        <ele>796</ele>
        <time>2018-05-16T04:26:51Z</time>
      </trkpt>
      <trkpt lat="43.91505" lon="6.4039">
        <ele>798</ele>
        <time>2018-05-16T04:27:51Z</time>
      </trkpt>
      <trkpt lat="43.91528" lon="6.40291">
        <ele>806</ele>
        <time>2018-05-16T04:28:51Z</time>
      </trkpt>
      <trkpt lat="43.91544" lon="6.40123">
        <ele>810</ele>
        <time>2018-05-16T04:29:51Z</time>
      </trkpt>
      <trkpt lat="43.91581" lon="6.40059">
        <ele>809</ele>
        <time>2018-05-16T04:30:51Z</time>
      </trkpt>
      <trkpt lat="43.91604" lon="6.39995">
        <ele>813</ele>
        <time>2018-05-16T04:31:51Z</time>
      </trkpt>
      <trkpt lat="43.91672" lon="6.39947">
        <ele>814</ele>
        <time>2018-05-16T04:32:51Z</time>
      </trkpt>
      <trkpt lat="43.91658" lon="6.39879">
        <ele>821</ele>
        <time>2018-05-16T04:33:51Z</time>
      </trkpt>
      <trkpt lat="43.91644" lon="6.39832">
        <ele>826</ele>
        <time>2018-05-16T04:34:51Z</time>
      </trkpt>
      <trkpt lat="43.91646" lon="6.39793">
        <ele>830</ele>
        <time>2018-05-16T04:35:51Z</time>
      </trkpt>
      <trkpt lat="43.91774" lon="6.39692">
        <ele>821</ele>
        <time>2018-05-16T04:36:51Z</time>
      </trkpt>
      <trkpt lat="43.91805" lon="6.39641">
        <ele>820</ele>
        <time>2018-05-16T04:37:51Z</time>
      </trkpt>
      <trkpt lat="43.91837" lon="6.39533">
        <ele>823</ele>
        <time>2018-05-16T04:38:51Z</time>
      </trkpt>
      <trkpt lat="43.91891" lon="6.39488">
        <ele>817</ele>
        <time>2018-05-16T04:39:51Z</time>
      </trkpt>
      <trkpt lat="43.91938" lon="6.3933">
        <ele>819</ele>
        <time>2018-05-16T04:40:51Z</time>
      </trkpt>
      <trkpt lat="43.9199" lon="6.39214">
        <ele>817</ele>
        <time>2018-05-16T04:41:51Z</time>
      </trkpt>
      <trkpt lat="43.92009" lon="6.39038">
        <ele>811</ele>
        <time>2018-05-16T04:42:51Z</time>
      </trkpt>
      <trkpt lat="43.92065" lon="6.38881">
        <ele>805</ele>
        <time>2018-05-16T04:43:51Z</time>
      </trkpt>
      <trkpt lat="43.9215" lon="6.38804">
        <ele>802</ele>
        <time>2018-05-16T04:44:51Z</time>
      </trkpt>
      <trkpt lat="43.92153" lon="6.38774">
        <ele>804</ele>
        <time>2018-05-16T04:45:51Z</time>
      </trkpt>
      <trkpt lat="43.92238" lon="6.38677">
        <ele>798</ele>
        <time>2018-05-16T04:46:51Z</time>
      </trkpt>
      <trkpt lat="43.92287" lon="6.38675">
        <ele>790</ele>
        <time>2018-05-16T04:47:51Z</time>
      </trkpt>
      <trkpt lat="43.92334" lon="6.38613">
        <ele>788</ele>
        <time>2018-05-16T04:48:51Z</time>
      </trkpt>
      <trkpt lat="43.92426" lon="6.38651">
        <ele>775</ele>
        <time>2018-05-16T04:49:51Z</time>
      </trkpt>
      <trkpt lat="43.92471" lon="6.38677">
        <ele>772</ele>
        <time>2018-05-16T04:50:51Z</time>
      </trkpt>
      <trkpt lat="43.92606" lon="6.38574">
        <ele>783</ele>
        <time>2018-05-16T04:51:51Z</time>
      </trkpt>
      <trkpt lat="43.9265" lon="6.38656">
        <ele>783</ele>
        <time>2018-05-16T04:52:51Z</time>
      </trkpt>
      <trkpt lat="43.92729" lon="6.3863">
        <ele>797</ele>
        <time>2018-05-16T04:53:51Z</time>
      </trkpt>
      <trkpt lat="43.92808" lon="6.38602">
        <ele>806</ele>
        <time>2018-05-16T04:54:51Z</time>
      </trkpt>
      <trkpt lat="43.92851" lon="6.38606">
        <ele>810</ele>
        <time>2018-05-16T04:55:51Z</time>
      </trkpt>
      <trkpt lat="43.92902" lon="6.38606">
        <ele>814</ele>
        <time>2018-05-16T04:56:51Z</time>
      </trkpt>
      <trkpt lat="43.92956" lon="6.38544">
        <ele>823</ele>
        <time>2018-05-16T04:57:51Z</time>
      </trkpt>
      <trkpt lat="43.93086" lon="6.38475">
        <ele>824</ele>
        <time>2018-05-16T04:58:51Z</time>
      </trkpt>
      <trkpt lat="43.93188" lon="6.3836">
        <ele>828</ele>
        <time>2018-05-16T04:59:51Z</time>
      </trkpt>
      <trkpt lat="43.93207" lon="6.38327">
        <ele>830</ele>
        <time>2018-05-16T05:00:51Z</time>
      </trkpt>
      <trkpt lat="43.93386" lon="6.38269">
        <ele>817</ele>
        <time>2018-05-16T05:01:51Z</time>
      </trkpt>
      <trkpt lat="43.9342" lon="6.38212">
        <ele>825</ele>
        <time>2018-05-16T05:02:51Z</time>
      </trkpt>
      <trkpt lat="43.93493" lon="6.38216">
        <ele>811</ele>
        <time>2018-05-16T05:03:51Z</time>
      </trkpt>
      <trkpt lat="43.9352" lon="6.38175">
        <ele>810</ele>
        <time>2018-05-16T05:04:51Z</time>
      </trkpt>
      <trkpt lat="43.93578" lon="6.38154">
        <ele>808</ele>
        <time>2018-05-16T05:05:51Z</time>
      </trkpt>
      <trkpt lat="43.93593" lon="6.38106">
        <ele>817</ele>
        <time>2018-05-16T05:06:51Z</time>
      </trkpt>
      <trkpt lat="43.93638" lon="6.38083">
        <ele>813</ele>
        <time>2018-05-16T05:07:51Z</time>
      </trkpt>
      <trkpt lat="43.93647" lon="6.38051">
        <ele>816</ele>
        <time>2018-05-16T05:08:51Z</time>
      </trkpt>
      <trkpt lat="43.93675" lon="6.38094">
        <ele>803</ele>
        <time>2018-05-16T05:09:51Z</time>
      </trkpt>
      <trkpt lat="43.93684" lon="6.38046">
        <ele>809</ele>
        <time>2018-05-16T05:10:51Z</time>
      </trkpt>
      <trkpt lat="43.93732" lon="6.38003">
        <ele>809</ele>
        <time>2018-05-16T05:11:51Z</time>
      </trkpt>
      <trkpt lat="43.93785" lon="6.38033">
        <ele>798</ele>
        <time>2018-05-16T05:12:51Z</time>
      </trkpt>
      <trkpt lat="43.93849" lon="6.37937">
        <ele>810</ele>
        <time>2018-05-16T05:13:51Z</time>
      </trkpt>
      <trkpt lat="43.93885" lon="6.37873">
        <ele>814</ele>
        <time>2018-05-16T05:14:51Z</time>
      </trkpt>
      <trkpt lat="43.93894" lon="6.37776">
        <ele>823</ele>
        <time>2018-05-16T05:15:51Z</time>
      </trkpt>
      <trkpt lat="43.93922" lon="6.37739">
        <ele>819</ele>
        <time>2018-05-16T05:16:51Z</time>
      </trkpt>
      <trkpt lat="43.93919" lon="6.37677">
        <ele>825</ele>
        <time>2018-05-16T05:17:51Z</time>
      </trkpt>
      <trkpt lat="43.94047" lon="6.37613">
        <ele>790</ele>
        <time>2018-05-16T05:18:51Z</time>
      </trkpt>
      <trkpt lat="43.94148" lon="6.37514">
        <ele>780</ele>
        <time>2018-05-16T05:19:51Z</time>
      </trkpt>
      <trkpt lat="43.94192" lon="6.37506">
        <ele>774</ele>
        <time>2018-05-16T05:20:51Z</time>
      </trkpt>
      <trkpt lat="43.94165" lon="6.37452">
        <ele>778</ele>
        <time>2018-05-16T05:21:51Z</time>
      </trkpt>
      <trkpt lat="43.94213" lon="6.3743">
        <ele>768</ele>
        <time>2018-05-16T05:22:51Z</time>
      </trkpt>
      <trkpt lat="43.94234" lon="6.37388">
        <ele>763</ele>
        <time>2018-05-16T05:23:51Z</time>
      </trkpt>
      <trkpt lat="43.94277" lon="6.37388">
        <ele>754</ele>
        <time>2018-05-16T05:24:51Z</time>
      </trkpt>
      <trkpt lat="43.94285" lon="6.37355">
        <ele>753</ele>
        <time>2018-05-16T05:25:51Z</time>
      </trkpt>
      <trkpt lat="43.94435" lon="6.37209">
        <ele>741</ele>
        <time>2018-05-16T05:26:51Z</time>
      </trkpt>
      <trkpt lat="43.94517" lon="6.37124">
        <ele>742</ele>
        <time>2018-05-16T05:27:51Z</time>
      </trkpt>
      <trkpt lat="43.94639" lon="6.37055">
        <ele>734</ele>
        <time>2018-05-16T05:28:51Z</time>
      </trkpt>
      <trkpt lat="43.94719" lon="6.36988">
        <ele>729</ele>
        <time>2018-05-16T05:29:51Z</time>
      </trkpt>
      <trkpt lat="43.94732" lon="6.36956">
        <ele>729</ele>
        <time>2018-05-16T05:30:51Z</time>
      </trkpt>
      <trkpt lat="43.94732" lon="6.36928">
        <ele>730</ele>
        <time>2018-05-16T05:31:51Z</time>
      </trkpt>
      <trkpt lat="43.94775" lon="6.3692">
        <ele>728</ele>
        <time>2018-05-16T05:32:51Z</time>
      </trkpt>
      <trkpt lat="43.94764" lon="6.36883">
        <ele>732</ele>
        <time>2018-05-16T05:33:51Z</time>
      </trkpt>
      <trkpt lat="43.94772" lon="6.36851">
        <ele>734</ele>
        <time>2018-05-16T05:34:51Z</time>
      </trkpt>
      <trkpt lat="43.94766" lon="6.36806">
        <ele>738</ele>
        <time>2018-05-16T05:35:51Z</time>
      </trkpt>
      <trkpt lat="43.94821" lon="6.36813">
        <ele>731</ele>
        <time>2018-05-16T05:36:51Z</time>
      </trkpt>
      <trkpt lat="43.94798" lon="6.36765">
        <ele>733</ele>
        <time>2018-05-16T05:37:51Z</time>
      </trkpt>
      <trkpt lat="43.9484" lon="6.36628">
        <ele>727</ele>
        <time>2018-05-16T05:38:51Z</time>
      </trkpt>
      <trkpt lat="43.94874" lon="6.36583">
        <ele>727</ele>
        <time>2018-05-16T05:39:51Z</time>
      </trkpt>
      <trkpt lat="43.94899" lon="6.36519">
        <ele>731</ele>
        <time>2018-05-16T05:40:51Z</time>
      </trkpt>
      <trkpt lat="43.94925" lon="6.36484">
        <ele>730</ele>
        <time>2018-05-16T05:41:51Z</time>
      </trkpt>
      <trkpt lat="43.94929" lon="6.36452">
        <ele>733</ele>
        <time>2018-05-16T05:42:51Z</time>
      </trkpt>
      <trkpt lat="43.94973" lon="6.36403">
        <ele>732</ele>
        <time>2018-05-16T05:43:51Z</time>
      </trkpt>
      <trkpt lat="43.9501" lon="6.3645">
        <ele>723</ele>
        <time>2018-05-16T05:44:51Z</time>
      </trkpt>
      <trkpt lat="43.9505" lon="6.36428">
        <ele>723</ele>
        <time>2018-05-16T05:45:51Z</time>
      </trkpt>
      <trkpt lat="43.95138" lon="6.36523">
        <ele>721</ele>
        <time>2018-05-16T05:46:51Z</time>
      </trkpt>
      <trkpt lat="43.95147" lon="6.36576">
        <ele>722</ele>
        <time>2018-05-16T05:47:51Z</time>
      </trkpt>
      <trkpt lat="43.95187" lon="6.36697">
        <ele>723</ele>
        <time>2018-05-16T05:48:51Z</time>
      </trkpt>
      <trkpt lat="43.95228" lon="6.36952">
        <ele>722</ele>
        <time>2018-05-16T05:49:51Z</time>
      </trkpt>
      <trkpt lat="43.95231" lon="6.37012">
        <ele>722</ele>
        <time>2018-05-16T05:50:51Z</time>
      </trkpt>
      <trkpt lat="43.95279" lon="6.37001">
        <ele>723</ele>
        <time>2018-05-16T05:51:51Z</time>
      </trkpt>
      <trkpt lat="43.95263" lon="6.369">
        <ele>722</ele>
        <time>2018-05-16T05:52:51Z</time>
      </trkpt>
      <trkpt lat="43.95334" lon="6.36873">
        <ele>727</ele>
        <time>2018-05-16T05:53:51Z</time>
      </trkpt>
      <trkpt lat="43.95367" lon="6.36969">
        <ele>727</ele>
        <time>2018-05-16T05:54:51Z</time>
      </trkpt>
      <trkpt lat="43.95455" lon="6.3692">
        <ele>734</ele>
        <time>2018-05-16T05:55:51Z</time>
      </trkpt>
      <trkpt lat="43.95529" lon="6.36875">
        <ele>741</ele>
        <time>2018-05-16T05:56:51Z</time>
      </trkpt>
      <trkpt lat="43.95614" lon="6.36838">
        <ele>753</ele>
        <time>2018-05-16T05:57:51Z</time>
      </trkpt>
      <trkpt lat="43.95708" lon="6.36782">
        <ele>769</ele>
        <time>2018-05-16T05:58:51Z</time>
      </trkpt>
      <trkpt lat="43.95737" lon="6.36823">
        <ele>776</ele>
        <time>2018-05-16T05:59:51Z</time>
      </trkpt>
      <trkpt lat="43.9577" lon="6.36748">
        <ele>785</ele>
        <time>2018-05-16T06:00:51Z</time>
      </trkpt>
      <trkpt lat="43.95858" lon="6.36849">
        <ele>806</ele>
        <time>2018-05-16T06:01:51Z</time>
      </trkpt>
      <trkpt lat="43.95955" lon="6.36903">
        <ele>816</ele>
        <time>2018-05-16T06:02:51Z</time>
      </trkpt>
      <trkpt lat="43.96048" lon="6.36911">
        <ele>821</ele>
        <time>2018-05-16T06:03:51Z</time>
      </trkpt>
      <trkpt lat="43.9613" lon="6.3687">
        <ele>830</ele>
        <time>2018-05-16T06:04:51Z</time>
      </trkpt>
      <trkpt lat="43.9617" lon="6.36898">
        <ele>827</ele>
        <time>2018-05-16T06:05:51Z</time>
      </trkpt>
      <trkpt lat="43.96216" lon="6.36881">
        <ele>834</ele>
        <time>2018-05-16T06:06:51Z</time>
      </trkpt>
      <trkpt lat="43.96232" lon="6.3692">
        <ele>830</ele>
        <time>2018-05-16T06:07:51Z</time>
      </trkpt>
      <trkpt lat="43.96352" lon="6.36935">
        <ele>853</ele>
        <time>2018-05-16T06:08:51Z</time>
      </trkpt>
      <trkpt lat="43.96369" lon="6.36898">
        <ele>861</ele>
        <time>2018-05-16T06:09:51Z</time>
      </trkpt>
      <trkpt lat="43.96386" lon="6.36946">
        <ele>862</ele>
        <time>2018-05-16T06:10:51Z</time>
      </trkpt>
      <trkpt lat="43.96477" lon="6.36993">
        <ele>878</ele>
        <time>2018-05-16T06:11:51Z</time>
      </trkpt>
      <trkpt lat="43.96525" lon="6.37016">
        <ele>882</ele>
        <time>2018-05-16T06:12:51Z</time>
      </trkpt>
      <trkpt lat="43.96639" lon="6.36965">
        <ele>908</ele>
        <time>2018-05-16T06:13:51Z</time>
      </trkpt>
      <trkpt lat="43.96616" lon="6.36918">
        <ele>916</ele>
        <time>2018-05-16T06:14:51Z</time>
      </trkpt>
      <trkpt lat="43.96669" lon="6.36918">
        <ele>923</ele>
        <time>2018-05-16T06:15:51Z</time>
      </trkpt>
      <trkpt lat="43.96738" lon="6.369">
        <ele>932</ele>
        <time>2018-05-16T06:16:51Z</time>
      </trkpt>
      <trkpt lat="43.96761" lon="6.36881">
        <ele>936</ele>
        <time>2018-05-16T06:17:51Z</time>
      </trkpt>
      <trkpt lat="43.96803" lon="6.36725">
        <ele>959</ele>
        <time>2018-05-16T06:18:51Z</time>
      </trkpt>
      <trkpt lat="43.96803" lon="6.36656">
        <ele>970</ele>
        <time>2018-05-16T06:19:51Z</time>
      </trkpt>
      <trkpt lat="43.96857" lon="6.36542">
        <ele>974</ele>
        <time>2018-05-16T06:20:51Z</time>
      </trkpt>
      <trkpt lat="43.96871" lon="6.36473">
        <ele>981</ele>
        <time>2018-05-16T06:21:51Z</time>
      </trkpt>
      <trkpt lat="43.9688" lon="6.36446">
        <ele>983</ele>
        <time>2018-05-16T06:22:51Z</time>
      </trkpt>
      <trkpt lat="43.96939" lon="6.36413">
        <ele>979</ele>
        <time>2018-05-16T06:23:51Z</time>
      </trkpt>
      <trkpt lat="43.96942" lon="6.3634">
        <ele>990</ele>
        <time>2018-05-16T06:24:51Z</time>
      </trkpt>
      <trkpt lat="43.97012" lon="6.3633">
        <ele>987</ele>
        <time>2018-05-16T06:25:51Z</time>
      </trkpt>
      <trkpt lat="43.97109" lon="6.36102">
        <ele>1018</ele>
        <time>2018-05-16T06:26:51Z</time>
      </trkpt>
      <trkpt lat="43.97117" lon="6.36016">
        <ele>1026</ele>
        <time>2018-05-16T06:27:51Z</time>
      </trkpt>
      <trkpt lat="43.9711" lon="6.35847">
        <ele>1041</ele>
        <time>2018-05-16T06:28:51Z</time>
      </trkpt>
      <trkpt lat="43.97143" lon="6.35774">
        <ele>1039</ele>
        <time>2018-05-16T06:29:51Z</time>
      </trkpt>
      <trkpt lat="43.97249" lon="6.35516">
        <ele>1060</ele>
        <time>2018-05-16T06:30:51Z</time>
      </trkpt>
      <trkpt lat="43.97337" lon="6.35338">
        <ele>1096</ele>
        <time>2018-05-16T06:31:51Z</time>
      </trkpt>
      <trkpt lat="43.97325" lon="6.3521">
        <ele>1092</ele>
        <time>2018-05-16T06:32:51Z</time>
      </trkpt>
      <trkpt lat="43.9734" lon="6.3512">
        <ele>1094</ele>
        <time>2018-05-16T06:33:51Z</time>
      </trkpt>
      <trkpt lat="43.97368" lon="6.35081">
        <ele>1091</ele>
        <time>2018-05-16T06:34:51Z</time>
      </trkpt>
      <trkpt lat="43.97436" lon="6.35096">
        <ele>1100</ele>
        <time>2018-05-16T06:35:51Z</time>
      </trkpt>
      <trkpt lat="43.97583" lon="6.35201">
        <ele>1132</ele>
        <time>2018-05-16T06:36:51Z</time>
      </trkpt>
      <trkpt lat="43.97668" lon="6.35223">
        <ele>1137</ele>
        <time>2018-05-16T06:37:51Z</time>
      </trkpt>
      <trkpt lat="43.97924" lon="6.35409">
        <ele>1182</ele>
        <time>2018-05-16T06:38:51Z</time>
      </trkpt>
      <trkpt lat="43.97943" lon="6.35439">
        <ele>1187</ele>
        <time>2018-05-16T06:39:51Z</time>
      </trkpt>
      <trkpt lat="43.98035" lon="6.35547">
        <ele>1191</ele>
        <time>2018-05-16T06:40:51Z</time>
      </trkpt>
      <trkpt lat="43.98136" lon="6.35613">
        <ele>1198</ele>
        <time>2018-05-16T06:41:51Z</time>
      </trkpt>
      <trkpt lat="43.9823" lon="6.35643">
        <ele>1205</ele>
        <time>2018-05-16T06:42:51Z</time>
      </trkpt>
      <trkpt lat="43.98292" lon="6.35682">
        <ele>1194</ele>
        <time>2018-05-16T06:43:51Z</time>
      </trkpt>
      <trkpt lat="43.9836" lon="6.35585">
        <ele>1219</ele>
        <time>2018-05-16T06:44:51Z</time>
      </trkpt>
      <trkpt lat="43.9846" lon="6.35499">
        <ele>1226</ele>
        <time>2018-05-16T06:45:51Z</time>
      </trkpt>
      <trkpt lat="43.98449" lon="6.35345">
        <ele>1210</ele>
        <time>2018-05-16T06:46:51Z</time>
      </trkpt>
      <trkpt lat="43.98477" lon="6.35313">
        <ele>1201</ele>
        <time>2018-05-16T06:47:51Z</time>
      </trkpt>
      <trkpt lat="43.98526" lon="6.35274">
        <ele>1192</ele>
        <time>2018-05-16T06:48:51Z</time>
      </trkpt>
      <trkpt lat="43.98576" lon="6.35223">
        <ele>1185</ele>
        <time>2018-05-16T06:49:51Z</time>
      </trkpt>
      <trkpt lat="43.98733" lon="6.35085">
        <ele>1175</ele>
        <time>2018-05-16T06:50:51Z</time>
      </trkpt>
      <trkpt lat="43.98846" lon="6.35034">
        <ele>1170</ele>
        <time>2018-05-16T06:51:51Z</time>
      </trkpt>
      <trkpt lat="43.98901" lon="6.3495">
        <ele>1151</ele>
        <time>2018-05-16T06:52:51Z</time>
      </trkpt>
      <trkpt lat="43.98983" lon="6.34918">
        <ele>1146</ele>
        <time>2018-05-16T06:53:51Z</time>
      </trkpt>
      <trkpt lat="43.99014" lon="6.34841">
        <ele>1134</ele>
        <time>2018-05-16T06:54:51Z</time>
      </trkpt>
      <trkpt lat="43.9906" lon="6.34804">
        <ele>1133</ele>
        <time>2018-05-16T06:55:51Z</time>
      </trkpt>
      <trkpt lat="43.9906" lon="6.34804">
        <ele>1133</ele>
        <time>2018-05-16T06:56:51Z</time>
      </trkpt>
      <trkpt lat="43.99079" lon="6.34755">
        <ele>1126</ele>
        <time>2018-05-16T06:57:51Z</time>
      </trkpt>
      <trkpt lat="43.99045" lon="6.34615">
        <ele>1113</ele>
        <time>2018-05-16T06:58:51Z</time>
      </trkpt>
      <trkpt lat="43.99045" lon="6.34499">
        <ele>1105</ele>
        <time>2018-05-16T06:59:51Z</time>
      </trkpt>
      <trkpt lat="43.9911" lon="6.34435">
        <ele>1090</ele>
        <time>2018-05-16T07:00:51Z</time>
      </trkpt>
      <trkpt lat="43.99244" lon="6.34459">
        <ele>1090</ele>
        <time>2018-05-16T07:01:51Z</time>
      </trkpt>
      <trkpt lat="43.99329" lon="6.34454">
        <ele>1085</ele>
        <time>2018-05-16T07:02:51Z</time>
      </trkpt>
      <trkpt lat="43.99349" lon="6.34424">
        <ele>1077</ele>
        <time>2018-05-16T07:03:51Z</time>
      </trkpt>
      <trkpt lat="43.99453" lon="6.34401">
        <ele>1087</ele>
        <time>2018-05-16T07:04:51Z</time>
      </trkpt>
      <trkpt lat="43.9944" lon="6.34319">
        <ele>1071</ele>
        <time>2018-05-16T07:05:51Z</time>
      </trkpt>
      <trkpt lat="43.99476" lon="6.34289">
        <ele>1086</ele>
        <time>2018-05-16T07:06:51Z</time>
      </trkpt>
      <trkpt lat="43.9947" lon="6.34083">
        <ele>1071</ele>
        <time>2018-05-16T07:07:51Z</time>
      </trkpt>
      <trkpt lat="43.99445" lon="6.33918">
        <ele>1055</ele>
        <time>2018-05-16T07:08:51Z</time>
      </trkpt>
      <trkpt lat="43.9947" lon="6.33781">
        <ele>1043</ele>
        <time>2018-05-16T07:09:51Z</time>
      </trkpt>
      <trkpt lat="43.9953" lon="6.33716">
        <ele>1048</ele>
        <time>2018-05-16T07:10:51Z</time>
      </trkpt>
      <trkpt lat="43.99517" lon="6.33577">
        <ele>1032</ele>
        <time>2018-05-16T07:11:51Z</time>
      </trkpt>
      <trkpt lat="43.99588" lon="6.3339">
        <ele>1030</ele>
        <time>2018-05-16T07:12:51Z</time>
      </trkpt>
      <trkpt lat="43.99588" lon="6.33246">
        <ele>1025</ele>
        <time>2018-05-16T07:13:51Z</time>
      </trkpt>
      <trkpt lat="43.99539" lon="6.33221">
        <ele>1016</ele>
        <time>2018-05-16T07:14:51Z</time>
      </trkpt>
      <trkpt lat="43.99527" lon="6.33199">
        <ele>1014</ele>
        <time>2018-05-16T07:15:51Z</time>
      </trkpt>
      <trkpt lat="43.99556" lon="6.33064">
        <ele>1017</ele>
        <time>2018-05-16T07:16:51Z</time>
      </trkpt>
      <trkpt lat="43.99601" lon="6.32972">
        <ele>1017</ele>
        <time>2018-05-16T07:17:51Z</time>
      </trkpt>
      <trkpt lat="43.99672" lon="6.32896">
        <ele>1022</ele>
        <time>2018-05-16T07:18:51Z</time>
      </trkpt>
      <trkpt lat="43.99712" lon="6.32785">
        <ele>1025</ele>
        <time>2018-05-16T07:19:51Z</time>
      </trkpt>
      <trkpt lat="43.99738" lon="6.32637">
        <ele>1030</ele>
        <time>2018-05-16T07:20:51Z</time>
      </trkpt>
      <trkpt lat="43.99828" lon="6.32433">
        <ele>1035</ele>
        <time>2018-05-16T07:21:51Z</time>
      </trkpt>
      <trkpt lat="43.99934" lon="6.3236">
        <ele>1050</ele>
        <time>2018-05-16T07:22:51Z</time>
      </trkpt>
      <trkpt lat="43.99987" lon="6.32309">
        <ele>1061</ele>
        <time>2018-05-16T07:23:51Z</time>
      </trkpt>
      <trkpt lat="44.00249" lon="6.3203">
        <ele>1121</ele>
        <time>2018-05-16T07:24:51Z</time>
      </trkpt>
      <trkpt lat="44.00377" lon="6.31916">
        <ele>1127</ele>
        <time>2018-05-16T07:25:51Z</time>
      </trkpt>
      <trkpt lat="44.00454" lon="6.31867">
        <ele>1137</ele>
        <time>2018-05-16T07:26:51Z</time>
      </trkpt>
      <trkpt lat="44.00504" lon="6.31843">
        <ele>1144</ele>
        <time>2018-05-16T07:27:51Z</time>
      </trkpt>
      <trkpt lat="44.00536" lon="6.31764">
        <ele>1147</ele>
        <time>2018-05-16T07:28:51Z</time>
      </trkpt>
      <trkpt lat="44.00556" lon="6.31839">
        <ele>1156</ele>
        <time>2018-05-16T07:29:51Z</time>
      </trkpt>
      <trkpt lat="44.00545" lon="6.32015">
        <ele>1167</ele>
        <time>2018-05-16T07:30:51Z</time>
      </trkpt>
      <trkpt lat="44.00528" lon="6.32115">
        <ele>1176</ele>
        <time>2018-05-16T07:31:51Z</time>
      </trkpt>
      <trkpt lat="44.00501" lon="6.32334">
        <ele>1189</ele>
        <time>2018-05-16T07:32:51Z</time>
      </trkpt>
      <trkpt lat="44.00545" lon="6.32251">
        <ele>1194</ele>
        <time>2018-05-16T07:33:51Z</time>
      </trkpt>
      <trkpt lat="44.00598" lon="6.32208">
        <ele>1203</ele>
        <time>2018-05-16T07:34:51Z</time>
      </trkpt>
      <trkpt lat="44.00616" lon="6.3215">
        <ele>1198</ele>
        <time>2018-05-16T07:35:51Z</time>
      </trkpt>
      <trkpt lat="44.00678" lon="6.32128">
        <ele>1206</ele>
        <time>2018-05-16T07:36:51Z</time>
      </trkpt>
      <trkpt lat="44.00738" lon="6.321">
        <ele>1211</ele>
        <time>2018-05-16T07:37:51Z</time>
      </trkpt>
      <trkpt lat="44.00771" lon="6.32027">
        <ele>1205</ele>
        <time>2018-05-16T07:38:51Z</time>
      </trkpt>
      <trkpt lat="44.00873" lon="6.32023">
        <ele>1206</ele>
        <time>2018-05-16T07:39:51Z</time>
      </trkpt>
      <trkpt lat="44.00944" lon="6.3203">
        <ele>1204</ele>
        <time>2018-05-16T07:40:51Z</time>
      </trkpt>
      <trkpt lat="44.01055" lon="6.32107">
        <ele>1205</ele>
        <time>2018-05-16T07:41:51Z</time>
      </trkpt>
      <trkpt lat="44.01245" lon="6.3201">
        <ele>1191</ele>
        <time>2018-05-16T07:42:51Z</time>
      </trkpt>
      <trkpt lat="44.01163" lon="6.32038">
        <ele>1184</ele>
        <time>2018-05-16T07:43:51Z</time>
      </trkpt>
      <trkpt lat="44.01076" lon="6.32004">
        <ele>1175</ele>
        <time>2018-05-16T07:44:51Z</time>
      </trkpt>
      <trkpt lat="44.01195" lon="6.31987">
        <ele>1175</ele>
        <time>2018-05-16T07:45:51Z</time>
      </trkpt>
      <trkpt lat="44.01104" lon="6.31916">
        <ele>1156</ele>
        <time>2018-05-16T07:46:51Z</time>
      </trkpt>
      <trkpt lat="44.01211" lon="6.31867">
        <ele>1149</ele>
        <time>2018-05-16T07:47:51Z</time>
      </trkpt>
      <trkpt lat="44.01167" lon="6.31841">
        <ele>1142</ele>
        <time>2018-05-16T07:48:51Z</time>
      </trkpt>
      <trkpt lat="44.01143" lon="6.31794">
        <ele>1132</ele>
        <time>2018-05-16T07:49:51Z</time>
      </trkpt>
      <trkpt lat="44.01098" lon="6.31802">
        <ele>1130</ele>
        <time>2018-05-16T07:50:51Z</time>
      </trkpt>
      <trkpt lat="44.0112" lon="6.31755">
        <ele>1122</ele>
        <time>2018-05-16T07:51:51Z</time>
      </trkpt>
      <trkpt lat="44.0117" lon="6.31733">
        <ele>1122</ele>
        <time>2018-05-16T07:52:51Z</time>
      </trkpt>
      <trkpt lat="44.01229" lon="6.31753">
        <ele>1123</ele>
        <time>2018-05-16T07:53:51Z</time>
      </trkpt>
      <trkpt lat="44.01194" lon="6.31697">
        <ele>1113</ele>
        <time>2018-05-16T07:54:51Z</time>
      </trkpt>
      <trkpt lat="44.01136" lon="6.31667">
        <ele>1105</ele>
        <time>2018-05-16T07:55:51Z</time>
      </trkpt>
      <trkpt lat="44.01081" lon="6.31691">
        <ele>1103</ele>
        <time>2018-05-16T07:56:51Z</time>
      </trkpt>
      <trkpt lat="44.01118" lon="6.31626">
        <ele>1094</ele>
        <time>2018-05-16T07:57:51Z</time>
      </trkpt>
      <trkpt lat="44.01261" lon="6.31577">
        <ele>1096</ele>
        <time>2018-05-16T07:58:51Z</time>
      </trkpt>
      <trkpt lat="44.01272" lon="6.31446">
        <ele>1088</ele>
        <time>2018-05-16T07:59:51Z</time>
      </trkpt>
      <trkpt lat="44.01257" lon="6.31377">
        <ele>1080</ele>
        <time>2018-05-16T08:00:51Z</time>
      </trkpt>
      <trkpt lat="44.01209" lon="6.31337">
        <ele>1063</ele>
        <time>2018-05-16T08:01:51Z</time>
      </trkpt>
      <trkpt lat="44.01186" lon="6.31244">
        <ele>1046</ele>
        <time>2018-05-16T08:02:51Z</time>
      </trkpt>
      <trkpt lat="44.01209" lon="6.31152">
        <ele>1037</ele>
        <time>2018-05-16T08:03:51Z</time>
      </trkpt>
      <trkpt lat="44.01308" lon="6.31122">
        <ele>1054</ele>
        <time>2018-05-16T08:04:51Z</time>
      </trkpt>
      <trkpt lat="44.01397" lon="6.31028">
        <ele>1053</ele>
        <time>2018-05-16T08:05:51Z</time>
      </trkpt>
      <trkpt lat="44.01414" lon="6.30849">
        <ele>1034</ele>
        <time>2018-05-16T08:06:51Z</time>
      </trkpt>
      <trkpt lat="44.01459" lon="6.30822">
        <ele>1032</ele>
        <time>2018-05-16T08:07:51Z</time>
      </trkpt>
      <trkpt lat="44.01511" lon="6.30871">
        <ele>1042</ele>
        <time>2018-05-16T08:08:51Z</time>
      </trkpt>
      <trkpt lat="44.0165" lon="6.30877">
        <ele>1039</ele>
        <time>2018-05-16T08:09:51Z</time>
      </trkpt>
      <trkpt lat="44.01738" lon="6.30841">
        <ele>1039</ele>
        <time>2018-05-16T08:10:51Z</time>
      </trkpt>
      <trkpt lat="44.01718" lon="6.30738">
        <ele>1024</ele>
        <time>2018-05-16T08:11:51Z</time>
      </trkpt>
      <trkpt lat="44.01746" lon="6.30701">
        <ele>1022</ele>
        <time>2018-05-16T08:12:51Z</time>
      </trkpt>
      <trkpt lat="44.01757" lon="6.30545">
        <ele>1009</ele>
        <time>2018-05-16T08:13:51Z</time>
      </trkpt>
      <trkpt lat="44.01799" lon="6.30517">
        <ele>1009</ele>
        <time>2018-05-16T08:14:51Z</time>
      </trkpt>
      <trkpt lat="44.01894" lon="6.30476">
        <ele>1013</ele>
        <time>2018-05-16T08:15:51Z</time>
      </trkpt>
      <trkpt lat="44.0192" lon="6.3044">
        <ele>1013</ele>
        <time>2018-05-16T08:16:51Z</time>
      </trkpt>
      <trkpt lat="44.0192" lon="6.30373">
        <ele>1005</ele>
        <time>2018-05-16T08:17:51Z</time>
      </trkpt>
      <trkpt lat="44.02024" lon="6.30341">
        <ele>1002</ele>
        <time>2018-05-16T08:18:51Z</time>
      </trkpt>
      <trkpt lat="44.0209" lon="6.30339">
        <ele>1005</ele>
        <time>2018-05-16T08:19:51Z</time>
      </trkpt>
      <trkpt lat="44.0211" lon="6.30302">
        <ele>1004</ele>
        <time>2018-05-16T08:20:51Z</time>
      </trkpt>
      <trkpt lat="44.02187" lon="6.30283">
        <ele>1017</ele>
        <time>2018-05-16T08:21:51Z</time>
      </trkpt>
      <trkpt lat="44.02206" lon="6.30234">
        <ele>1013</ele>
        <time>2018-05-16T08:22:51Z</time>
      </trkpt>
      <trkpt lat="44.02285" lon="6.30219">
        <ele>1025</ele>
        <time>2018-05-16T08:23:51Z</time>
      </trkpt>
      <trkpt lat="44.02314" lon="6.30161">
        <ele>1023</ele>
        <time>2018-05-16T08:24:51Z</time>
      </trkpt>
      <trkpt lat="44.02359" lon="6.30154">
        <ele>1031</ele>
        <time>2018-05-16T08:25:51Z</time>
      </trkpt>
      <trkpt lat="44.0242" lon="6.3004">
        <ele>1033</ele>
        <time>2018-05-16T08:26:51Z</time>
      </trkpt>
      <trkpt lat="44.02482" lon="6.30013">
        <ele>1038</ele>
        <time>2018-05-16T08:27:51Z</time>
      </trkpt>
      <trkpt lat="44.02528" lon="6.3">
        <ele>1042</ele>
        <time>2018-05-16T08:28:51Z</time>
      </trkpt>
      <trkpt lat="44.02579" lon="6.30032">
        <ele>1050</ele>
        <time>2018-05-16T08:29:51Z</time>
      </trkpt>
      <trkpt lat="44.02578" lon="6.29983">
        <ele>1046</ele>
        <time>2018-05-16T08:30:51Z</time>
      </trkpt>
      <trkpt lat="44.02573" lon="6.29989">
        <ele>1046</ele>
        <time>2018-05-16T08:31:51Z</time>
      </trkpt>
      <trkpt lat="44.02683" lon="6.29912">
        <ele>1053</ele>
        <time>2018-05-16T08:32:51Z</time>
      </trkpt>
      <trkpt lat="44.0273" lon="6.29815">
        <ele>1057</ele>
        <time>2018-05-16T08:33:51Z</time>
      </trkpt>
      <trkpt lat="44.02815" lon="6.29798">
        <ele>1063</ele>
        <time>2018-05-16T08:34:51Z</time>
      </trkpt>
      <trkpt lat="44.02914" lon="6.29744">
        <ele>1069</ele>
        <time>2018-05-16T08:35:51Z</time>
      </trkpt>
      <trkpt lat="44.02909" lon="6.29682">
        <ele>1076</ele>
        <time>2018-05-16T08:36:51Z</time>
      </trkpt>
      <trkpt lat="44.02791" lon="6.29676">
        <ele>1083</ele>
        <time>2018-05-16T08:37:51Z</time>
      </trkpt>
      <trkpt lat="44.02678" lon="6.29663">
        <ele>1097</ele>
        <time>2018-05-16T08:38:51Z</time>
      </trkpt>
      <trkpt lat="44.02622" lon="6.2968">
        <ele>1094</ele>
        <time>2018-05-16T08:39:51Z</time>
      </trkpt>
      <trkpt lat="44.02555" lon="6.29663">
        <ele>1102</ele>
        <time>2018-05-16T08:40:51Z</time>
      </trkpt>
      <trkpt lat="44.02541" lon="6.29633">
        <ele>1109</ele>
        <time>2018-05-16T08:41:51Z</time>
      </trkpt>
      <trkpt lat="44.02589" lon="6.29549">
        <ele>1109</ele>
        <time>2018-05-16T08:42:51Z</time>
      </trkpt>
      <trkpt lat="44.02632" lon="6.2942">
        <ele>1099</ele>
        <time>2018-05-16T08:43:51Z</time>
      </trkpt>
      <trkpt lat="44.02589" lon="6.29343">
        <ele>1084</ele>
        <time>2018-05-16T08:44:51Z</time>
      </trkpt>
      <trkpt lat="44.02578" lon="6.29298">
        <ele>1078</ele>
        <time>2018-05-16T08:45:51Z</time>
      </trkpt>
      <trkpt lat="44.02598" lon="6.29229">
        <ele>1076</ele>
        <time>2018-05-16T08:46:51Z</time>
      </trkpt>
      <trkpt lat="44.02644" lon="6.29109">
        <ele>1071</ele>
        <time>2018-05-16T08:47:51Z</time>
      </trkpt>
      <trkpt lat="44.02653" lon="6.29066">
        <ele>1066</ele>
        <time>2018-05-16T08:48:51Z</time>
      </trkpt>
      <trkpt lat="44.02652" lon="6.28985">
        <ele>1056</ele>
        <time>2018-05-16T08:49:51Z</time>
      </trkpt>
      <trkpt lat="44.02678" lon="6.28914">
        <ele>1050</ele>
        <time>2018-05-16T08:50:51Z</time>
      </trkpt>
      <trkpt lat="44.02764" lon="6.28828">
        <ele>1048</ele>
        <time>2018-05-16T08:51:51Z</time>
      </trkpt>
      <trkpt lat="44.02821" lon="6.28796">
        <ele>1050</ele>
        <time>2018-05-16T08:52:51Z</time>
      </trkpt>
      <trkpt lat="44.02835" lon="6.28759">
        <ele>1044</ele>
        <time>2018-05-16T08:53:51Z</time>
      </trkpt>
      <trkpt lat="44.02879" lon="6.28738">
        <ele>1044</ele>
        <time>2018-05-16T08:54:51Z</time>
      </trkpt>
      <trkpt lat="44.02889" lon="6.28695">
        <ele>1033</ele>
        <time>2018-05-16T08:55:51Z</time>
      </trkpt>
      <trkpt lat="44.0297" lon="6.28635">
        <ele>1024</ele>
        <time>2018-05-16T08:56:51Z</time>
      </trkpt>
      <trkpt lat="44.03025" lon="6.28594">
        <ele>1020</ele>
        <time>2018-05-16T08:57:51Z</time>
      </trkpt>
      <trkpt lat="44.03068" lon="6.28564">
        <ele>1021</ele>
        <time>2018-05-16T08:58:51Z</time>
      </trkpt>
      <trkpt lat="44.03061" lon="6.28573">
        <ele>1021</ele>
        <time>2018-05-16T08:59:51Z</time>
      </trkpt>
      <trkpt lat="44.03076" lon="6.28543">
        <ele>1020</ele>
        <time>2018-05-16T09:00:51Z</time>
      </trkpt>
      <trkpt lat="44.03121" lon="6.28538">
        <ele>1027</ele>
        <time>2018-05-16T09:01:51Z</time>
      </trkpt>
      <trkpt lat="44.03121" lon="6.28493">
        <ele>1022</ele>
        <time>2018-05-16T09:02:51Z</time>
      </trkpt>
      <trkpt lat="44.03204" lon="6.2838">
        <ele>1022</ele>
        <time>2018-05-16T09:03:51Z</time>
      </trkpt>
      <trkpt lat="44.03306" lon="6.2829">
        <ele>1022</ele>
        <time>2018-05-16T09:04:51Z</time>
      </trkpt>
      <trkpt lat="44.03405" lon="6.28266">
        <ele>1012</ele>
        <time>2018-05-16T09:05:51Z</time>
      </trkpt>
      <trkpt lat="44.03466" lon="6.28182">
        <ele>1006</ele>
        <time>2018-05-16T09:06:51Z</time>
      </trkpt>
      <trkpt lat="44.03628" lon="6.28088">
        <ele>992</ele>
        <time>2018-05-16T09:07:51Z</time>
      </trkpt>
      <trkpt lat="44.03739" lon="6.2797">
        <ele>989</ele>
        <time>2018-05-16T09:08:51Z</time>
      </trkpt>
      <trkpt lat="44.03816" lon="6.27912">
        <ele>991</ele>
        <time>2018-05-16T09:09:51Z</time>
      </trkpt>
      <trkpt lat="44.03864" lon="6.27905">
        <ele>994</ele>
        <time>2018-05-16T09:10:51Z</time>
      </trkpt>
      <trkpt lat="44.03911" lon="6.27869">
        <ele>997</ele>
        <time>2018-05-16T09:11:51Z</time>
      </trkpt>
      <trkpt lat="44.03992" lon="6.27854">
        <ele>998</ele>
        <time>2018-05-16T09:12:51Z</time>
      </trkpt>
      <trkpt lat="44.04022" lon="6.27813">
        <ele>996</ele>
        <time>2018-05-16T09:13:51Z</time>
      </trkpt>
      <trkpt lat="44.04154" lon="6.27693">
        <ele>984</ele>
        <time>2018-05-16T09:14:51Z</time>
      </trkpt>
      <trkpt lat="44.04221" lon="6.27498">
        <ele>989</ele>
        <time>2018-05-16T09:15:51Z</time>
      </trkpt>
      <trkpt lat="44.04235" lon="6.27245">
        <ele>976</ele>
        <time>2018-05-16T09:16:51Z</time>
      </trkpt>
      <trkpt lat="44.04224" lon="6.27217">
        <ele>975</ele>
        <time>2018-05-16T09:17:51Z</time>
      </trkpt>
      <trkpt lat="44.04267" lon="6.2718">
        <ele>966</ele>
        <time>2018-05-16T09:18:51Z</time>
      </trkpt>
      <trkpt lat="44.0427" lon="6.27069">
        <ele>966</ele>
        <time>2018-05-16T09:19:51Z</time>
      </trkpt>
      <trkpt lat="44.04326" lon="6.26946">
        <ele>964</ele>
        <time>2018-05-16T09:20:51Z</time>
      </trkpt>
      <trkpt lat="44.04333" lon="6.26813">
        <ele>976</ele>
        <time>2018-05-16T09:21:51Z</time>
      </trkpt>
      <trkpt lat="44.044" lon="6.26738">
        <ele>965</ele>
        <time>2018-05-16T09:22:51Z</time>
      </trkpt>
      <trkpt lat="44.04444" lon="6.26633">
        <ele>968</ele>
        <time>2018-05-16T09:23:51Z</time>
      </trkpt>
      <trkpt lat="44.04566" lon="6.26564">
        <ele>965</ele>
        <time>2018-05-16T09:24:51Z</time>
      </trkpt>
      <trkpt lat="44.04583" lon="6.26358">
        <ele>964</ele>
        <time>2018-05-16T09:25:51Z</time>
      </trkpt>
      <trkpt lat="44.0458" lon="6.2632">
        <ele>968</ele>
        <time>2018-05-16T09:26:51Z</time>
      </trkpt>
      <trkpt lat="44.04612" lon="6.26281">
        <ele>969</ele>
        <time>2018-05-16T09:27:51Z</time>
      </trkpt>
      <trkpt lat="44.04612" lon="6.26227">
        <ele>978</ele>
        <time>2018-05-16T09:28:51Z</time>
      </trkpt>
      <trkpt lat="44.04642" lon="6.26142">
        <ele>991</ele>
        <time>2018-05-16T09:29:51Z</time>
      </trkpt>
      <trkpt lat="44.04642" lon="6.26142">
        <ele>991</ele>
        <time>2018-05-16T09:30:51Z</time>
      </trkpt>
      <trkpt lat="44.04591" lon="6.26058">
        <ele>1012</ele>
        <time>2018-05-16T09:31:51Z</time>
      </trkpt>
      <trkpt lat="44.04699" lon="6.26032">
        <ele>1013</ele>
        <time>2018-05-16T09:32:51Z</time>
      </trkpt>
      <trkpt lat="44.0471" lon="6.25972">
        <ele>1027</ele>
        <time>2018-05-16T09:33:51Z</time>
      </trkpt>
      <trkpt lat="44.04787" lon="6.25951">
        <ele>1026</ele>
        <time>2018-05-16T09:34:51Z</time>
      </trkpt>
      <trkpt lat="44.04831" lon="6.25869">
        <ele>1037</ele>
        <time>2018-05-16T09:35:51Z</time>
      </trkpt>
      <trkpt lat="44.04841" lon="6.2579">
        <ele>1051</ele>
        <time>2018-05-16T09:36:51Z</time>
      </trkpt>
      <trkpt lat="44.04919" lon="6.25702">
        <ele>1057</ele>
        <time>2018-05-16T09:37:51Z</time>
      </trkpt>
      <trkpt lat="44.04976" lon="6.25622">
        <ele>1070</ele>
        <time>2018-05-16T09:38:51Z</time>
      </trkpt>
      <trkpt lat="44.05069" lon="6.2556">
        <ele>1089</ele>
        <time>2018-05-16T09:39:51Z</time>
      </trkpt>
      <trkpt lat="44.05149" lon="6.25526">
        <ele>1105</ele>
        <time>2018-05-16T09:40:51Z</time>
      </trkpt>
      <trkpt lat="44.05231" lon="6.25459">
        <ele>1135</ele>
        <time>2018-05-16T09:41:51Z</time>
      </trkpt>
      <trkpt lat="44.05481" lon="6.25371">
        <ele>1183</ele>
        <time>2018-05-16T09:42:51Z</time>
      </trkpt>
      <trkpt lat="44.05334" lon="6.25258">
        <ele>1200</ele>
        <time>2018-05-16T09:43:51Z</time>
      </trkpt>
      <trkpt lat="44.05293" lon="6.25234">
        <ele>1199</ele>
        <time>2018-05-16T09:44:51Z</time>
      </trkpt>
      <trkpt lat="44.05143" lon="6.25172">
        <ele>1195</ele>
        <time>2018-05-16T09:45:51Z</time>
      </trkpt>
      <trkpt lat="44.05072" lon="6.25084">
        <ele>1182</ele>
        <time>2018-05-16T09:46:51Z</time>
      </trkpt>
      <trkpt lat="44.05037" lon="6.25">
        <ele>1178</ele>
        <time>2018-05-16T09:47:51Z</time>
      </trkpt>
      <trkpt lat="44.05038" lon="6.24936">
        <ele>1177</ele>
        <time>2018-05-16T09:48:51Z</time>
      </trkpt>
      <trkpt lat="44.05158" lon="6.25037">
        <ele>1147</ele>
        <time>2018-05-16T09:49:51Z</time>
      </trkpt>
      <trkpt lat="44.05291" lon="6.25049">
        <ele>1132</ele>
        <time>2018-05-16T09:50:51Z</time>
      </trkpt>
      <trkpt lat="44.05427" lon="6.25028">
        <ele>1115</ele>
        <time>2018-05-16T09:51:51Z</time>
      </trkpt>
      <trkpt lat="44.05542" lon="6.25034">
        <ele>1102</ele>
        <time>2018-05-16T09:52:51Z</time>
      </trkpt>
      <trkpt lat="44.05584" lon="6.25058">
        <ele>1095</ele>
        <time>2018-05-16T09:53:51Z</time>
      </trkpt>
      <trkpt lat="44.05653" lon="6.25056">
        <ele>1089</ele>
        <time>2018-05-16T09:54:51Z</time>
      </trkpt>
      <trkpt lat="44.05775" lon="6.24979">
        <ele>1066</ele>
        <time>2018-05-16T09:55:51Z</time>
      </trkpt>
      <trkpt lat="44.05746" lon="6.24964">
        <ele>1073</ele>
        <time>2018-05-16T09:56:51Z</time>
      </trkpt>
      <trkpt lat="44.05771" lon="6.24929">
        <ele>1070</ele>
        <time>2018-05-16T09:57:51Z</time>
      </trkpt>
      <trkpt lat="44.05777" lon="6.24895">
        <ele>1075</ele>
        <time>2018-05-16T09:58:51Z</time>
      </trkpt>
      <trkpt lat="44.05891" lon="6.24801">
        <ele>1059</ele>
        <time>2018-05-16T09:59:51Z</time>
      </trkpt>
      <trkpt lat="44.05894" lon="6.24743">
        <ele>1076</ele>
        <time>2018-05-16T10:00:51Z</time>
      </trkpt>
      <trkpt lat="44.05996" lon="6.24597">
        <ele>1076</ele>
        <time>2018-05-16T10:01:51Z</time>
      </trkpt>
      <trkpt lat="44.05997" lon="6.24564">
        <ele>1088</ele>
        <time>2018-05-16T10:02:51Z</time>
      </trkpt>
      <trkpt lat="44.06053" lon="6.24507">
        <ele>1089</ele>
        <time>2018-05-16T10:03:51Z</time>
      </trkpt>
      <trkpt lat="44.06258" lon="6.24507">
        <ele>1078</ele>
        <time>2018-05-16T10:04:51Z</time>
      </trkpt>
      <trkpt lat="44.06378" lon="6.24442">
        <ele>1094</ele>
        <time>2018-05-16T10:05:51Z</time>
      </trkpt>
      <trkpt lat="44.06492" lon="6.2447">
        <ele>1081</ele>
        <time>2018-05-16T10:06:51Z</time>
      </trkpt>
      <trkpt lat="44.06538" lon="6.24455">
        <ele>1085</ele>
        <time>2018-05-16T10:07:51Z</time>
      </trkpt>
      <trkpt lat="44.06628" lon="6.2447">
        <ele>1086</ele>
        <time>2018-05-16T10:08:51Z</time>
      </trkpt>
      <trkpt lat="44.06659" lon="6.24511">
        <ele>1081</ele>
        <time>2018-05-16T10:09:51Z</time>
      </trkpt>
      <trkpt lat="44.0676" lon="6.24564">
        <ele>1082</ele>
        <time>2018-05-16T10:10:51Z</time>
      </trkpt>
      <trkpt lat="44.06818" lon="6.2447">
        <ele>1085</ele>
        <time>2018-05-16T10:11:51Z</time>
      </trkpt>
      <trkpt lat="44.06814" lon="6.24386">
        <ele>1084</ele>
        <time>2018-05-16T10:12:51Z</time>
      </trkpt>
      <trkpt lat="44.0683" lon="6.24343">
        <ele>1080</ele>
        <time>2018-05-16T10:13:51Z</time>
      </trkpt>
      <trkpt lat="44.06824" lon="6.24309">
        <ele>1073</ele>
        <time>2018-05-16T10:14:51Z</time>
      </trkpt>
      <trkpt lat="44.0687" lon="6.24316">
        <ele>1067</ele>
        <time>2018-05-16T10:15:51Z</time>
      </trkpt>
      <trkpt lat="44.06879" lon="6.24309">
        <ele>1064</ele>
        <time>2018-05-16T10:16:51Z</time>
      </trkpt>
      <trkpt lat="44.0695" lon="6.24232">
        <ele>1040</ele>
        <time>2018-05-16T10:17:51Z</time>
      </trkpt>
      <trkpt lat="44.0706" lon="6.24228">
        <ele>1022</ele>
        <time>2018-05-16T10:18:51Z</time>
      </trkpt>
      <trkpt lat="44.07106" lon="6.24215">
        <ele>1011</ele>
        <time>2018-05-16T10:19:51Z</time>
      </trkpt>
      <trkpt lat="44.07201" lon="6.24238">
        <ele>1001</ele>
        <time>2018-05-16T10:20:51Z</time>
      </trkpt>
      <trkpt lat="44.07274" lon="6.24307">
        <ele>986</ele>
        <time>2018-05-16T10:21:51Z</time>
      </trkpt>
      <trkpt lat="44.0742" lon="6.2435">
        <ele>983</ele>
        <time>2018-05-16T10:22:51Z</time>
      </trkpt>
      <trkpt lat="44.07499" lon="6.24262">
        <ele>988</ele>
        <time>2018-05-16T10:23:51Z</time>
      </trkpt>
      <trkpt lat="44.07565" lon="6.24122">
        <ele>984</ele>
        <time>2018-05-16T10:24:51Z</time>
      </trkpt>
      <trkpt lat="44.07616" lon="6.2408">
        <ele>980</ele>
        <time>2018-05-16T10:25:51Z</time>
      </trkpt>
      <trkpt lat="44.07659" lon="6.24013">
        <ele>964</ele>
        <time>2018-05-16T10:26:51Z</time>
      </trkpt>
      <trkpt lat="44.07741" lon="6.23979">
        <ele>954</ele>
        <time>2018-05-16T10:27:51Z</time>
      </trkpt>
      <trkpt lat="44.0782" lon="6.24045">
        <ele>944</ele>
        <time>2018-05-16T10:28:51Z</time>
      </trkpt>
      <trkpt lat="44.07858" lon="6.24135">
        <ele>942</ele>
        <time>2018-05-16T10:29:51Z</time>
      </trkpt>
      <trkpt lat="44.07934" lon="6.2417">
        <ele>936</ele>
        <time>2018-05-16T10:30:51Z</time>
      </trkpt>
      <trkpt lat="44.08051" lon="6.24133">
        <ele>920</ele>
        <time>2018-05-16T10:31:51Z</time>
      </trkpt>
      <trkpt lat="44.08045" lon="6.24142">
        <ele>921</ele>
        <time>2018-05-16T10:32:51Z</time>
      </trkpt>
      <trkpt lat="44.08088" lon="6.24125">
        <ele>917</ele>
        <time>2018-05-16T10:33:51Z</time>
      </trkpt>
      <trkpt lat="44.08139" lon="6.24152">
        <ele>913</ele>
        <time>2018-05-16T10:34:51Z</time>
      </trkpt>
      <trkpt lat="44.08217" lon="6.24163">
        <ele>905</ele>
        <time>2018-05-16T10:35:51Z</time>
      </trkpt>
      <trkpt lat="44.0824" lon="6.24198">
        <ele>899</ele>
        <time>2018-05-16T10:36:51Z</time>
      </trkpt>
      <trkpt lat="44.0825" lon="6.24253">
        <ele>893</ele>
        <time>2018-05-16T10:37:51Z</time>
      </trkpt>
      <trkpt lat="44.0829" lon="6.24247">
        <ele>883</ele>
        <time>2018-05-16T10:38:51Z</time>
      </trkpt>
      <trkpt lat="44.08299" lon="6.24326">
        <ele>870</ele>
        <time>2018-05-16T10:39:51Z</time>
      </trkpt>
      <trkpt lat="44.08361" lon="6.24234">
        <ele>856</ele>
        <time>2018-05-16T10:40:51Z</time>
      </trkpt>
      <trkpt lat="44.08342" lon="6.24316">
        <ele>863</ele>
        <time>2018-05-16T10:41:51Z</time>
      </trkpt>
      <trkpt lat="44.08413" lon="6.24455">
        <ele>835</ele>
        <time>2018-05-16T10:42:51Z</time>
      </trkpt>
      <trkpt lat="44.08601" lon="6.24489">
        <ele>795</ele>
        <time>2018-05-16T10:43:51Z</time>
      </trkpt>
      <trkpt lat="44.086" lon="6.24532">
        <ele>791</ele>
        <time>2018-05-16T10:44:51Z</time>
      </trkpt>
      <trkpt lat="44.08657" lon="6.24489">
        <ele>776</ele>
        <time>2018-05-16T10:45:51Z</time>
      </trkpt>
      <trkpt lat="44.08643" lon="6.2453">
        <ele>775</ele>
        <time>2018-05-16T10:46:51Z</time>
      </trkpt>
      <trkpt lat="44.08684" lon="6.24515">
        <ele>765</ele>
        <time>2018-05-16T10:47:51Z</time>
      </trkpt>
      <trkpt lat="44.08714" lon="6.24481">
        <ele>754</ele>
        <time>2018-05-16T10:48:51Z</time>
      </trkpt>
      <trkpt lat="44.08701" lon="6.24552">
        <ele>748</ele>
        <time>2018-05-16T10:49:51Z</time>
      </trkpt>
      <trkpt lat="44.08774" lon="6.24511">
        <ele>732</ele>
        <time>2018-05-16T10:50:51Z</time>
      </trkpt>
      <trkpt lat="44.08809" lon="6.24461">
        <ele>714</ele>
        <time>2018-05-16T10:51:51Z</time>
      </trkpt>
      <trkpt lat="44.08784" lon="6.24554">
        <ele>714</ele>
        <time>2018-05-16T10:52:51Z</time>
      </trkpt>
      <trkpt lat="44.08784" lon="6.24554">
        <ele>714</ele>
        <time>2018-05-16T10:53:51Z</time>
      </trkpt>
      <trkpt lat="44.08744" lon="6.24603">
        <ele>714</ele>
        <time>2018-05-16T10:54:51Z</time>
      </trkpt>
      <trkpt lat="44.08857" lon="6.24526">
        <ele>688</ele>
        <time>2018-05-16T10:55:51Z</time>
      </trkpt>
      <trkpt lat="44.08928" lon="6.24412">
        <ele>660</ele>
        <time>2018-05-16T10:56:51Z</time>
      </trkpt>
      <trkpt lat="44.08915" lon="6.24526">
        <ele>657</ele>
        <time>2018-05-16T10:57:51Z</time>
      </trkpt>
      <trkpt lat="44.08891" lon="6.24616">
        <ele>645</ele>
        <time>2018-05-16T10:58:51Z</time>
      </trkpt>
      <trkpt lat="44.08806" lon="6.24755">
        <ele>630</ele>
        <time>2018-05-16T10:59:51Z</time>
      </trkpt>
      <trkpt lat="44.08794" lon="6.24781">
        <ele>628</ele>
        <time>2018-05-16T11:00:51Z</time>
      </trkpt>
      <trkpt lat="44.08817" lon="6.24848">
        <ele>618</ele>
        <time>2018-05-16T11:01:51Z</time>
      </trkpt>
      <trkpt lat="44.0882" lon="6.24848">
        <ele>618</ele>
        <time>2018-05-16T11:02:51Z</time>
      </trkpt>
      <trkpt lat="44.08862" lon="6.24858">
        <ele>616</ele>
        <time>2018-05-16T11:03:51Z</time>
      </trkpt>
      <trkpt lat="44.0888" lon="6.24921">
        <ele>617</ele>
        <time>2018-05-16T11:04:51Z</time>
      </trkpt>
      <trkpt lat="44.0888" lon="6.24923">
        <ele>617</ele>
        <time>2018-05-16T11:05:51Z</time>
      </trkpt>
      <trkpt lat="44.08993" lon="6.24869">
        <ele>615</ele>
        <time>2018-05-16T11:06:51Z</time>
      </trkpt>
      <trkpt lat="44.09005" lon="6.24745">
        <ele>614</ele>
        <time>2018-05-16T11:07:51Z</time>
      </trkpt>
      <trkpt lat="44.09048" lon="6.24663">
        <ele>613</ele>
        <time>2018-05-16T11:08:51Z</time>
      </trkpt>
      <trkpt lat="44.09094" lon="6.24564">
        <ele>614</ele>
        <time>2018-05-16T11:09:51Z</time>
      </trkpt>
      <trkpt lat="44.09082" lon="6.24496">
        <ele>611</ele>
        <time>2018-05-16T11:10:51Z</time>
      </trkpt>
      <trkpt lat="44.09141" lon="6.24419">
        <ele>632</ele>
        <time>2018-05-16T11:11:51Z</time>
      </trkpt>
      <trkpt lat="44.09134" lon="6.24307">
        <ele>621</ele>
        <time>2018-05-16T11:12:51Z</time>
      </trkpt>
      <trkpt lat="44.0898" lon="6.23981">
        <ele>605</ele>
        <time>2018-05-16T11:13:51Z</time>
      </trkpt>
      <trkpt lat="44.08999" lon="6.23839">
        <ele>600</ele>
        <time>2018-05-16T11:14:51Z</time>
      </trkpt>
      <trkpt lat="44.0902" lon="6.23723">
        <ele>601</ele>
        <time>2018-05-16T11:15:51Z</time>
      </trkpt>
      <trkpt lat="44.09048" lon="6.23599">
        <ele>603</ele>
        <time>2018-05-16T11:16:51Z</time>
      </trkpt>
      <trkpt lat="44.09091" lon="6.23346">
        <ele>598</ele>
        <time>2018-05-16T11:17:51Z</time>
      </trkpt>
      <trkpt lat="44.09008" lon="6.2332">
        <ele>595</ele>
        <time>2018-05-16T11:18:51Z</time>
      </trkpt>
      <trkpt lat="44.08919" lon="6.23238">
        <ele>593</ele>
        <time>2018-05-16T11:19:51Z</time>
      </trkpt>
      <trkpt lat="44.08823" lon="6.23174">
        <ele>596</ele>
        <time>2018-05-16T11:20:51Z</time>
      </trkpt>
      <trkpt lat="44.08885" lon="6.22985">
        <ele>592</ele>
        <time>2018-05-16T11:21:51Z</time>
      </trkpt>
      <trkpt lat="44.08909" lon="6.22917">
        <ele>589</ele>
        <time>2018-05-16T11:22:51Z</time>
      </trkpt>
      <trkpt lat="44.08539" lon="6.2259">
        <ele>585</ele>
        <time>2018-05-16T11:23:51Z</time>
      </trkpt>
      <trkpt lat="44.08327" lon="6.22196">
        <ele>582</ele>
        <time>2018-05-16T11:24:51Z</time>
      </trkpt>
      <trkpt lat="44.08265" lon="6.22054">
        <ele>581</ele>
        <time>2018-05-16T11:25:51Z</time>
      </trkpt>
      <trkpt lat="44.08145" lon="6.21792">
        <ele>579</ele>
        <time>2018-05-16T11:26:51Z</time>
      </trkpt>
      <trkpt lat="44.08034" lon="6.21414">
        <ele>574</ele>
        <time>2018-05-16T11:27:51Z</time>
      </trkpt>
      <trkpt lat="44.08018" lon="6.21337">
        <ele>573</ele>
        <time>2018-05-16T11:28:51Z</time>
      </trkpt>
      <trkpt lat="44.07972" lon="6.21217">
        <ele>574</ele>
        <time>2018-05-16T11:29:51Z</time>
      </trkpt>
      <trkpt lat="44.07886" lon="6.21093">
        <ele>575</ele>
        <time>2018-05-16T11:30:51Z</time>
      </trkpt>
      <trkpt lat="44.07837" lon="6.20955">
        <ele>572</ele>
        <time>2018-05-16T11:31:51Z</time>
      </trkpt>
      <trkpt lat="44.07803" lon="6.20749">
        <ele>570</ele>
        <time>2018-05-16T11:32:51Z</time>
      </trkpt>
      <trkpt lat="44.07778" lon="6.20642">
        <ele>572</ele>
        <time>2018-05-16T11:33:51Z</time>
      </trkpt>
      <trkpt lat="44.07698" lon="6.20582">
        <ele>574</ele>
        <time>2018-05-16T11:34:51Z</time>
      </trkpt>
      <trkpt lat="44.07599" lon="6.20539">
        <ele>574</ele>
        <time>2018-05-16T11:35:51Z</time>
      </trkpt>
      <trkpt lat="44.07531" lon="6.20616">
        <ele>579</ele>
        <time>2018-05-16T11:36:51Z</time>
      </trkpt>
      <trkpt lat="44.07584" lon="6.20754">
        <ele>580</ele>
        <time>2018-05-16T11:37:51Z</time>
      </trkpt>
      <trkpt lat="44.07467" lon="6.20779">
        <ele>588</ele>
        <time>2018-05-16T11:38:51Z</time>
      </trkpt>
      <trkpt lat="44.07396" lon="6.20771">
        <ele>592</ele>
        <time>2018-05-16T11:39:51Z</time>
      </trkpt>
      <trkpt lat="44.07214" lon="6.20706">
        <ele>596</ele>
        <time>2018-05-16T11:40:51Z</time>
      </trkpt>
      <trkpt lat="44.0718" lon="6.20633">
        <ele>593</ele>
        <time>2018-05-16T11:41:51Z</time>
      </trkpt>
      <trkpt lat="44.07134" lon="6.20582">
        <ele>592</ele>
        <time>2018-05-16T11:42:51Z</time>
      </trkpt>
      <trkpt lat="44.07047" lon="6.20526">
        <ele>589</ele>
        <time>2018-05-16T11:43:51Z</time>
      </trkpt>
      <trkpt lat="44.06973" lon="6.20475">
        <ele>586</ele>
        <time>2018-05-16T11:44:51Z</time>
      </trkpt>
      <trkpt lat="44.06905" lon="6.20372">
        <ele>587</ele>
        <time>2018-05-16T11:45:51Z</time>
      </trkpt>
      <trkpt lat="44.06831" lon="6.20221">
        <ele>588</ele>
        <time>2018-05-16T11:46:51Z</time>
      </trkpt>
      <trkpt lat="44.06751" lon="6.2014">
        <ele>591</ele>
        <time>2018-05-16T11:47:51Z</time>
      </trkpt>
      <trkpt lat="44.06659" lon="6.20028">
        <ele>590</ele>
        <time>2018-05-16T11:48:51Z</time>
      </trkpt>
      <trkpt lat="44.06563" lon="6.19947">
        <ele>591</ele>
        <time>2018-05-16T11:49:51Z</time>
      </trkpt>
      <trkpt lat="44.06452" lon="6.19861">
        <ele>595</ele>
        <time>2018-05-16T11:50:51Z</time>
      </trkpt>
      <trkpt lat="44.0639" lon="6.19839">
        <ele>602</ele>
        <time>2018-05-16T11:51:51Z</time>
      </trkpt>
      <trkpt lat="44.0632" lon="6.19792">
        <ele>614</ele>
        <time>2018-05-16T11:52:51Z</time>
      </trkpt>
      <trkpt lat="44.06307" lon="6.19711">
        <ele>618</ele>
        <time>2018-05-16T11:53:51Z</time>
      </trkpt>
      <trkpt lat="44.06279" lon="6.19659">
        <ele>625</ele>
        <time>2018-05-16T11:54:51Z</time>
      </trkpt>
      <trkpt lat="44.06283" lon="6.19586">
        <ele>628</ele>
        <time>2018-05-16T11:55:51Z</time>
      </trkpt>
      <trkpt lat="44.06227" lon="6.19449">
        <ele>645</ele>
        <time>2018-05-16T11:56:51Z</time>
      </trkpt>
      <trkpt lat="44.06193" lon="6.19432">
        <ele>655</ele>
        <time>2018-05-16T11:57:51Z</time>
      </trkpt>
      <trkpt lat="44.06119" lon="6.19599">
        <ele>655</ele>
        <time>2018-05-16T11:58:51Z</time>
      </trkpt>
      <trkpt lat="44.06067" lon="6.19591">
        <ele>659</ele>
        <time>2018-05-16T11:59:51Z</time>
      </trkpt>
      <trkpt lat="44.06036" lon="6.19642">
        <ele>654</ele>
        <time>2018-05-16T12:00:51Z</time>
      </trkpt>
      <trkpt lat="44.06011" lon="6.19419">
        <ele>654</ele>
        <time>2018-05-16T12:01:51Z</time>
      </trkpt>
      <trkpt lat="44.05956" lon="6.19329">
        <ele>637</ele>
        <time>2018-05-16T12:02:51Z</time>
      </trkpt>
      <trkpt lat="44.05931" lon="6.19243">
        <ele>624</ele>
        <time>2018-05-16T12:03:51Z</time>
      </trkpt>
      <trkpt lat="44.05888" lon="6.19282">
        <ele>617</ele>
        <time>2018-05-16T12:04:51Z</time>
      </trkpt>
      <trkpt lat="44.05869" lon="6.19243">
        <ele>613</ele>
        <time>2018-05-16T12:05:51Z</time>
      </trkpt>
      <trkpt lat="44.05838" lon="6.19153">
        <ele>607</ele>
        <time>2018-05-16T12:06:51Z</time>
      </trkpt>
      <trkpt lat="44.05786" lon="6.18981">
        <ele>591</ele>
        <time>2018-05-16T12:07:51Z</time>
      </trkpt>
      <trkpt lat="44.05709" lon="6.1893">
        <ele>583</ele>
        <time>2018-05-16T12:08:51Z</time>
      </trkpt>
      <trkpt lat="44.05666" lon="6.18895">
        <ele>577</ele>
        <time>2018-05-16T12:09:51Z</time>
      </trkpt>
      <trkpt lat="44.05647" lon="6.18831">
        <ele>573</ele>
        <time>2018-05-16T12:10:51Z</time>
      </trkpt>
      <trkpt lat="44.05601" lon="6.18792">
        <ele>574</ele>
        <time>2018-05-16T12:11:51Z</time>
      </trkpt>
      <trkpt lat="44.05561" lon="6.18732">
        <ele>578</ele>
        <time>2018-05-16T12:12:51Z</time>
      </trkpt>
      <trkpt lat="44.05502" lon="6.18655">
        <ele>584</ele>
        <time>2018-05-16T12:13:51Z</time>
      </trkpt>
      <trkpt lat="44.05413" lon="6.18522">
        <ele>595</ele>
        <time>2018-05-16T12:14:51Z</time>
      </trkpt>
      <trkpt lat="44.05385" lon="6.18479">
        <ele>595</ele>
        <time>2018-05-16T12:15:51Z</time>
      </trkpt>
      <trkpt lat="44.05317" lon="6.18436">
        <ele>591</ele>
        <time>2018-05-16T12:16:51Z</time>
      </trkpt>
      <trkpt lat="44.05336" lon="6.18376">
        <ele>585</ele>
        <time>2018-05-16T12:17:51Z</time>
      </trkpt>
      <trkpt lat="44.05326" lon="6.18316">
        <ele>582</ele>
        <time>2018-05-16T12:18:51Z</time>
      </trkpt>
      <trkpt lat="44.05302" lon="6.18269">
        <ele>583</ele>
        <time>2018-05-16T12:19:51Z</time>
      </trkpt>
      <trkpt lat="44.05237" lon="6.18187">
        <ele>588</ele>
        <time>2018-05-16T12:20:51Z</time>
      </trkpt>
      <trkpt lat="44.05191" lon="6.18076">
        <ele>584</ele>
        <time>2018-05-16T12:21:51Z</time>
      </trkpt>
      <trkpt lat="44.05299" lon="6.18131">
        <ele>576</ele>
        <time>2018-05-16T12:22:51Z</time>
      </trkpt>
      <trkpt lat="44.05388" lon="6.18059">
        <ele>568</ele>
        <time>2018-05-16T12:23:51Z</time>
      </trkpt>
      <trkpt lat="44.05447" lon="6.17835">
        <ele>562</ele>
        <time>2018-05-16T12:24:51Z</time>
      </trkpt>
      <trkpt lat="44.05462" lon="6.17681">
        <ele>556</ele>
        <time>2018-05-16T12:25:51Z</time>
      </trkpt>
      <trkpt lat="44.05505" lon="6.17599">
        <ele>552</ele>
        <time>2018-05-16T12:26:51Z</time>
      </trkpt>
      <trkpt lat="44.05465" lon="6.17501">
        <ele>551</ele>
        <time>2018-05-16T12:27:51Z</time>
      </trkpt>
      <trkpt lat="44.05499" lon="6.17389">
        <ele>547</ele>
        <time>2018-05-16T12:28:51Z</time>
      </trkpt>
      <trkpt lat="44.05549" lon="6.17256">
        <ele>544</ele>
        <time>2018-05-16T12:29:51Z</time>
      </trkpt>
      <trkpt lat="44.05604" lon="6.17153">
        <ele>542</ele>
        <time>2018-05-16T12:30:51Z</time>
      </trkpt>
      <trkpt lat="44.0569" lon="6.16977">
        <ele>536</ele>
        <time>2018-05-16T12:31:51Z</time>
      </trkpt>
      <trkpt lat="44.05638" lon="6.16805">
        <ele>533</ele>
        <time>2018-05-16T12:32:51Z</time>
      </trkpt>
      <trkpt lat="44.05542" lon="6.16677">
        <ele>530</ele>
        <time>2018-05-16T12:33:51Z</time>
      </trkpt>
      <trkpt lat="44.05413" lon="6.16548">
        <ele>529</ele>
        <time>2018-05-16T12:34:51Z</time>
      </trkpt>
      <trkpt lat="44.05305" lon="6.16411">
        <ele>529</ele>
        <time>2018-05-16T12:35:51Z</time>
      </trkpt>
      <trkpt lat="44.05265" lon="6.16381">
        <ele>530</ele>
        <time>2018-05-16T12:36:51Z</time>
      </trkpt>
      <trkpt lat="44.05191" lon="6.1626">
        <ele>530</ele>
        <time>2018-05-16T12:37:51Z</time>
      </trkpt>
      <trkpt lat="44.05104" lon="6.16278">
        <ele>528</ele>
        <time>2018-05-16T12:38:51Z</time>
      </trkpt>
      <trkpt lat="44.04972" lon="6.16428">
        <ele>532</ele>
        <time>2018-05-16T12:39:51Z</time>
      </trkpt>
      <trkpt lat="44.04885" lon="6.16376">
        <ele>530</ele>
        <time>2018-05-16T12:40:51Z</time>
      </trkpt>
      <trkpt lat="44.04821" lon="6.16278">
        <ele>529</ele>
        <time>2018-05-16T12:41:51Z</time>
      </trkpt>
      <trkpt lat="44.0479" lon="6.16209">
        <ele>529</ele>
        <time>2018-05-16T12:42:51Z</time>
      </trkpt>
      <trkpt lat="44.04777" lon="6.16072">
        <ele>527</ele>
        <time>2018-05-16T12:43:51Z</time>
      </trkpt>
      <trkpt lat="44.04713" lon="6.15973">
        <ele>524</ele>
        <time>2018-05-16T12:44:51Z</time>
      </trkpt>
      <trkpt lat="44.04636" lon="6.15861">
        <ele>521</ele>
        <time>2018-05-16T12:45:51Z</time>
      </trkpt>
      <trkpt lat="44.04531" lon="6.15745">
        <ele>518</ele>
        <time>2018-05-16T12:46:51Z</time>
      </trkpt>
      <trkpt lat="44.04441" lon="6.1563">
        <ele>518</ele>
        <time>2018-05-16T12:47:51Z</time>
      </trkpt>
      <trkpt lat="44.04389" lon="6.15569">
        <ele>517</ele>
        <time>2018-05-16T12:48:51Z</time>
      </trkpt>
      <trkpt lat="44.04333" lon="6.15454">
        <ele>516</ele>
        <time>2018-05-16T12:49:51Z</time>
      </trkpt>
      <trkpt lat="44.04272" lon="6.15363">
        <ele>515</ele>
        <time>2018-05-16T12:50:51Z</time>
      </trkpt>
      <trkpt lat="44.04201" lon="6.15269">
        <ele>514</ele>
        <time>2018-05-16T12:51:51Z</time>
      </trkpt>
      <trkpt lat="44.04099" lon="6.15282">
        <ele>520</ele>
        <time>2018-05-16T12:52:51Z</time>
      </trkpt>
      <trkpt lat="44.04006" lon="6.15209">
        <ele>526</ele>
        <time>2018-05-16T12:53:51Z</time>
      </trkpt>
      <trkpt lat="44.03988" lon="6.15106">
        <ele>522</ele>
        <time>2018-05-16T12:54:51Z</time>
      </trkpt>
      <trkpt lat="44.04114" lon="6.14951">
        <ele>516</ele>
        <time>2018-05-16T12:55:51Z</time>
      </trkpt>
      <trkpt lat="44.04176" lon="6.14848">
        <ele>515</ele>
        <time>2018-05-16T12:56:51Z</time>
      </trkpt>
      <trkpt lat="44.04114" lon="6.1466">
        <ele>511</ele>
        <time>2018-05-16T12:57:51Z</time>
      </trkpt>
      <trkpt lat="44.04062" lon="6.14557">
        <ele>509</ele>
        <time>2018-05-16T12:58:51Z</time>
      </trkpt>
      <trkpt lat="44.04" lon="6.14509">
        <ele>510</ele>
        <time>2018-05-16T12:59:51Z</time>
      </trkpt>
      <trkpt lat="44.0392" lon="6.14389">
        <ele>509</ele>
        <time>2018-05-16T13:00:51Z</time>
      </trkpt>
      <trkpt lat="44.03935" lon="6.14321">
        <ele>507</ele>
        <time>2018-05-16T13:01:51Z</time>
      </trkpt>
      <trkpt lat="44.04071" lon="6.14218">
        <ele>512</ele>
        <time>2018-05-16T13:02:51Z</time>
      </trkpt>
      <trkpt lat="44.04009" lon="6.1408">
        <ele>508</ele>
        <time>2018-05-16T13:03:51Z</time>
      </trkpt>
      <trkpt lat="44.04077" lon="6.14016">
        <ele>510</ele>
        <time>2018-05-16T13:04:51Z</time>
      </trkpt>
      <trkpt lat="44.03929" lon="6.13685">
        <ele>508</ele>
        <time>2018-05-16T13:05:51Z</time>
      </trkpt>
      <trkpt lat="44.04022" lon="6.13608">
        <ele>509</ele>
        <time>2018-05-16T13:06:51Z</time>
      </trkpt>
      <trkpt lat="44.03803" lon="6.13231">
        <ele>502</ele>
        <time>2018-05-16T13:07:51Z</time>
      </trkpt>
      <trkpt lat="44.03741" lon="6.13128">
        <ele>504</ele>
        <time>2018-05-16T13:08:51Z</time>
      </trkpt>
      <trkpt lat="44.03608" lon="6.12797">
        <ele>497</ele>
        <time>2018-05-16T13:09:51Z</time>
      </trkpt>
      <trkpt lat="44.0383" lon="6.12733">
        <ele>498</ele>
        <time>2018-05-16T13:10:51Z</time>
      </trkpt>
      <trkpt lat="44.03988" lon="6.12694">
        <ele>500</ele>
        <time>2018-05-16T13:11:51Z</time>
      </trkpt>
      <trkpt lat="44.04123" lon="6.12638">
        <ele>504</ele>
        <time>2018-05-16T13:12:51Z</time>
      </trkpt>
      <trkpt lat="44.04157" lon="6.12574">
        <ele>507</ele>
        <time>2018-05-16T13:13:51Z</time>
      </trkpt>
      <trkpt lat="44.04231" lon="6.1251">
        <ele>510</ele>
        <time>2018-05-16T13:14:51Z</time>
      </trkpt>
      <trkpt lat="44.04312" lon="6.12454">
        <ele>516</ele>
        <time>2018-05-16T13:15:51Z</time>
      </trkpt>
      <trkpt lat="44.04379" lon="6.12389">
        <ele>520</ele>
        <time>2018-05-16T13:16:51Z</time>
      </trkpt>
      <trkpt lat="44.0437" lon="6.12321">
        <ele>523</ele>
        <time>2018-05-16T13:17:51Z</time>
      </trkpt>
      <trkpt lat="44.04398" lon="6.12218">
        <ele>528</ele>
        <time>2018-05-16T13:18:51Z</time>
      </trkpt>
      <trkpt lat="44.04407" lon="6.1202">
        <ele>541</ele>
        <time>2018-05-16T13:19:51Z</time>
      </trkpt>
      <trkpt lat="44.04441" lon="6.11883">
        <ele>547</ele>
        <time>2018-05-16T13:20:51Z</time>
      </trkpt>
      <trkpt lat="44.04491" lon="6.11733">
        <ele>554</ele>
        <time>2018-05-16T13:21:51Z</time>
      </trkpt>
      <trkpt lat="44.045" lon="6.116">
        <ele>567</ele>
        <time>2018-05-16T13:22:51Z</time>
      </trkpt>
      <trkpt lat="44.04602" lon="6.11342">
        <ele>557</ele>
        <time>2018-05-16T13:23:51Z</time>
      </trkpt>
      <trkpt lat="44.04561" lon="6.11321">
        <ele>557</ele>
        <time>2018-05-16T13:24:51Z</time>
      </trkpt>
      <trkpt lat="44.04611" lon="6.11235">
        <ele>543</ele>
        <time>2018-05-16T13:25:51Z</time>
      </trkpt>
      <trkpt lat="44.04623" lon="6.11153">
        <ele>535</ele>
        <time>2018-05-16T13:26:51Z</time>
      </trkpt>
      <trkpt lat="44.04765" lon="6.10999">
        <ele>521</ele>
        <time>2018-05-16T13:27:51Z</time>
      </trkpt>
      <trkpt lat="44.04808" lon="6.11132">
        <ele>523</ele>
        <time>2018-05-16T13:28:51Z</time>
      </trkpt>
      <trkpt lat="44.04864" lon="6.11205">
        <ele>524</ele>
        <time>2018-05-16T13:29:51Z</time>
      </trkpt>
      <trkpt lat="44.04864" lon="6.11312">
        <ele>527</ele>
        <time>2018-05-16T13:30:51Z</time>
      </trkpt>
      <trkpt lat="44.04873" lon="6.11411">
        <ele>529</ele>
        <time>2018-05-16T13:31:51Z</time>
      </trkpt>
      <trkpt lat="44.04975" lon="6.1157">
        <ele>536</ele>
        <time>2018-05-16T13:32:51Z</time>
      </trkpt>
      <trkpt lat="44.04959" lon="6.11638">
        <ele>538</ele>
        <time>2018-05-16T13:33:51Z</time>
      </trkpt>
      <trkpt lat="44.05061" lon="6.11771">
        <ele>552</ele>
        <time>2018-05-16T13:34:51Z</time>
      </trkpt>
      <trkpt lat="44.05191" lon="6.11553">
        <ele>549</ele>
        <time>2018-05-16T13:35:51Z</time>
      </trkpt>
      <trkpt lat="44.05333" lon="6.11256">
        <ele>534</ele>
        <time>2018-05-16T13:36:51Z</time>
      </trkpt>
      <trkpt lat="44.05388" lon="6.1105">
        <ele>527</ele>
        <time>2018-05-16T13:37:51Z</time>
      </trkpt>
      <trkpt lat="44.05502" lon="6.10986">
        <ele>528</ele>
        <time>2018-05-16T13:38:51Z</time>
      </trkpt>
      <trkpt lat="44.05354" lon="6.11016">
        <ele>525</ele>
        <time>2018-05-16T13:39:51Z</time>
      </trkpt>
      <trkpt lat="44.05296" lon="6.10943">
        <ele>522</ele>
        <time>2018-05-16T13:40:51Z</time>
      </trkpt>
      <trkpt lat="44.05206" lon="6.10849">
        <ele>521</ele>
        <time>2018-05-16T13:41:51Z</time>
      </trkpt>
      <trkpt lat="44.05107" lon="6.10814">
        <ele>518</ele>
        <time>2018-05-16T13:42:51Z</time>
      </trkpt>
      <trkpt lat="44.0503" lon="6.10643">
        <ele>514</ele>
        <time>2018-05-16T13:43:51Z</time>
      </trkpt>
      <trkpt lat="44.0503" lon="6.10501">
        <ele>513</ele>
        <time>2018-05-16T13:44:51Z</time>
      </trkpt>
      <trkpt lat="44.05132" lon="6.10239">
        <ele>528</ele>
        <time>2018-05-16T13:45:51Z</time>
      </trkpt>
      <trkpt lat="44.05191" lon="6.10154">
        <ele>535</ele>
        <time>2018-05-16T13:46:51Z</time>
      </trkpt>
      <trkpt lat="44.05727" lon="6.09776">
        <ele>575</ele>
        <time>2018-05-16T13:47:51Z</time>
      </trkpt>
      <trkpt lat="44.05922" lon="6.09845">
        <ele>572</ele>
        <time>2018-05-16T13:48:51Z</time>
      </trkpt>
      <trkpt lat="44.05962" lon="6.09776">
        <ele>574</ele>
        <time>2018-05-16T13:49:51Z</time>
      </trkpt>
      <trkpt lat="44.05993" lon="6.0939">
        <ele>594</ele>
        <time>2018-05-16T13:50:51Z</time>
      </trkpt>
      <trkpt lat="44.05993" lon="6.0933">
        <ele>599</ele>
        <time>2018-05-16T13:51:51Z</time>
      </trkpt>
      <trkpt lat="44.06107" lon="6.09063">
        <ele>612</ele>
        <time>2018-05-16T13:52:51Z</time>
      </trkpt>
      <trkpt lat="44.06178" lon="6.08815">
        <ele>619</ele>
        <time>2018-05-16T13:53:51Z</time>
      </trkpt>
      <trkpt lat="44.06202" lon="6.0875">
        <ele>624</ele>
        <time>2018-05-16T13:54:51Z</time>
      </trkpt>
      <trkpt lat="44.06264" lon="6.08939">
        <ele>620</ele>
        <time>2018-05-16T13:55:51Z</time>
      </trkpt>
      <trkpt lat="44.06366" lon="6.08746">
        <ele>625</ele>
        <time>2018-05-16T13:56:51Z</time>
      </trkpt>
      <trkpt lat="44.06384" lon="6.08523">
        <ele>635</ele>
        <time>2018-05-16T13:57:51Z</time>
      </trkpt>
      <trkpt lat="44.06427" lon="6.08437">
        <ele>634</ele>
        <time>2018-05-16T13:58:51Z</time>
      </trkpt>
      <trkpt lat="44.06412" lon="6.08373">
        <ele>636</ele>
        <time>2018-05-16T13:59:51Z</time>
      </trkpt>
      <trkpt lat="44.0635" lon="6.08373">
        <ele>642</ele>
        <time>2018-05-16T14:00:51Z</time>
      </trkpt>
      <trkpt lat="44.06347" lon="6.08179">
        <ele>650</ele>
        <time>2018-05-16T14:01:51Z</time>
      </trkpt>
      <trkpt lat="44.06341" lon="6.08076">
        <ele>647</ele>
        <time>2018-05-16T14:02:51Z</time>
      </trkpt>
      <trkpt lat="44.06366" lon="6.07986">
        <ele>641</ele>
        <time>2018-05-16T14:03:51Z</time>
      </trkpt>
      <trkpt lat="44.06363" lon="6.07802">
        <ele>632</ele>
        <time>2018-05-16T14:04:51Z</time>
      </trkpt>
      <trkpt lat="44.0639" lon="6.07712">
        <ele>632</ele>
        <time>2018-05-16T14:05:51Z</time>
      </trkpt>
      <trkpt lat="44.06412" lon="6.07428">
        <ele>624</ele>
        <time>2018-05-16T14:06:51Z</time>
      </trkpt>
      <trkpt lat="44.06449" lon="6.07355">
        <ele>619</ele>
        <time>2018-05-16T14:07:51Z</time>
      </trkpt>
      <trkpt lat="44.06532" lon="6.07377">
        <ele>630</ele>
        <time>2018-05-16T14:08:51Z</time>
      </trkpt>
      <trkpt lat="44.06477" lon="6.07274">
        <ele>613</ele>
        <time>2018-05-16T14:09:51Z</time>
      </trkpt>
      <trkpt lat="44.06557" lon="6.07231">
        <ele>626</ele>
        <time>2018-05-16T14:10:51Z</time>
      </trkpt>
      <trkpt lat="44.06511" lon="6.07119">
        <ele>618</ele>
        <time>2018-05-16T14:11:51Z</time>
      </trkpt>
      <trkpt lat="44.06545" lon="6.06973">
        <ele>636</ele>
        <time>2018-05-16T14:12:51Z</time>
      </trkpt>
      <trkpt lat="44.06545" lon="6.06853">
        <ele>639</ele>
        <time>2018-05-16T14:13:51Z</time>
      </trkpt>
      <trkpt lat="44.06548" lon="6.06755">
        <ele>635</ele>
        <time>2018-05-16T14:14:51Z</time>
      </trkpt>
      <trkpt lat="44.06606" lon="6.06682">
        <ele>629</ele>
        <time>2018-05-16T14:15:51Z</time>
      </trkpt>
      <trkpt lat="44.06705" lon="6.0663">
        <ele>631</ele>
        <time>2018-05-16T14:16:51Z</time>
      </trkpt>
      <trkpt lat="44.0677" lon="6.0657">
        <ele>633</ele>
        <time>2018-05-16T14:17:51Z</time>
      </trkpt>
      <trkpt lat="44.06822" lon="6.06489">
        <ele>633</ele>
        <time>2018-05-16T14:18:51Z</time>
      </trkpt>
      <trkpt lat="44.06825" lon="6.06386">
        <ele>629</ele>
        <time>2018-05-16T14:19:51Z</time>
      </trkpt>
      <trkpt lat="44.06905" lon="6.06308">
        <ele>639</ele>
        <time>2018-05-16T14:20:51Z</time>
      </trkpt>
      <trkpt lat="44.06807" lon="6.06326">
        <ele>630</ele>
        <time>2018-05-16T14:21:51Z</time>
      </trkpt>
      <trkpt lat="44.06841" lon="6.0621">
        <ele>644</ele>
        <time>2018-05-16T14:22:51Z</time>
      </trkpt>
      <trkpt lat="44.0685" lon="6.06132">
        <ele>651</ele>
        <time>2018-05-16T14:23:51Z</time>
      </trkpt>
      <trkpt lat="44.06927" lon="6.06077">
        <ele>657</ele>
        <time>2018-05-16T14:24:51Z</time>
      </trkpt>
      <trkpt lat="44.07026" lon="6.06055">
        <ele>669</ele>
        <time>2018-05-16T14:25:51Z</time>
      </trkpt>
      <trkpt lat="44.07007" lon="6.05836">
        <ele>681</ele>
        <time>2018-05-16T14:26:51Z</time>
      </trkpt>
      <trkpt lat="44.07016" lon="6.05678">
        <ele>683</ele>
        <time>2018-05-16T14:27:51Z</time>
      </trkpt>
      <trkpt lat="44.07066" lon="6.05605">
        <ele>690</ele>
        <time>2018-05-16T14:28:51Z</time>
      </trkpt>
      <trkpt lat="44.07072" lon="6.05532">
        <ele>683</ele>
        <time>2018-05-16T14:29:51Z</time>
      </trkpt>
      <trkpt lat="44.07112" lon="6.0545">
        <ele>689</ele>
        <time>2018-05-16T14:30:51Z</time>
      </trkpt>
      <trkpt lat="44.07063" lon="6.05347">
        <ele>684</ele>
        <time>2018-05-16T14:31:51Z</time>
      </trkpt>
      <trkpt lat="44.07109" lon="6.05197">
        <ele>699</ele>
        <time>2018-05-16T14:32:51Z</time>
      </trkpt>
      <trkpt lat="44.07137" lon="6.05133">
        <ele>715</ele>
        <time>2018-05-16T14:33:51Z</time>
      </trkpt>
      <trkpt lat="44.07072" lon="6.05072">
        <ele>707</ele>
        <time>2018-05-16T14:34:51Z</time>
      </trkpt>
      <trkpt lat="44.07053" lon="6.04991">
        <ele>718</ele>
        <time>2018-05-16T14:35:51Z</time>
      </trkpt>
      <trkpt lat="44.07007" lon="6.04927">
        <ele>717</ele>
        <time>2018-05-16T14:36:51Z</time>
      </trkpt>
      <trkpt lat="44.06979" lon="6.04721">
        <ele>733</ele>
        <time>2018-05-16T14:37:51Z</time>
      </trkpt>
      <trkpt lat="44.06933" lon="6.04643">
        <ele>740</ele>
        <time>2018-05-16T14:38:51Z</time>
      </trkpt>
      <trkpt lat="44.06908" lon="6.04562">
        <ele>747</ele>
        <time>2018-05-16T14:39:51Z</time>
      </trkpt>
      <trkpt lat="44.06878" lon="6.04502">
        <ele>760</ele>
        <time>2018-05-16T14:40:51Z</time>
      </trkpt>
      <trkpt lat="44.06881" lon="6.04433">
        <ele>766</ele>
        <time>2018-05-16T14:41:51Z</time>
      </trkpt>
      <trkpt lat="44.06905" lon="6.04356">
        <ele>758</ele>
        <time>2018-05-16T14:42:51Z</time>
      </trkpt>
      <trkpt lat="44.06853" lon="6.0427">
        <ele>776</ele>
        <time>2018-05-16T14:43:51Z</time>
      </trkpt>
      <trkpt lat="44.06853" lon="6.04193">
        <ele>779</ele>
        <time>2018-05-16T14:44:51Z</time>
      </trkpt>
      <trkpt lat="44.06801" lon="6.0415">
        <ele>778</ele>
        <time>2018-05-16T14:45:51Z</time>
      </trkpt>
      <trkpt lat="44.06776" lon="6.04034">
        <ele>777</ele>
        <time>2018-05-16T14:46:51Z</time>
      </trkpt>
      <trkpt lat="44.06736" lon="6.03909">
        <ele>770</ele>
        <time>2018-05-16T14:47:51Z</time>
      </trkpt>
      <trkpt lat="44.06754" lon="6.03841">
        <ele>765</ele>
        <time>2018-05-16T14:48:51Z</time>
      </trkpt>
      <trkpt lat="44.06597" lon="6.03725">
        <ele>769</ele>
        <time>2018-05-16T14:49:51Z</time>
      </trkpt>
      <trkpt lat="44.0648" lon="6.03635">
        <ele>759</ele>
        <time>2018-05-16T14:50:51Z</time>
      </trkpt>
      <trkpt lat="44.06286" lon="6.03575">
        <ele>755</ele>
        <time>2018-05-16T14:51:51Z</time>
      </trkpt>
      <trkpt lat="44.0619" lon="6.03467">
        <ele>755</ele>
        <time>2018-05-16T14:52:51Z</time>
      </trkpt>
      <trkpt lat="44.06101" lon="6.03377">
        <ele>749</ele>
        <time>2018-05-16T14:53:51Z</time>
      </trkpt>
      <trkpt lat="44.06039" lon="6.0339">
        <ele>739</ele>
        <time>2018-05-16T14:54:51Z</time>
      </trkpt>
      <trkpt lat="44.05937" lon="6.03424">
        <ele>716</ele>
        <time>2018-05-16T14:55:51Z</time>
      </trkpt>
      <trkpt lat="44.05823" lon="6.03442">
        <ele>697</ele>
        <time>2018-05-16T14:56:51Z</time>
      </trkpt>
      <trkpt lat="44.05715" lon="6.03493">
        <ele>666</ele>
        <time>2018-05-16T14:57:51Z</time>
      </trkpt>
      <trkpt lat="44.05629" lon="6.03515">
        <ele>639</ele>
        <time>2018-05-16T14:58:51Z</time>
      </trkpt>
      <trkpt lat="44.05712" lon="6.03605">
        <ele>644</ele>
        <time>2018-05-16T14:59:51Z</time>
      </trkpt>
      <trkpt lat="44.05703" lon="6.03682">
        <ele>622</ele>
        <time>2018-05-16T15:00:51Z</time>
      </trkpt>
      <trkpt lat="44.05573" lon="6.03721">
        <ele>606</ele>
        <time>2018-05-16T15:01:51Z</time>
      </trkpt>
      <trkpt lat="44.05493" lon="6.03776">
        <ele>605</ele>
        <time>2018-05-16T15:02:51Z</time>
      </trkpt>
      <trkpt lat="44.05585" lon="6.03802">
        <ele>600</ele>
        <time>2018-05-16T15:03:51Z</time>
      </trkpt>
      <trkpt lat="44.05687" lon="6.03772">
        <ele>597</ele>
        <time>2018-05-16T15:04:51Z</time>
      </trkpt>
      <trkpt lat="44.05897" lon="6.03764">
        <ele>593</ele>
        <time>2018-05-16T15:05:51Z</time>
      </trkpt>
      <trkpt lat="44.05675" lon="6.03927">
        <ele>561</ele>
        <time>2018-05-16T15:06:51Z</time>
      </trkpt>
      <trkpt lat="44.05629" lon="6.03991">
        <ele>552</ele>
        <time>2018-05-16T15:07:51Z</time>
      </trkpt>
      <trkpt lat="44.05573" lon="6.04047">
        <ele>543</ele>
        <time>2018-05-16T15:08:51Z</time>
      </trkpt>
      <trkpt lat="44.05511" lon="6.04055">
        <ele>536</ele>
        <time>2018-05-16T15:09:51Z</time>
      </trkpt>
      <trkpt lat="44.05484" lon="6.04021">
        <ele>536</ele>
        <time>2018-05-16T15:10:51Z</time>
      </trkpt>
      <trkpt lat="44.05373" lon="6.04021">
        <ele>523</ele>
        <time>2018-05-16T15:11:51Z</time>
      </trkpt>
      <trkpt lat="44.05317" lon="6.0403">
        <ele>516</ele>
        <time>2018-05-16T15:12:51Z</time>
      </trkpt>
      <trkpt lat="44.0528" lon="6.03978">
        <ele>514</ele>
        <time>2018-05-16T15:13:51Z</time>
      </trkpt>
      <trkpt lat="44.05197" lon="6.03944">
        <ele>508</ele>
        <time>2018-05-16T15:14:51Z</time>
      </trkpt>
      <trkpt lat="44.05083" lon="6.03957">
        <ele>490</ele>
        <time>2018-05-16T15:15:51Z</time>
      </trkpt>
      <trkpt lat="44.04972" lon="6.03905">
        <ele>472</ele>
        <time>2018-05-16T15:16:51Z</time>
      </trkpt>
      <trkpt lat="44.04956" lon="6.03789">
        <ele>466</ele>
        <time>2018-05-16T15:17:51Z</time>
      </trkpt>
      <trkpt lat="44.04864" lon="6.03669">
        <ele>450</ele>
        <time>2018-05-16T15:18:51Z</time>
      </trkpt>
      <trkpt lat="44.04802" lon="6.03605">
        <ele>443</ele>
        <time>2018-05-16T15:19:51Z</time>
      </trkpt>
      <trkpt lat="44.04679" lon="6.03558">
        <ele>436</ele>
        <time>2018-05-16T15:20:51Z</time>
      </trkpt>
      <trkpt lat="44.04617" lon="6.03515">
        <ele>433</ele>
        <time>2018-05-16T15:21:51Z</time>
      </trkpt>
      <trkpt lat="44.04429" lon="6.03553">
        <ele>430</ele>
        <time>2018-05-16T15:22:51Z</time>
      </trkpt>
      <trkpt lat="44.04395" lon="6.03296">
        <ele>430</ele>
        <time>2018-05-16T15:23:51Z</time>
      </trkpt>
      <trkpt lat="44.04478" lon="6.03128">
        <ele>433</ele>
        <time>2018-05-16T15:24:51Z</time>
      </trkpt>
      <trkpt lat="44.0442" lon="6.03107">
        <ele>432</ele>
        <time>2018-05-16T15:25:51Z</time>
      </trkpt>
      <trkpt lat="44.0446" lon="6.03017">
        <ele>431</ele>
        <time>2018-05-16T15:26:51Z</time>
      </trkpt>
      <trkpt lat="44.04429" lon="6.02974">
        <ele>430</ele>
        <time>2018-05-16T15:27:51Z</time>
      </trkpt>
      <trkpt lat="44.04635" lon="6.02991">
        <ele>432</ele>
        <time>2018-05-16T15:28:51Z</time>
      </trkpt>
      <trkpt lat="44.04728" lon="6.03038">
        <ele>431</ele>
        <time>2018-05-16T15:29:51Z</time>
      </trkpt>
      <trkpt lat="44.04802" lon="6.02922">
        <ele>428</ele>
        <time>2018-05-16T15:30:51Z</time>
      </trkpt>
      <trkpt lat="44.04978" lon="6.02729">
        <ele>426</ele>
        <time>2018-05-16T15:31:51Z</time>
      </trkpt>
      <trkpt lat="44.05222" lon="6.02502">
        <ele>427</ele>
        <time>2018-05-16T15:32:51Z</time>
      </trkpt>
      <trkpt lat="44.05305" lon="6.02399">
        <ele>433</ele>
        <time>2018-05-16T15:33:51Z</time>
      </trkpt>
      <trkpt lat="44.05456" lon="6.02038">
        <ele>431</ele>
        <time>2018-05-16T15:34:51Z</time>
      </trkpt>
      <trkpt lat="44.05468" lon="6.02096">
        <ele>440</ele>
        <time>2018-05-16T15:35:51Z</time>
      </trkpt>
      <trkpt lat="44.05721" lon="6.02143">
        <ele>444</ele>
        <time>2018-05-16T15:36:51Z</time>
      </trkpt>
      <trkpt lat="44.05928" lon="6.02229">
        <ele>447</ele>
        <time>2018-05-16T15:37:51Z</time>
      </trkpt>
      <trkpt lat="44.05989" lon="6.02141">
        <ele>434</ele>
        <time>2018-05-16T15:38:51Z</time>
      </trkpt>
      <trkpt lat="44.06178" lon="6.0218">
        <ele>431</ele>
        <time>2018-05-16T15:39:51Z</time>
      </trkpt>
      <trkpt lat="44.06418" lon="6.02227">
        <ele>431</ele>
        <time>2018-05-16T15:40:51Z</time>
      </trkpt>
      <trkpt lat="44.06915" lon="6.02309">
        <ele>433</ele>
        <time>2018-05-16T15:41:51Z</time>
      </trkpt>
      <trkpt lat="44.07192" lon="6.0233">
        <ele>435</ele>
        <time>2018-05-16T15:42:51Z</time>
      </trkpt>
      <trkpt lat="44.07328" lon="6.02313">
        <ele>434</ele>
        <time>2018-05-16T15:43:51Z</time>
      </trkpt>
      <trkpt lat="44.07457" lon="6.02227">
        <ele>438</ele>
        <time>2018-05-16T15:44:51Z</time>
      </trkpt>
      <trkpt lat="44.0755" lon="6.0224">
        <ele>443</ele>
        <time>2018-05-16T15:45:51Z</time>
      </trkpt>
      <trkpt lat="44.07658" lon="6.0221">
        <ele>447</ele>
        <time>2018-05-16T15:46:51Z</time>
      </trkpt>
      <trkpt lat="44.07762" lon="6.0221">
        <ele>451</ele>
        <time>2018-05-16T15:47:51Z</time>
      </trkpt>
      <trkpt lat="44.07935" lon="6.02197">
        <ele>452</ele>
        <time>2018-05-16T15:48:51Z</time>
      </trkpt>
      <trkpt lat="44.08092" lon="6.0215">
        <ele>449</ele>
        <time>2018-05-16T15:49:51Z</time>
      </trkpt>
      <trkpt lat="44.08268" lon="6.02137">
        <ele>441</ele>
        <time>2018-05-16T15:50:51Z</time>
      </trkpt>
      <trkpt lat="44.08373" lon="6.0215">
        <ele>440</ele>
        <time>2018-05-16T15:51:51Z</time>
      </trkpt>
      <trkpt lat="44.0853" lon="6.0215">
        <ele>442</ele>
        <time>2018-05-16T15:52:51Z</time>
      </trkpt>
      <trkpt lat="44.08851" lon="6.02086">
        <ele>433</ele>
        <time>2018-05-16T15:53:51Z</time>
      </trkpt>
      <trkpt lat="44.08965" lon="6.02141">
        <ele>433</ele>
        <time>2018-05-16T15:54:51Z</time>
      </trkpt>
      <trkpt lat="44.09085" lon="6.0218">
        <ele>431</ele>
        <time>2018-05-16T15:55:51Z</time>
      </trkpt>
      <trkpt lat="44.09332" lon="6.02201">
        <ele>435</ele>
        <time>2018-05-16T15:56:51Z</time>
      </trkpt>
      <trkpt lat="44.09467" lon="6.02296">
        <ele>439</ele>
        <time>2018-05-16T15:57:51Z</time>
      </trkpt>
      <trkpt lat="44.09597" lon="6.02334">
        <ele>433</ele>
        <time>2018-05-16T15:58:51Z</time>
      </trkpt>
      <trkpt lat="44.09698" lon="6.02386">
        <ele>437</ele>
        <time>2018-05-16T15:59:51Z</time>
      </trkpt>
      <trkpt lat="44.09902" lon="6.02399">
        <ele>440</ele>
        <time>2018-05-16T16:00:51Z</time>
      </trkpt>
      <trkpt lat="44.09997" lon="6.02352">
        <ele>439</ele>
        <time>2018-05-16T16:01:51Z</time>
      </trkpt>
      <trkpt lat="44.10247" lon="6.02459">
        <ele>452</ele>
        <time>2018-05-16T16:02:51Z</time>
      </trkpt>
      <trkpt lat="44.10117" lon="6.02279">
        <ele>435</ele>
        <time>2018-05-16T16:03:51Z</time>
      </trkpt>
      <trkpt lat="44.1021" lon="6.02244">
        <ele>440</ele>
        <time>2018-05-16T16:04:51Z</time>
      </trkpt>
      <trkpt lat="44.10256" lon="6.02124">
        <ele>435</ele>
        <time>2018-05-16T16:05:51Z</time>
      </trkpt>
      <trkpt lat="44.10262" lon="6.02038">
        <ele>434</ele>
        <time>2018-05-16T16:06:51Z</time>
      </trkpt>
      <trkpt lat="44.1029" lon="6.0191">
        <ele>433</ele>
        <time>2018-05-16T16:07:51Z</time>
      </trkpt>
      <trkpt lat="44.10284" lon="6.01665">
        <ele>435</ele>
        <time>2018-05-16T16:08:51Z</time>
      </trkpt>
      <trkpt lat="44.10364" lon="6.01498">
        <ele>434</ele>
        <time>2018-05-16T16:09:51Z</time>
      </trkpt>
      <trkpt lat="44.10447" lon="6.01433">
        <ele>435</ele>
        <time>2018-05-16T16:10:51Z</time>
      </trkpt>
      <trkpt lat="44.10497" lon="6.01356">
        <ele>436</ele>
        <time>2018-05-16T16:11:51Z</time>
      </trkpt>
      <trkpt lat="44.10595" lon="6.01292">
        <ele>438</ele>
        <time>2018-05-16T16:12:51Z</time>
      </trkpt>
      <trkpt lat="44.10691" lon="6.0127">
        <ele>438</ele>
        <time>2018-05-16T16:13:51Z</time>
      </trkpt>
      <trkpt lat="44.10669" lon="6.01206">
        <ele>435</ele>
        <time>2018-05-16T16:14:51Z</time>
      </trkpt>
      <trkpt lat="44.1082" lon="6.01077">
        <ele>433</ele>
        <time>2018-05-16T16:15:51Z</time>
      </trkpt>
      <trkpt lat="44.10826" lon="6.00974">
        <ele>431</ele>
        <time>2018-05-16T16:16:51Z</time>
      </trkpt>
      <trkpt lat="44.10913" lon="6.01077">
        <ele>436</ele>
        <time>2018-05-16T16:17:51Z</time>
      </trkpt>
      <trkpt lat="44.11002" lon="6.00978">
        <ele>435</ele>
        <time>2018-05-16T16:18:51Z</time>
      </trkpt>
      <trkpt lat="44.10802" lon="6.00618">
        <ele>435</ele>
        <time>2018-05-16T16:19:51Z</time>
      </trkpt>
      <trkpt lat="44.10919" lon="6.0045">
        <ele>434</ele>
        <time>2018-05-16T16:20:51Z</time>
      </trkpt>
      <trkpt lat="44.11039" lon="6.003">
        <ele>433</ele>
        <time>2018-05-16T16:21:51Z</time>
      </trkpt>
      <trkpt lat="44.11218" lon="6.00223">
        <ele>433</ele>
        <time>2018-05-16T16:22:51Z</time>
      </trkpt>
      <trkpt lat="44.11353" lon="6.00141">
        <ele>435</ele>
        <time>2018-05-16T16:23:51Z</time>
      </trkpt>
      <trkpt lat="44.11464" lon="6.00167">
        <ele>435</ele>
        <time>2018-05-16T16:24:51Z</time>
      </trkpt>
      <trkpt lat="44.11655" lon="6.00064">
        <ele>434</ele>
        <time>2018-05-16T16:25:51Z</time>
      </trkpt>
      <trkpt lat="44.11748" lon="5.99682">
        <ele>436</ele>
        <time>2018-05-16T16:26:51Z</time>
      </trkpt>
      <trkpt lat="44.11831" lon="5.99343">
        <ele>437</ele>
        <time>2018-05-16T16:27:51Z</time>
      </trkpt>
      <trkpt lat="44.11803" lon="5.99296">
        <ele>440</ele>
        <time>2018-05-16T16:28:51Z</time>
      </trkpt>
      <trkpt lat="44.11935" lon="5.99051">
        <ele>439</ele>
        <time>2018-05-16T16:29:51Z</time>
      </trkpt>
      <trkpt lat="44.11935" lon="5.98961">
        <ele>446</ele>
        <time>2018-05-16T16:30:51Z</time>
      </trkpt>
      <trkpt lat="44.12099" lon="5.9882">
        <ele>443</ele>
        <time>2018-05-16T16:31:51Z</time>
      </trkpt>
      <trkpt lat="44.12321" lon="5.98682">
        <ele>439</ele>
        <time>2018-05-16T16:32:51Z</time>
      </trkpt>
      <trkpt lat="44.12487" lon="5.98532">
        <ele>442</ele>
        <time>2018-05-16T16:33:51Z</time>
      </trkpt>
      <trkpt lat="44.12484" lon="5.98485">
        <ele>444</ele>
        <time>2018-05-16T16:34:51Z</time>
      </trkpt>
      <trkpt lat="44.1257" lon="5.98429">
        <ele>445</ele>
        <time>2018-05-16T16:35:51Z</time>
      </trkpt>
      <trkpt lat="44.12863" lon="5.98202">
        <ele>447</ele>
        <time>2018-05-16T16:36:51Z</time>
      </trkpt>
      <trkpt lat="44.12971" lon="5.98099">
        <ele>451</ele>
        <time>2018-05-16T16:37:51Z</time>
      </trkpt>
      <trkpt lat="44.13195" lon="5.97867">
        <ele>455</ele>
        <time>2018-05-16T16:38:51Z</time>
      </trkpt>
      <trkpt lat="44.13223" lon="5.97785">
        <ele>454</ele>
        <time>2018-05-16T16:39:51Z</time>
      </trkpt>
      <trkpt lat="44.13368" lon="5.97644">
        <ele>452</ele>
        <time>2018-05-16T16:40:51Z</time>
      </trkpt>
      <trkpt lat="44.1346" lon="5.97622">
        <ele>451</ele>
        <time>2018-05-16T16:41:51Z</time>
      </trkpt>
      <trkpt lat="44.13497" lon="5.97558">
        <ele>452</ele>
        <time>2018-05-16T16:42:51Z</time>
      </trkpt>
      <trkpt lat="44.13583" lon="5.97571">
        <ele>449</ele>
        <time>2018-05-16T16:43:51Z</time>
      </trkpt>
      <trkpt lat="44.1363" lon="5.97386">
        <ele>455</ele>
        <time>2018-05-16T16:44:51Z</time>
      </trkpt>
      <trkpt lat="44.13719" lon="5.97288">
        <ele>454</ele>
        <time>2018-05-16T16:45:51Z</time>
      </trkpt>
      <trkpt lat="44.13774" lon="5.97185">
        <ele>454</ele>
        <time>2018-05-16T16:46:51Z</time>
      </trkpt>
      <trkpt lat="44.14079" lon="5.96983">
        <ele>454</ele>
        <time>2018-05-16T16:47:51Z</time>
      </trkpt>
      <trkpt lat="44.13999" lon="5.96751">
        <ele>459</ele>
        <time>2018-05-16T16:48:51Z</time>
      </trkpt>
      <trkpt lat="44.13981" lon="5.96644">
        <ele>462</ele>
        <time>2018-05-16T16:49:51Z</time>
      </trkpt>
      <trkpt lat="44.13879" lon="5.96455">
        <ele>467</ele>
        <time>2018-05-16T16:50:51Z</time>
      </trkpt>
      <trkpt lat="44.13833" lon="5.96301">
        <ele>469</ele>
        <time>2018-05-16T16:51:51Z</time>
      </trkpt>
      <trkpt lat="44.13814" lon="5.96142">
        <ele>474</ele>
        <time>2018-05-16T16:52:51Z</time>
      </trkpt>
      <trkpt lat="44.1387" lon="5.96017">
        <ele>484</ele>
        <time>2018-05-16T16:53:51Z</time>
      </trkpt>
      <trkpt lat="44.13885" lon="5.95884">
        <ele>490</ele>
        <time>2018-05-16T16:54:51Z</time>
      </trkpt>
      <trkpt lat="44.13765" lon="5.95691">
        <ele>496</ele>
        <time>2018-05-16T16:55:51Z</time>
      </trkpt>
      <trkpt lat="44.13765" lon="5.95554">
        <ele>495</ele>
        <time>2018-05-16T16:56:51Z</time>
      </trkpt>
      <trkpt lat="44.1383" lon="5.95361">
        <ele>510</ele>
        <time>2018-05-16T16:57:51Z</time>
      </trkpt>
      <trkpt lat="44.13962" lon="5.95309">
        <ele>528</ele>
        <time>2018-05-16T16:58:51Z</time>
      </trkpt>
      <trkpt lat="44.14079" lon="5.95258">
        <ele>553</ele>
        <time>2018-05-16T16:59:51Z</time>
      </trkpt>
      <trkpt lat="44.1423" lon="5.95168">
        <ele>588</ele>
        <time>2018-05-16T17:00:51Z</time>
      </trkpt>
      <trkpt lat="44.14227" lon="5.95026">
        <ele>602</ele>
        <time>2018-05-16T17:01:51Z</time>
      </trkpt>
      <trkpt lat="44.14338" lon="5.94983">
        <ele>608</ele>
        <time>2018-05-16T17:02:51Z</time>
      </trkpt>
      <trkpt lat="44.14286" lon="5.94859">
        <ele>627</ele>
        <time>2018-05-16T17:03:51Z</time>
      </trkpt>
      <trkpt lat="44.14381" lon="5.94781">
        <ele>652</ele>
        <time>2018-05-16T17:04:51Z</time>
      </trkpt>
      <trkpt lat="44.14403" lon="5.94687">
        <ele>665</ele>
        <time>2018-05-16T17:05:51Z</time>
      </trkpt>
      <trkpt lat="44.14449" lon="5.94614">
        <ele>672</ele>
        <time>2018-05-16T17:06:51Z</time>
      </trkpt>
      <trkpt lat="44.14501" lon="5.94541">
        <ele>682</ele>
        <time>2018-05-16T17:07:51Z</time>
      </trkpt>
      <trkpt lat="44.14529" lon="5.94451">
        <ele>692</ele>
        <time>2018-05-16T17:08:51Z</time>
      </trkpt>
      <trkpt lat="44.14594" lon="5.94331">
        <ele>715</ele>
        <time>2018-05-16T17:09:51Z</time>
      </trkpt>
      <trkpt lat="44.14671" lon="5.94271">
        <ele>733</ele>
        <time>2018-05-16T17:10:51Z</time>
      </trkpt>
      <trkpt lat="44.14769" lon="5.94215">
        <ele>748</ele>
        <time>2018-05-16T17:11:51Z</time>
      </trkpt>
      <trkpt lat="44.14769" lon="5.94142">
        <ele>762</ele>
        <time>2018-05-16T17:12:51Z</time>
      </trkpt>
      <trkpt lat="44.14751" lon="5.94099">
        <ele>774</ele>
        <time>2018-05-16T17:13:51Z</time>
      </trkpt>
      <trkpt lat="44.14745" lon="5.93996">
        <ele>788</ele>
        <time>2018-05-16T17:14:51Z</time>
      </trkpt>
      <trkpt lat="44.14815" lon="5.93932">
        <ele>796</ele>
        <time>2018-05-16T17:15:51Z</time>
      </trkpt>
      <trkpt lat="44.14818" lon="5.93867">
        <ele>807</ele>
        <time>2018-05-16T17:16:51Z</time>
      </trkpt>
      <trkpt lat="44.14846" lon="5.93777">
        <ele>825</ele>
        <time>2018-05-16T17:17:51Z</time>
      </trkpt>
      <trkpt lat="44.14846" lon="5.93704">
        <ele>835</ele>
        <time>2018-05-16T17:18:51Z</time>
      </trkpt>
      <trkpt lat="44.1488" lon="5.93614">
        <ele>859</ele>
        <time>2018-05-16T17:19:51Z</time>
      </trkpt>
      <trkpt lat="44.14763" lon="5.93352">
        <ele>892</ele>
        <time>2018-05-16T17:20:51Z</time>
      </trkpt>
      <trkpt lat="44.14809" lon="5.93099">
        <ele>937</ele>
        <time>2018-05-16T17:21:51Z</time>
      </trkpt>
      <trkpt lat="44.14791" lon="5.92932">
        <ele>962</ele>
        <time>2018-05-16T17:22:51Z</time>
      </trkpt>
      <trkpt lat="44.14778" lon="5.92799">
        <ele>985</ele>
        <time>2018-05-16T17:23:51Z</time>
      </trkpt>
      <trkpt lat="44.14791" lon="5.92687">
        <ele>1005</ele>
        <time>2018-05-16T17:24:51Z</time>
      </trkpt>
      <trkpt lat="44.14843" lon="5.92507">
        <ele>1026</ele>
        <time>2018-05-16T17:25:51Z</time>
      </trkpt>
      <trkpt lat="44.14889" lon="5.92434">
        <ele>1018</ele>
        <time>2018-05-16T17:26:51Z</time>
      </trkpt>
      <trkpt lat="44.14929" lon="5.92262">
        <ele>988</ele>
        <time>2018-05-16T17:27:51Z</time>
      </trkpt>
      <trkpt lat="44.15074" lon="5.92198">
        <ele>974</ele>
        <time>2018-05-16T17:28:51Z</time>
      </trkpt>
      <trkpt lat="44.15105" lon="5.92022">
        <ele>966</ele>
        <time>2018-05-16T17:29:51Z</time>
      </trkpt>
      <trkpt lat="44.15157" lon="5.91799">
        <ele>978</ele>
        <time>2018-05-16T17:30:51Z</time>
      </trkpt>
      <trkpt lat="44.15179" lon="5.91726">
        <ele>979</ele>
        <time>2018-05-16T17:31:51Z</time>
      </trkpt>
      <trkpt lat="44.15317" lon="5.91468">
        <ele>953</ele>
        <time>2018-05-16T17:32:51Z</time>
      </trkpt>
      <trkpt lat="44.15465" lon="5.91593">
        <ele>898</ele>
        <time>2018-05-16T17:33:51Z</time>
      </trkpt>
      <trkpt lat="44.15554" lon="5.91649">
        <ele>871</ele>
        <time>2018-05-16T17:34:51Z</time>
      </trkpt>
      <trkpt lat="44.15616" lon="5.91314">
        <ele>811</ele>
        <time>2018-05-16T17:35:51Z</time>
      </trkpt>
      <trkpt lat="44.15681" lon="5.91408">
        <ele>787</ele>
        <time>2018-05-16T17:36:51Z</time>
      </trkpt>
      <trkpt lat="44.15798" lon="5.91494">
        <ele>751</ele>
        <time>2018-05-16T17:37:51Z</time>
      </trkpt>
      <trkpt lat="44.15924" lon="5.91494">
        <ele>705</ele>
        <time>2018-05-16T17:38:51Z</time>
      </trkpt>
      <trkpt lat="44.16007" lon="5.91511">
        <ele>676</ele>
        <time>2018-05-16T17:39:51Z</time>
      </trkpt>
      <trkpt lat="44.16065" lon="5.91588">
        <ele>659</ele>
        <time>2018-05-16T17:40:51Z</time>
      </trkpt>
      <trkpt lat="44.16195" lon="5.91588">
        <ele>628</ele>
        <time>2018-05-16T17:41:51Z</time>
      </trkpt>
      <trkpt lat="44.16275" lon="5.91533">
        <ele>616</ele>
        <time>2018-05-16T17:42:51Z</time>
      </trkpt>
      <trkpt lat="44.16349" lon="5.91447">
        <ele>601</ele>
        <time>2018-05-16T17:43:51Z</time>
      </trkpt>
      <trkpt lat="44.16453" lon="5.91434">
        <ele>574</ele>
        <time>2018-05-16T17:44:51Z</time>
      </trkpt>
      <trkpt lat="44.16635" lon="5.91417">
        <ele>540</ele>
        <time>2018-05-16T17:45:51Z</time>
      </trkpt>
      <trkpt lat="44.16693" lon="5.91524">
        <ele>521</ele>
        <time>2018-05-16T17:46:51Z</time>
      </trkpt>
      <trkpt lat="44.16801" lon="5.91511">
        <ele>502</ele>
        <time>2018-05-16T17:47:51Z</time>
      </trkpt>
      <trkpt lat="44.16786" lon="5.91666">
        <ele>496</ele>
        <time>2018-05-16T17:48:51Z</time>
      </trkpt>
      <trkpt lat="44.16675" lon="5.91945">
        <ele>502</ele>
        <time>2018-05-16T17:49:51Z</time>
      </trkpt>
      <trkpt lat="44.16746" lon="5.92121">
        <ele>483</ele>
        <time>2018-05-16T17:50:51Z</time>
      </trkpt>
      <trkpt lat="44.16746" lon="5.92279">
        <ele>482</ele>
        <time>2018-05-16T17:51:51Z</time>
      </trkpt>
      <trkpt lat="44.167" lon="5.92473">
        <ele>475</ele>
        <time>2018-05-16T17:52:51Z</time>
      </trkpt>
      <trkpt lat="44.16761" lon="5.92619">
        <ele>489</ele>
        <time>2018-05-16T17:53:51Z</time>
      </trkpt>
      <trkpt lat="44.1694" lon="5.92653">
        <ele>482</ele>
        <time>2018-05-16T17:54:51Z</time>
      </trkpt>
      <trkpt lat="44.16936" lon="5.92769">
        <ele>494</ele>
        <time>2018-05-16T17:55:51Z</time>
      </trkpt>
      <trkpt lat="44.1714" lon="5.92863">
        <ele>499</ele>
        <time>2018-05-16T17:56:51Z</time>
      </trkpt>
      <trkpt lat="44.17334" lon="5.93318">
        <ele>530</ele>
        <time>2018-05-16T17:57:51Z</time>
      </trkpt>
      <trkpt lat="44.1746" lon="5.93421">
        <ele>537</ele>
        <time>2018-05-16T17:58:51Z</time>
      </trkpt>
      <trkpt lat="44.17546" lon="5.93571">
        <ele>561</ele>
        <time>2018-05-16T17:59:51Z</time>
      </trkpt>
      <trkpt lat="44.17642" lon="5.93601">
        <ele>546</ele>
        <time>2018-05-16T18:00:51Z</time>
      </trkpt>
      <trkpt lat="44.17737" lon="5.93764">
        <ele>546</ele>
        <time>2018-05-16T18:01:51Z</time>
      </trkpt>
      <trkpt lat="44.17885" lon="5.93764">
        <ele>543</ele>
        <time>2018-05-16T18:02:51Z</time>
      </trkpt>
      <trkpt lat="44.17891" lon="5.93893">
        <ele>543</ele>
        <time>2018-05-16T18:03:51Z</time>
      </trkpt>
      <trkpt lat="44.17949" lon="5.93962">
        <ele>543</ele>
        <time>2018-05-16T18:04:51Z</time>
      </trkpt>
      <trkpt lat="44.17955" lon="5.94112">
        <ele>543</ele>
        <time>2018-05-16T18:05:51Z</time>
      </trkpt>
      <trkpt lat="44.183" lon="5.94065">
        <ele>549</ele>
        <time>2018-05-16T18:06:51Z</time>
      </trkpt>
      <trkpt lat="44.18328" lon="5.93987">
        <ele>551</ele>
        <time>2018-05-16T18:07:51Z</time>
      </trkpt>
      <trkpt lat="44.18448" lon="5.93949">
        <ele>554</ele>
        <time>2018-05-16T18:08:51Z</time>
      </trkpt>
      <trkpt lat="44.18596" lon="5.94">
        <ele>556</ele>
        <time>2018-05-16T18:09:51Z</time>
      </trkpt>
      <trkpt lat="44.18719" lon="5.9382">
        <ele>568</ele>
        <time>2018-05-16T18:10:51Z</time>
      </trkpt>
      <trkpt lat="44.18854" lon="5.93756">
        <ele>588</ele>
        <time>2018-05-16T18:11:51Z</time>
      </trkpt>
      <trkpt lat="44.18845" lon="5.93661">
        <ele>592</ele>
        <time>2018-05-16T18:12:51Z</time>
      </trkpt>
      <trkpt lat="44.18885" lon="5.93481">
        <ele>609</ele>
        <time>2018-05-16T18:13:51Z</time>
      </trkpt>
      <trkpt lat="44.189" lon="5.93369">
        <ele>616</ele>
        <time>2018-05-16T18:14:51Z</time>
      </trkpt>
      <trkpt lat="44.18977" lon="5.93305">
        <ele>635</ele>
        <time>2018-05-16T18:15:51Z</time>
      </trkpt>
      <trkpt lat="44.18965" lon="5.93223">
        <ele>638</ele>
        <time>2018-05-16T18:16:51Z</time>
      </trkpt>
      <trkpt lat="44.18919" lon="5.93133">
        <ele>635</ele>
        <time>2018-05-16T18:17:51Z</time>
      </trkpt>
      <trkpt lat="44.18909" lon="5.93035">
        <ele>638</ele>
        <time>2018-05-16T18:18:51Z</time>
      </trkpt>
      <trkpt lat="44.18983" lon="5.9294">
        <ele>660</ele>
        <time>2018-05-16T18:19:51Z</time>
      </trkpt>
      <trkpt lat="44.1906" lon="5.93082">
        <ele>666</ele>
        <time>2018-05-16T18:20:51Z</time>
      </trkpt>
      <trkpt lat="44.19085" lon="5.93185">
        <ele>667</ele>
        <time>2018-05-16T18:21:51Z</time>
      </trkpt>
      <trkpt lat="44.19085" lon="5.93279">
        <ele>666</ele>
        <time>2018-05-16T18:22:51Z</time>
      </trkpt>
      <trkpt lat="44.19122" lon="5.93357">
        <ele>685</ele>
        <time>2018-05-16T18:23:51Z</time>
      </trkpt>
      <trkpt lat="44.19079" lon="5.93563">
        <ele>683</ele>
        <time>2018-05-16T18:24:51Z</time>
      </trkpt>
      <trkpt lat="44.1918" lon="5.93704">
        <ele>702</ele>
        <time>2018-05-16T18:25:51Z</time>
      </trkpt>
      <trkpt lat="44.1926" lon="5.93807">
        <ele>700</ele>
        <time>2018-05-16T18:26:51Z</time>
      </trkpt>
      <trkpt lat="44.19325" lon="5.9373">
        <ele>689</ele>
        <time>2018-05-16T18:27:51Z</time>
      </trkpt>
      <trkpt lat="44.19343" lon="5.93575">
        <ele>687</ele>
        <time>2018-05-16T18:28:51Z</time>
      </trkpt>
      <trkpt lat="44.19393" lon="5.93751">
        <ele>646</ele>
        <time>2018-05-16T18:29:51Z</time>
      </trkpt>
      <trkpt lat="44.19362" lon="5.93867">
        <ele>639</ele>
        <time>2018-05-16T18:30:51Z</time>
      </trkpt>
      <trkpt lat="44.19306" lon="5.93996">
        <ele>619</ele>
        <time>2018-05-16T18:31:51Z</time>
      </trkpt>
      <trkpt lat="44.19408" lon="5.93914">
        <ele>596</ele>
        <time>2018-05-16T18:32:51Z</time>
      </trkpt>
      <trkpt lat="44.19454" lon="5.93824">
        <ele>594</ele>
        <time>2018-05-16T18:33:51Z</time>
      </trkpt>
      <trkpt lat="44.19479" lon="5.93747">
        <ele>597</ele>
        <time>2018-05-16T18:34:51Z</time>
      </trkpt>
      <trkpt lat="44.19562" lon="5.93687">
        <ele>573</ele>
        <time>2018-05-16T18:35:51Z</time>
      </trkpt>
      <trkpt lat="44.19553" lon="5.93584">
        <ele>582</ele>
        <time>2018-05-16T18:36:51Z</time>
      </trkpt>
      <trkpt lat="44.19602" lon="5.93674">
        <ele>559</ele>
        <time>2018-05-16T18:37:51Z</time>
      </trkpt>
      <trkpt lat="44.19645" lon="5.93777">
        <ele>532</ele>
        <time>2018-05-16T18:38:51Z</time>
      </trkpt>
      <trkpt lat="44.19593" lon="5.93957">
        <ele>520</ele>
        <time>2018-05-16T18:39:51Z</time>
      </trkpt>
      <trkpt lat="44.19626" lon="5.94035">
        <ele>512</ele>
        <time>2018-05-16T18:40:51Z</time>
      </trkpt>
      <trkpt lat="44.19645" lon="5.9415">
        <ele>506</ele>
        <time>2018-05-16T18:41:51Z</time>
      </trkpt>
      <trkpt lat="44.19777" lon="5.9415">
        <ele>528</ele>
        <time>2018-05-16T18:42:51Z</time>
      </trkpt>
      <trkpt lat="44.19854" lon="5.9412">
        <ele>538</ele>
        <time>2018-05-16T18:43:51Z</time>
      </trkpt>
      <trkpt lat="44.19869" lon="5.9406">
        <ele>538</ele>
        <time>2018-05-16T18:44:51Z</time>
      </trkpt>
      <trkpt lat="44.1994" lon="5.94039">
        <ele>540</ele>
        <time>2018-05-16T18:45:51Z</time>
      </trkpt>
      <trkpt lat="44.19949" lon="5.9406">
        <ele>536</ele>
        <time>2018-05-16T18:46:51Z</time>
      </trkpt>
      <trkpt lat="44.19943" lon="5.93927">
        <ele>548</ele>
        <time>2018-05-16T18:47:51Z</time>
      </trkpt>
      <trkpt lat="44.19925" lon="5.93824">
        <ele>556</ele>
        <time>2018-05-16T18:48:51Z</time>
      </trkpt>
      <trkpt lat="44.19925" lon="5.93747">
        <ele>554</ele>
        <time>2018-05-16T18:49:51Z</time>
      </trkpt>
      <trkpt lat="44.19971" lon="5.93674">
        <ele>534</ele>
        <time>2018-05-16T18:50:51Z</time>
      </trkpt>
      <trkpt lat="44.19925" lon="5.9361">
        <ele>550</ele>
        <time>2018-05-16T18:51:51Z</time>
      </trkpt>
      <trkpt lat="44.19906" lon="5.9349">
        <ele>558</ele>
        <time>2018-05-16T18:52:51Z</time>
      </trkpt>
      <trkpt lat="44.19916" lon="5.93391">
        <ele>559</ele>
        <time>2018-05-16T18:53:51Z</time>
      </trkpt>
      <trkpt lat="44.19913" lon="5.93262">
        <ele>560</ele>
        <time>2018-05-16T18:54:51Z</time>
      </trkpt>
      <trkpt lat="44.19888" lon="5.93198">
        <ele>565</ele>
        <time>2018-05-16T18:55:51Z</time>
      </trkpt>
      <trkpt lat="44.19903" lon="5.93026">
        <ele>566</ele>
        <time>2018-05-16T18:56:51Z</time>
      </trkpt>
      <trkpt lat="44.19869" lon="5.92979">
        <ele>573</ele>
        <time>2018-05-16T18:57:51Z</time>
      </trkpt>
      <trkpt lat="44.19842" lon="5.92799">
        <ele>577</ele>
        <time>2018-05-16T18:58:51Z</time>
      </trkpt>
      <trkpt lat="44.19848" lon="5.92593">
        <ele>583</ele>
        <time>2018-05-16T18:59:51Z</time>
      </trkpt>
      <trkpt lat="44.19851" lon="5.92451">
        <ele>591</ele>
        <time>2018-05-16T19:00:51Z</time>
      </trkpt>
      <trkpt lat="44.19879" lon="5.92301">
        <ele>592</ele>
        <time>2018-05-16T19:01:51Z</time>
      </trkpt>
      <trkpt lat="44.19857" lon="5.92103">
        <ele>599</ele>
        <time>2018-05-16T19:02:51Z</time>
      </trkpt>
      <trkpt lat="44.19848" lon="5.91902">
        <ele>592</ele>
        <time>2018-05-16T19:03:51Z</time>
      </trkpt>
      <trkpt lat="44.19869" lon="5.91704">
        <ele>584</ele>
        <time>2018-05-16T19:04:51Z</time>
      </trkpt>
      <trkpt lat="44.19833" lon="5.91588">
        <ele>588</ele>
        <time>2018-05-16T19:05:51Z</time>
      </trkpt>
      <trkpt lat="44.1982" lon="5.91473">
        <ele>580</ele>
        <time>2018-05-16T19:06:51Z</time>
      </trkpt>
      <trkpt lat="44.19805" lon="5.91395">
        <ele>574</ele>
        <time>2018-05-16T19:07:51Z</time>
      </trkpt>
      <trkpt lat="44.19746" lon="5.91348">
        <ele>572</ele>
        <time>2018-05-16T19:08:51Z</time>
      </trkpt>
    </trkseg>
  </trk>
</gpx>